Provisional Data: West Branch Susquehanna River near Milton, PA


Please select a monitoring station.
Please select start date.
Please select start date.

Toggle Unit: C/F Toggle Unit: C/F
Sample Time Temperature (C) Temperature (F) Specific Conductivity (mS/cm) pH   Turbidity (NTU+) DO (mg/L)
6/29/2021 12:00:00 AM 28.51 83.318 0.239 7.56 1.62 7.7
6/29/2021 12:15:00 AM 28.46 83.228 0.239 7.56 1.84 7.61
6/29/2021 12:30:00 AM 28.42 83.156 0.239 7.54 1.57 7.56
6/29/2021 12:45:00 AM 28.09 82.562 0.241 7.56 3.59 7.75
6/29/2021 1:00:00 AM 27.41 81.338 0.246 7.53 5.23 8.38
6/29/2021 1:15:00 AM 27.75 81.95 0.243 7.48 1.81 7.93
6/29/2021 1:30:00 AM 28.05 82.49 0.24 7.44 1.95 7.2
6/29/2021 1:45:00 AM 28.08 82.544 0.24 7.48 1.64 7.35
6/29/2021 2:00:00 AM 28.04 82.472 0.239 7.48 1.65 7.38
6/29/2021 2:15:00 AM 27.97 82.346 0.239 7.48 1.58 7.36
6/29/2021 2:30:00 AM 27.9 82.22 0.239 7.47 1.55 7.35
6/29/2021 2:45:00 AM 27.82 82.076 0.239 7.47 1.6 7.32
6/29/2021 3:00:00 AM 27.75 81.95 0.239 7.47 1.59 7.29
6/29/2021 3:15:00 AM 27.67 81.806 0.239 7.45 1.57 7.22
6/29/2021 3:30:00 AM 27.6 81.68 0.239 7.45 1.72 7.24
6/29/2021 3:45:00 AM 27.52 81.536 0.24 7.44 1.94 7.17
6/29/2021 4:00:00 AM 27.45 81.41 0.239 7.44 1.61 7.18
6/29/2021 4:15:00 AM 27.37 81.266 0.24 7.43 1.78 7.13
6/29/2021 4:30:00 AM 27.28 81.104 0.24 7.43 1.57 7.17
6/29/2021 4:45:00 AM 27.21 80.978 0.24 7.43 1.74 7.16
6/29/2021 5:00:00 AM 27.13 80.834 0.24 7.43 1.69 7.19
6/29/2021 5:15:00 AM 27.07 80.726 0.24 7.42 1.82 7.18
6/29/2021 5:30:00 AM 27 80.6 0.24 7.42 1.88 7.21
6/29/2021 5:45:00 AM 26.94 80.492 0.24 7.43 2.05 7.2
6/29/2021 6:00:00 AM 26.89 80.402 0.24 7.42 1.94 7.24
6/29/2021 6:15:00 AM 26.84 80.312 0.24 7.43 1.83 7.24
6/29/2021 6:30:00 AM 26.79 80.222 0.24 7.42 1.89 7.26
6/29/2021 6:45:00 AM 26.75 80.15 0.241 7.43 1.68 7.28
6/29/2021 7:00:00 AM 26.72 80.096 0.241 7.43 1.88 7.3
6/29/2021 7:15:00 AM 26.7 80.06 0.244 7.42 1.69 7.33
6/29/2021 7:30:00 AM 26.69 80.042 0.246 7.45 1.92 7.36
6/29/2021 7:45:00 AM 26.7 80.06 0.248 7.46 1.99 7.45
6/29/2021 8:00:00 AM 26.71 80.078 0.25 7.47 1.89 7.48
6/29/2021 8:15:00 AM 26.74 80.132 0.251 7.47 1.95 7.48
6/29/2021 8:30:00 AM 26.78 80.204 0.251 7.46 1.87 7.4
6/29/2021 8:45:00 AM 26.82 80.276 0.253 7.48 2.04 7.55
6/29/2021 9:00:00 AM 26.88 80.384 0.253 7.49 1.83 7.61
6/29/2021 9:15:00 AM 26.95 80.51 0.254 7.51 1.92 7.68
6/29/2021 9:30:00 AM 27.03 80.654 0.254 7.53 1.87 7.77
6/29/2021 9:45:00 AM 27.11 80.798 0.254 7.54 2.03 7.8
6/29/2021 10:00:00 AM 27.21 80.978 0.255 7.55 1.76 7.86
6/29/2021 10:15:00 AM 27.31 81.158 0.256 7.56 1.83 7.94
6/29/2021 10:30:00 AM 27.41 81.338 0.256 7.57 1.75 7.94
6/29/2021 10:45:00 AM 27.53 81.554 0.256 7.57 1.72 8.05
6/29/2021 11:00:00 AM 27.65 81.77 0.256 7.59 1.76 8.03
6/29/2021 11:15:00 AM 27.79 82.022 0.257 7.61 1.87 8.09
6/29/2021 11:30:00 AM 27.92 82.256 0.257 7.62 1.95 8.11
6/29/2021 11:45:00 AM 28.05 82.49 0.257 7.64 1.81 8.17
6/29/2021 12:00:00 PM 28.19 82.742 0.257 7.64 1.98 8.28
6/29/2021 12:15:00 PM 28.3 82.94 0.257 7.68 2.1 8.3
6/29/2021 12:30:00 PM 28.4 83.12 0.256 7.69 2.01 8.36
6/29/2021 12:45:00 PM 28.5 83.3 0.255 7.69 1.97 8.39
6/29/2021 1:00:00 PM 28.62 83.51601 0.254 7.71 1.64 8.43
6/29/2021 1:15:00 PM 28.75 83.75 0.253 7.69 1.92 8.46
6/29/2021 1:30:00 PM 28.83 83.894 0.252 7.73 1.78 8.52
6/29/2021 1:45:00 PM 29 84.2 0.25 7.74 1.96 8.5
6/29/2021 2:00:00 PM 29.14 84.452 0.249 7.76 1.71 8.58
6/29/2021 2:15:00 PM 29.25 84.65 0.248 7.77 1.8 8.64
6/29/2021 2:30:00 PM 29.32 84.776 0.247 7.77 1.89 8.65
6/29/2021 2:45:00 PM 29.34 84.812 0.247 7.79 1.83 8.69
6/29/2021 3:00:00 PM 29.43 84.974 0.248 7.81 1.82 8.71
6/29/2021 3:15:00 PM 29.51 85.118 0.249 7.81 1.85 8.71
6/29/2021 3:30:00 PM 29.57 85.226 0.249 7.83 1.75 8.76
6/29/2021 3:45:00 PM 29.64 85.35201 0.249 7.85 1.65 8.77
6/29/2021 4:00:00 PM 29.68 85.424 0.249 7.85 1.76 8.79
6/29/2021 4:15:00 PM 29.69 85.442 0.248 7.87 1.88 8.83
6/29/2021 4:30:00 PM 29.69 85.442 0.248 7.87 1.71 8.8
6/29/2021 4:45:00 PM 29.72 85.49599 0.247 7.85 1.83 8.75
6/29/2021 5:00:00 PM 29.76 85.568 0.248 7.89 1.75 8.85
6/29/2021 5:15:00 PM 29.79 85.622 0.247 7.89 2.23 8.82
6/29/2021 5:30:00 PM 29.84 85.712 0.247 7.92 1.89 8.88
6/29/2021 5:45:00 PM 29.86 85.748 0.247 7.93 1.88 8.88
6/29/2021 6:00:00 PM 29.89 85.802 0.247 7.94 1.84 8.91
6/29/2021 6:15:00 PM 29.9 85.82 0.247 7.96 1.98 8.95
6/29/2021 6:30:00 PM 29.91 85.838 0.246 7.96 2.14 8.94
6/29/2021 6:45:00 PM 29.93 85.874 0.247 7.96 3.11 8.91
6/29/2021 7:00:00 PM 29.95 85.91 0.246 7.97 2.75 8.92
6/29/2021 7:15:00 PM 29.96 85.92799 0.246 7.97 2.45 8.92
6/29/2021 7:30:00 PM 29.49 85.082 0.249 7.9 4.26 8.79
6/29/2021 7:45:00 PM 29.36 84.848 0.249 7.76 2.18 8.59
6/29/2021 8:00:00 PM 29.82 85.676 0.247 7.89 2.47 8.73
6/29/2021 8:15:00 PM 29.89 85.802 0.246 7.93 2.61 8.82
6/29/2021 8:30:00 PM 29.87 85.76601 0.247 7.93 2.65 8.76
6/29/2021 8:45:00 PM 29.84 85.712 0.246 7.91 2.57 8.72
6/29/2021 9:00:00 PM 29.82 85.676 0.246 7.89 2.38 8.64
6/29/2021 9:15:00 PM 29.81 85.658 0.247 7.88 2.45 8.59
6/29/2021 9:30:00 PM 29.82 85.676 0.247 7.85 2.28 8.51
6/29/2021 9:45:00 PM 29.82 85.676 0.247 7.83 2.1 8.42
6/29/2021 10:00:00 PM 29.83 85.694 0.247 7.8 2.08 8.32
6/29/2021 10:15:00 PM 29.84 85.712 0.246 7.79 2.11 8.27
6/29/2021 10:30:00 PM 29.81 85.658 0.247 7.77 2 8.17
6/29/2021 10:45:00 PM 29.79 85.622 0.247 7.75 1.97 8.1
6/29/2021 11:00:00 PM 29.77 85.586 0.246 7.74 1.91 8.06
6/29/2021 11:15:00 PM 29.74 85.532 0.247 7.72 1.94 8
6/29/2021 11:30:00 PM 29.71 85.478 0.246 7.71 2.01 7.92
6/29/2021 11:45:00 PM 29.66 85.388 0.247 7.7 1.92 7.91
6/30/2021 12:00:00 AM 29.61 85.298 0.247 7.68 1.93 7.87
6/30/2021 12:15:00 AM 29.55 85.18999 0.246 7.67 1.89 7.81
6/30/2021 12:30:00 AM 29.47 85.046 0.246 7.65 2.01 7.77
6/30/2021 12:45:00 AM 29.39 84.902 0.246 7.64 2.03 7.72
6/30/2021 1:00:00 AM 29.31 84.758 0.246 7.63 2.04 7.69
6/30/2021 1:15:00 AM 29.24 84.632 0.246 7.61 2.32 7.63
6/30/2021 1:30:00 AM 29.16 84.488 0.246 7.6 2.31 7.57
6/30/2021 1:45:00 AM 29.1 84.38 0.246 7.59 1.94 7.56
6/30/2021 2:00:00 AM 29.03 84.25401 0.246 7.58 2.07 7.51
6/30/2021 2:15:00 AM 28.96 84.128 0.246 7.57 1.94 7.49
6/30/2021 2:30:00 AM 28.89 84.002 0.246 7.57 2.02 7.48
6/30/2021 2:45:00 AM 28.82 83.876 0.246 7.55 2.01 7.43
6/30/2021 3:00:00 AM 28.75 83.75 0.246 7.55 1.88 7.38
6/30/2021 3:15:00 AM 28.68 83.624 0.246 7.53 1.84 7.33
6/30/2021 3:30:00 AM 28.6 83.48 0.246 7.53 1.81 7.32
6/30/2021 3:45:00 AM 28.53 83.354 0.246 7.52 1.92 7.28
6/30/2021 4:00:00 AM 28.46 83.228 0.246 7.51 1.83 7.26
6/30/2021 4:15:00 AM 28.39 83.102 0.246 7.51 1.93 7.24
6/30/2021 4:30:00 AM 28.33 82.994 0.246 7.49 1.82 7.22
6/30/2021 4:45:00 AM 28.27 82.886 0.247 7.48 1.91 7.17
6/30/2021 5:00:00 AM 28.2 82.76 0.247 7.48 1.84 7.11
6/30/2021 5:15:00 AM 28.14 82.652 0.247 7.47 1.95 7.12
6/30/2021 5:30:00 AM 28.09 82.562 0.247 7.47 1.9 7.11
6/30/2021 5:45:00 AM 28.03 82.454 0.247 7.46 1.96 7.09
6/30/2021 6:00:00 AM 27.98 82.364 0.249 7.47 2.04 7.06
6/30/2021 6:15:00 AM 27.93 82.274 0.251 7.46 1.73 7.11
6/30/2021 6:30:00 AM 27.9 82.22 0.254 7.47 1.83 7.12
6/30/2021 6:45:00 AM 27.85 82.13 0.255 7.47 1.7 7.12
6/30/2021 7:00:00 AM 27.82 82.076 0.256 7.48 2.01 7.15
6/30/2021 7:15:00 AM 27.8 82.04 0.259 7.48 1.88 7.17
6/30/2021 7:30:00 AM 27.79 82.022 0.259 7.49 1.88 7.23
6/30/2021 7:45:00 AM 27.78 82.004 0.26 7.49 1.91 7.27
6/30/2021 8:00:00 AM 27.79 82.022 0.26 7.5 2.07 7.28
6/30/2021 8:15:00 AM 27.81 82.058 0.26 7.5 1.96 7.32
6/30/2021 8:30:00 AM 27.83 82.094 0.26 7.49 1.96 7.17
6/30/2021 8:45:00 AM 27.84 82.112 0.261 7.55 2.78 7.59
6/30/2021 9:00:00 AM 28.36 83.048 0.259 7.57 2.23 8.05
6/30/2021 9:15:00 AM 28.11 82.598 0.261 7.52 1.77 7.53
6/30/2021 9:30:00 AM 28.04 82.472 0.264 7.56 1.87 7.57
6/30/2021 9:45:00 AM 28.11 82.598 0.265 7.57 1.7 7.63
6/30/2021 10:00:00 AM 28.19 82.742 0.264 7.58 1.7 7.67
6/30/2021 10:15:00 AM 28.27 82.886 0.264 7.59 1.76 7.71
6/30/2021 10:30:00 AM 28.38 83.084 0.262 7.6 1.77 7.73
6/30/2021 10:45:00 AM 28.46 83.228 0.261 7.61 1.65 7.8
6/30/2021 11:00:00 AM 28.57 83.426 0.26 7.62 1.81 7.86
6/30/2021 11:15:00 AM 28.69 83.642 0.258 7.62 1.63 7.9
6/30/2021 11:30:00 AM 28.81 83.858 0.256 7.64 1.76 7.95
6/30/2021 11:45:00 AM 28.92 84.056 0.255 7.66 1.77 7.98
6/30/2021 12:00:00 PM 29.05 84.28999 0.254 7.65 1.67 8.05
6/30/2021 12:15:00 PM 29.15 84.47 0.254 7.66 1.82 8.08
6/30/2021 12:30:00 PM 29.29 84.722 0.253 7.68 1.72 8.14
6/30/2021 12:45:00 PM 29.43 84.974 0.252 7.69 1.82 8.16
6/30/2021 1:00:00 PM 29.54 85.172 0.252 7.7 1.77 8.19
6/30/2021 1:15:00 PM 29.67 85.406 0.251 7.72 1.66 8.23
6/30/2021 1:30:00 PM 29.73 85.514 0.251 7.72 1.65 8.24
6/30/2021 1:45:00 PM 29.73 85.514 0.251 7.74 2.03 8.3
6/30/2021 2:00:00 PM 29.71 85.478 0.251 7.75 1.72 8.27
6/30/2021 2:15:00 PM 29.7 85.46001 0.251 7.75 1.81 8.3
6/30/2021 2:30:00 PM 29.65 85.37 0.251 7.75 1.68 8.34
6/30/2021 2:45:00 PM 29.57 85.226 0.25 7.75 1.91 8.32
6/30/2021 3:00:00 PM 29.51 85.118 0.251 7.77 1.69 8.36
6/30/2021 3:15:00 PM 29.47 85.046 0.25 7.76 1.86 8.31
6/30/2021 3:30:00 PM 29.4 84.92 0.25 7.72 1.84 8.28
6/30/2021 3:45:00 PM 29.26 84.668 0.248 7.74 2.07 8.2
6/30/2021 4:00:00 PM 29.09 84.362 0.247 7.72 1.67 8.07
6/30/2021 4:15:00 PM 28.98 84.164 0.246 7.73 3.23 7.98
6/30/2021 4:30:00 PM 28.84 83.912 0.242 7.68 3.13 7.85
6/30/2021 4:45:00 PM 28.77 83.786 0.242 7.69 4.85 7.86
6/30/2021 5:00:00 PM 28.66 83.588 0.239 7.74 11.47 7.77
6/30/2021 5:15:00 PM 28.66 83.588 0.236 7.76 18.77 7.69
6/30/2021 5:30:00 PM 28.81 83.858 0.24 7.63 10.04 7.27
6/30/2021 5:45:00 PM 29 84.2 0.245 7.69 6.97 7.58
6/30/2021 6:00:00 PM 29.08 84.344 0.248 7.7 4.64 7.7
6/30/2021 6:15:00 PM 29.12 84.416 0.251 7.73 3.45 7.78
6/30/2021 6:30:00 PM 29.16 84.488 0.253 7.72 3.37 7.74
6/30/2021 6:45:00 PM 29.19 84.542 0.254 7.65 2.9 7.59
6/30/2021 7:00:00 PM 29.21 84.578 0.254 7.7 2.75 7.57
6/30/2021 7:15:00 PM 29.22 84.59599 0.256 7.69 2.68 7.7
6/30/2021 7:30:00 PM 29.23 84.614 0.256 7.7 2.35 7.7
6/30/2021 7:45:00 PM 29.22 84.59599 0.257 7.69 2.25 7.66
6/30/2021 8:00:00 PM 29.22 84.59599 0.258 7.67 2.61 7.55
6/30/2021 8:15:00 PM 29.23 84.614 0.259 7.69 2.18 7.63
6/30/2021 8:30:00 PM 29.25 84.65 0.26 7.68 2.24 7.58
6/30/2021 8:45:00 PM 29.24 84.632 0.262 7.69 2.11 7.63
6/30/2021 9:00:00 PM 29.23 84.614 0.264 7.68 2.31 7.57
6/30/2021 9:15:00 PM 29.22 84.59599 0.264 7.67 2.47 7.52
6/30/2021 9:30:00 PM 29.2 84.56001 0.264 7.67 2.4 7.53
6/30/2021 9:45:00 PM 29.2 84.56001 0.263 7.65 2.4 7.45
6/30/2021 10:00:00 PM 29.17 84.506 0.262 7.65 2.15 7.45
6/30/2021 10:15:00 PM 29.14 84.452 0.261 7.64 2.33 7.4
6/30/2021 10:30:00 PM 29.11 84.39799 0.259 7.61 2.85 7.32
6/30/2021 10:45:00 PM 29.08 84.344 0.259 7.56 2.52 7.13
6/30/2021 11:00:00 PM 29.06 84.308 0.257 7.58 2.19 7.23
6/30/2021 11:15:00 PM 29.02 84.236 0.257 7.6 2.41 7.25
6/30/2021 11:30:00 PM 28.98 84.164 0.256 7.58 2.42 7.19
6/30/2021 11:45:00 PM 28.93 84.074 0.256 7.55 2.28 7.09
7/1/2021 12:00:00 AM 28.86 83.948 0.255 7.55 2.39 7.13
7/1/2021 12:15:00 AM 28.81 83.858 0.254 7.54 2.42 7.04
7/1/2021 12:30:00 AM 28.74 83.732 0.254 7.52 2.44 7.01
7/1/2021 12:45:00 AM 28.67 83.606 0.254 7.51 2.26 6.88
7/1/2021 1:00:00 AM 28.6 83.48 0.253 7.53 2.77 7.05
7/1/2021 1:15:00 AM 28.54 83.372 0.253 7.49 2.19 6.9
7/1/2021 1:30:00 AM 28.48 83.264 0.253 7.47 2.27 6.89
7/1/2021 1:45:00 AM 28.42 83.156 0.252 7.43 2.31 6.79
7/1/2021 2:00:00 AM 28.35 83.03 0.252 7.49 2.21 6.93
7/1/2021 2:15:00 AM 28.28 82.904 0.252 7.45 2.23 6.81
7/1/2021 2:30:00 AM 28.21 82.778 0.252 7.49 2.03 6.94
7/1/2021 2:45:00 AM 28.15 82.67 0.252 7.46 2.3 6.77
7/1/2021 3:00:00 AM 28.08 82.544 0.251 7.45 2.09 6.85
7/1/2021 3:15:00 AM 28.01 82.418 0.251 7.46 2.24 6.84
7/1/2021 3:30:00 AM 28.28 82.904 0.259 7.52 2.56 7.76
7/1/2021 3:45:00 AM 28.2 82.76 0.257 7.45 1.76 7.27
7/1/2021 4:00:00 AM 27.84 82.112 0.254 7.45 2.15 6.83
7/1/2021 4:15:00 AM 27.74 81.932 0.257 7.46 2.28 6.85
7/1/2021 4:30:00 AM 27.68 81.824 0.258 7.45 2.17 6.83
7/1/2021 4:45:00 AM 27.62 81.716 0.26 7.44 2.34 6.78
7/1/2021 5:00:00 AM 27.55 81.59 0.26 7.45 2.43 6.82
7/1/2021 5:15:00 AM 27.48 81.464 0.261 7.45 2.42 6.79
7/1/2021 5:30:00 AM 27.43 81.374 0.262 7.44 2.41 6.77
7/1/2021 5:45:00 AM 27.38 81.284 0.262 7.45 2.34 6.81
7/1/2021 6:00:00 AM 27.34 81.212 0.262 7.44 2.48 6.82
7/1/2021 6:15:00 AM 27.31 81.158 0.262 7.41 2.4 6.66
7/1/2021 6:30:00 AM 27.29 81.122 0.262 7.41 2.24 6.69
7/1/2021 6:45:00 AM 27.26 81.068 0.262 7.42 2.16 6.73
7/1/2021 7:00:00 AM 27.24 81.032 0.262 7.39 2.31 6.71
7/1/2021 7:15:00 AM 27.23 81.014 0.262 7.43 2.15 6.79
7/1/2021 7:30:00 AM 27.22 80.996 0.261 7.42 2.06 6.73
7/1/2021 7:45:00 AM 27.21 80.978 0.26 7.44 2.12 6.84
7/1/2021 8:00:00 AM 27.2 80.96 0.258 7.41 2.1 6.86
7/1/2021 8:15:00 AM 27.21 80.978 0.257 7.45 2.32 6.94
7/1/2021 8:30:00 AM 27.21 80.978 0.256 7.43 2.14 6.9
7/1/2021 8:45:00 AM 27.21 80.978 0.256 7.4 6.11 6.75
7/1/2021 9:00:00 AM 27.2 80.96 0.257 7.46 2.23 7.01
7/1/2021 9:15:00 AM 27.19 80.942 0.258 7.47 2.34 7.08
7/1/2021 9:30:00 AM 27.19 80.942 0.258 7.47 2.21 7.11
7/1/2021 9:45:00 AM 27.19 80.942 0.258 7.33 2.16 6.63
7/1/2021 10:00:00 AM 27.19 80.942 0.257 7.42 2.12 6.84
7/1/2021 10:15:00 AM 27.2 80.96 0.256 7.5 2.48 7.24
7/1/2021 10:30:00 AM 27.2 80.96 0.255 7.5 2.36 7.27
7/1/2021 10:45:00 AM 27.2 80.96 0.254 7.38 2.05 7.02
7/1/2021 11:00:00 AM 27.21 80.978 0.253 7.38 2.4 6.85
7/1/2021 11:15:00 AM 27.22 80.996 0.253 7.48 2.3 7.21
7/1/2021 11:30:00 AM 27.24 81.032 0.252 7.45 2.27 7.17
7/1/2021 11:45:00 AM 27.25 81.05 0.252 7.5 2.26 7.29
7/1/2021 12:00:00 PM 27.24 81.032 0.251 7.44 2.14 7.18
7/1/2021 12:15:00 PM 27.23 81.014 0.251 7.45 2.27 7.31
7/1/2021 12:30:00 PM 27.22 80.996 0.251 7.55 2.19 7.5
7/1/2021 12:45:00 PM 27.2 80.96 0.251 7.56 2.18 7.53
7/1/2021 1:00:00 PM 27.19 80.942 0.251 7.56 2.21 7.56
7/1/2021 1:15:00 PM 27.17 80.906 0.251 7.55 2.13 7.57
7/1/2021 1:30:00 PM 27.15 80.87 0.251 7.57 2.15 7.58
7/1/2021 1:45:00 PM 27.14 80.852 0.251 7.58 2.15 7.61
7/1/2021 2:00:00 PM 27.13 80.834 0.251 7.6 2.04 7.66
7/1/2021 2:15:00 PM 27.13 80.834 0.251 7.59 2.05 7.64
7/1/2021 2:30:00 PM 27.11 80.798 0.251 7.58 2.08 7.65
7/1/2021 2:45:00 PM 27.11 80.798 0.251 7.59 1.88 7.64
7/1/2021 3:00:00 PM 27.1 80.78 0.251 7.45 2.11 7.3
7/1/2021 3:15:00 PM 27.09 80.762 0.251 7.6 2.05 7.65
7/1/2021 3:30:00 PM 27.08 80.744 0.25 7.61 2.09 7.75
7/1/2021 3:45:00 PM 27.07 80.726 0.25 7.6 1.98 7.74
7/1/2021 4:00:00 PM 27.06 80.708 0.25 7.57 2.12 7.68
7/1/2021 4:15:00 PM 27.05 80.69 0.249 7.63 2.05 7.8
7/1/2021 4:30:00 PM 27.04 80.672 0.248 7.64 2.05 7.79
7/1/2021 4:45:00 PM 27.03 80.654 0.247 7.64 1.85 7.87
7/1/2021 5:00:00 PM 27.01 80.618 0.246 7.65 2.13 7.84
7/1/2021 5:15:00 PM 26.99 80.582 0.246 7.61 2.17 7.84
7/1/2021 5:30:00 PM 26.97 80.546 0.245 7.64 2.2 7.89
7/1/2021 5:45:00 PM 26.97 80.546 0.245 7.64 2.21 7.81
7/1/2021 6:00:00 PM 26.96 80.528 0.244 7.66 2.17 7.92
7/1/2021 6:15:00 PM 26.93 80.474 0.243 7.49 2.28 7.52
7/1/2021 6:30:00 PM 26.9 80.42 0.242 7.66 2.38 7.93
7/1/2021 6:45:00 PM 26.88 80.384 0.241 7.65 2.37 7.92
7/1/2021 7:00:00 PM 26.85 80.33 0.24 7.64 2.51 7.89
7/1/2021 7:15:00 PM 26.83 80.294 0.239 7.63 2.21 7.83
7/1/2021 7:30:00 PM 26.81 80.258 0.238 7.62 2.08 7.8
7/1/2021 7:45:00 PM 26.79 80.222 0.237 7.61 2.34 7.74
7/1/2021 8:00:00 PM 26.76 80.168 0.236 7.61 2.39 7.76
7/1/2021 8:15:00 PM 26.73 80.114 0.236 7.6 2.81 7.71
7/1/2021 8:30:00 PM 26.7 80.06 0.236 7.59 2.83 7.68
7/1/2021 8:45:00 PM 26.68 80.024 0.236 7.58 2.35 7.62
7/1/2021 9:00:00 PM 26.64 79.952 0.235 7.57 2.88 7.61
7/1/2021 9:15:00 PM 26.62 79.916 0.234 7.56 2.41 7.55
7/1/2021 9:30:00 PM 26.59 79.862 0.234 7.49 2.55 7.36
7/1/2021 9:45:00 PM 26.56 79.808 0.233 7.54 2.52 7.49
7/1/2021 10:00:00 PM 26.53 79.754 0.233 7.52 2.6 7.44
7/1/2021 10:15:00 PM 26.51 79.718 0.232 7.53 2.72 7.46
7/1/2021 10:30:00 PM 26.48 79.664 0.232 7.49 2.73 7.32
7/1/2021 10:45:00 PM 26.44 79.592 0.231 7.51 2.64 7.41
7/1/2021 11:00:00 PM 26.41 79.538 0.231 7.5 2.79 7.39
7/1/2021 11:15:00 PM 26.37 79.466 0.231 7.49 2.81 7.35
7/1/2021 11:30:00 PM 26.33 79.394 0.231 7.49 2.27 7.34
7/1/2021 11:45:00 PM 26.29 79.32201 0.23 7.49 2.5 7.31
7/2/2021 12:00:00 AM 26.25 79.25 0.23 7.49 3.04 7.32
7/2/2021 12:15:00 AM 26.21 79.17799 0.23 7.48 2.46 7.31
7/2/2021 12:30:00 AM 26.18 79.124 0.23 7.47 2.54 7.28
7/2/2021 12:45:00 AM 26.14 79.052 0.231 7.41 2.98 7.08
7/2/2021 1:00:00 AM 26.11 78.998 0.233 7.38 2.73 7
7/2/2021 1:15:00 AM 26.07 78.926 0.234 7.35 2.43 7.01
7/2/2021 1:30:00 AM 26.04 78.872 0.235 7.37 2.72 6.88
7/2/2021 1:45:00 AM 26 78.8 0.236 7.39 2.62 6.97
7/2/2021 2:00:00 AM 25.96 78.728 0.236 7.41 2.24 7.03
7/2/2021 2:15:00 AM 25.93 78.674 0.237 7.42 2.48 7.1
7/2/2021 2:30:00 AM 25.88 78.584 0.237 7.44 2.77 7.13
7/2/2021 2:45:00 AM 25.86 78.548 0.237 7.44 2.3 7.11
7/2/2021 3:00:00 AM 26.35 79.43 0.251 7.44 4.24 7.27
7/2/2021 3:15:00 AM 26.84 80.312 0.255 7.52 3.86 8.16
7/2/2021 3:30:00 AM 26.18 79.124 0.243 7.43 2.13 7.39
7/2/2021 3:45:00 AM 25.77 78.386 0.238 7.41 2.34 7.09
7/2/2021 4:00:00 AM 25.66 78.188 0.237 7.42 2.99 7.15
7/2/2021 4:15:00 AM 25.61 78.098 0.237 7.42 3.18 7.14
7/2/2021 4:30:00 AM 25.58 78.044 0.238 7.42 2.85 7.15
7/2/2021 4:45:00 AM 25.54 77.972 0.236 7.43 2.92 7.14
7/2/2021 5:00:00 AM 25.5 77.9 0.236 7.43 2.79 7.16
7/2/2021 5:15:00 AM 25.46 77.828 0.236 7.43 2.7 7.16
7/2/2021 5:30:00 AM 25.42 77.756 0.236 7.42 2.54 7.14
7/2/2021 5:45:00 AM 25.38 77.684 0.235 7.42 2.63 7.11
7/2/2021 6:00:00 AM 25.34 77.612 0.235 7.41 2.79 7.12
7/2/2021 6:15:00 AM 25.31 77.558 0.234 7.42 3.06 7.17
7/2/2021 6:30:00 AM 25.28 77.504 0.234 7.41 3.2 7.1
7/2/2021 6:45:00 AM 25.25 77.45 0.234 7.4 2.88 7.08
7/2/2021 7:00:00 AM 25.22 77.396 0.234 7.41 3.07 7.15
7/2/2021 7:15:00 AM 25.19 77.342 0.233 7.41 3.14 7.16
7/2/2021 7:30:00 AM 25.18 77.324 0.233 7.43 3.08 7.22
7/2/2021 7:45:00 AM 25.16 77.288 0.233 7.43 2.69 7.22
7/2/2021 8:00:00 AM 25.15 77.27 0.233 7.4 3.31 7.19
7/2/2021 8:15:00 AM 25.15 77.27 0.233 7.42 3.69 7.18
7/2/2021 8:30:00 AM 25.16 77.288 0.232 7.43 3.35 7.29
7/2/2021 8:45:00 AM 25.16 77.288 0.232 7.45 3.62 7.39
7/2/2021 9:00:00 AM 25.17 77.306 0.231 7.45 3.6 7.38
7/2/2021 9:15:00 AM 25.21 77.378 0.23 7.43 3.27 7.37
7/2/2021 9:30:00 AM 25.27 77.486 0.229 7.45 3.62 7.41
7/2/2021 9:45:00 AM 25.33 77.594 0.228 7.46 3.78 7.52
7/2/2021 10:00:00 AM 25.37 77.666 0.228 7.46 3.64 7.47
7/2/2021 10:15:00 AM 25.43 77.774 0.227 7.47 3.84 7.53
7/2/2021 10:30:00 AM 25.52 77.936 0.227 7.48 3.76 7.59
7/2/2021 10:45:00 AM 25.58 78.044 0.226 7.5 4.23 7.67
7/2/2021 11:00:00 AM 25.59 78.062 0.226 7.5 3.88 7.69
7/2/2021 11:15:00 AM 25.64 78.152 0.226 7.51 3.85 7.69
7/2/2021 11:30:00 AM 26.2 79.16 0.243 7.52 3.78 7.78
7/2/2021 11:45:00 AM 26.15 79.07 0.238 7.52 3 8.01
7/2/2021 12:00:00 PM 25.85 78.53 0.227 7.53 4.2 7.82
7/2/2021 12:15:00 PM 25.86 78.548 0.225 7.56 4.06 7.95
7/2/2021 12:30:00 PM 25.87 78.566 0.225 7.57 4.14 8
7/2/2021 12:45:00 PM 25.95 78.71 0.226 7.57 3.87 8.02
7/2/2021 1:00:00 PM 25.96 78.728 0.224 7.58 3.83 8.03
7/2/2021 1:15:00 PM 25.97 78.746 0.225 7.58 3.83 8.02
7/2/2021 1:30:00 PM 25.98 78.764 0.223 7.6 3.22 8.06
7/2/2021 1:45:00 PM 26.05 78.89 0.224 7.6 3.92 8.08
7/2/2021 2:00:00 PM 26.17 79.106 0.222 7.6 4.38 8.13
7/2/2021 2:15:00 PM 26.25 79.25 0.22 7.63 3.95 8.2
7/2/2021 2:30:00 PM 26.34 79.412 0.219 7.62 3.86 8.22
7/2/2021 2:45:00 PM 26.36 79.448 0.218 7.63 3.39 8.22
7/2/2021 3:00:00 PM 26.39 79.502 0.217 7.62 4.15 8.21
7/2/2021 3:15:00 PM 26.4 79.52 0.219 7.64 3.46 8.19
7/2/2021 3:30:00 PM 26.44 79.592 0.223 7.65 3.45 8.26
7/2/2021 3:45:00 PM 26.49 79.682 0.225 7.66 3.5 8.25
7/2/2021 4:00:00 PM 26.52 79.736 0.226 7.67 3.32 8.26
7/2/2021 4:15:00 PM 26.51 79.718 0.226 7.69 3.48 8.26
7/2/2021 4:30:00 PM 26.51 79.718 0.226 7.68 2.99 8.3
7/2/2021 4:45:00 PM 26.5 79.7 0.225 7.71 2.92 8.29
7/2/2021 5:00:00 PM 26.48 79.664 0.223 7.72 3.01 8.32
7/2/2021 5:15:00 PM 26.42 79.556 0.219 7.71 3.47 8.29
7/2/2021 5:30:00 PM 26.34 79.412 0.216 7.69 3.64 8.28
7/2/2021 5:45:00 PM 26.25 79.25 0.213 7.67 3.96 8.24
7/2/2021 6:00:00 PM 26.17 79.106 0.211 7.66 3.31 8.22
7/2/2021 6:15:00 PM 26.1 78.98 0.21 7.65 3.62 8.15
7/2/2021 6:30:00 PM 26.04 78.872 0.209 7.65 4.36 8.13
7/2/2021 6:45:00 PM 25.98 78.764 0.208 7.67 4.5 8.1
7/2/2021 7:00:00 PM 26.02 78.836 0.221 7.68 7.44 8.26
7/2/2021 7:15:00 PM 26.18 79.124 0.233 7.56 3.05 8.35
7/2/2021 7:30:00 PM 25.92 78.656 0.212 7.56 3.78 8
7/2/2021 7:45:00 PM 25.73 78.314 0.202 7.59 5.18 8.06
7/2/2021 8:00:00 PM 25.65 78.17 0.201 7.59 5.3 8.03
7/2/2021 8:15:00 PM 25.59 78.062 0.201 7.59 5.1 8.03
7/2/2021 8:30:00 PM 25.52 77.936 0.203 7.58 5.26 8.03
7/2/2021 8:45:00 PM 25.47 77.846 0.203 7.59 5.39 8
7/2/2021 9:00:00 PM 25.42 77.756 0.203 7.58 5.11 8
7/2/2021 9:15:00 PM 25.36 77.648 0.202 7.58 5.15 7.96
7/2/2021 9:30:00 PM 25.3 77.54 0.202 7.57 5.33 7.92
7/2/2021 9:45:00 PM 25.24 77.432 0.201 7.56 5.14 7.92
7/2/2021 10:00:00 PM 25.16 77.288 0.2 7.56 5.3 7.94
7/2/2021 10:15:00 PM 25.09 77.162 0.2 7.54 5.32 7.93
7/2/2021 10:30:00 PM 25.01 77.018 0.2 7.54 5.44 7.91
7/2/2021 10:45:00 PM 24.95 76.91 0.199 7.53 5.09 7.89
7/2/2021 11:00:00 PM 24.87 76.766 0.198 7.52 5.57 7.88
7/2/2021 11:15:00 PM 24.78 76.604 0.198 7.51 5.68 7.88
7/2/2021 11:30:00 PM 24.72 76.496 0.198 7.51 5.89 7.86
7/2/2021 11:45:00 PM 24.63 76.334 0.197 7.51 5.57 7.88
7/3/2021 12:00:00 AM 24.55 76.19 0.197 7.5 5.87 7.91
7/3/2021 12:15:00 AM 24.47 76.046 0.197 7.49 4.97 7.89
7/3/2021 12:30:00 AM 24.4 75.92 0.198 7.48 5.39 7.85
7/3/2021 12:45:00 AM 24.33 75.794 0.2 7.49 5.19 7.87
7/3/2021 1:00:00 AM 24.26 75.668 0.201 7.48 5.63 7.83
7/3/2021 1:15:00 AM 24.21 75.578 0.202 7.49 5.84 7.87
7/3/2021 1:30:00 AM 24.16 75.488 0.202 7.48 5.32 7.88
7/3/2021 1:45:00 AM 24.12 75.416 0.203 7.47 5.86 7.87
7/3/2021 2:00:00 AM 24.08 75.344 0.203 7.48 5.68 7.82
7/3/2021 2:15:00 AM 24.03 75.254 0.204 7.47 4.67 7.83
7/3/2021 2:30:00 AM 23.98 75.164 0.204 7.47 5.49 7.81
7/3/2021 2:45:00 AM 23.92 75.056 0.204 7.47 5.76 7.81
7/3/2021 3:00:00 AM 23.87 74.966 0.203 7.46 5.6 7.8
7/3/2021 3:15:00 AM 23.82 74.876 0.202 7.45 4.79 7.78
7/3/2021 3:30:00 AM 23.79 74.82201 0.201 7.45 5.6 7.77
7/3/2021 3:45:00 AM 23.76 74.768 0.2 7.44 5.87 7.76
7/3/2021 4:00:00 AM 23.73 74.714 0.199 7.43 5.65 7.76
7/3/2021 4:15:00 AM 23.72 74.696 0.199 7.43 5.4 7.74
7/3/2021 4:30:00 AM 23.7 74.66 0.201 7.44 6.04 7.77
7/3/2021 4:45:00 AM 23.68 74.624 0.201 7.43 5.23 7.74
7/3/2021 5:00:00 AM 23.66 74.588 0.201 7.43 5.69 7.76
7/3/2021 5:15:00 AM 23.63 74.534 0.2 7.43 5.75 7.73
7/3/2021 5:30:00 AM 23.61 74.498 0.2 7.42 5.28 7.72
7/3/2021 5:45:00 AM 23.57 74.426 0.199 7.42 5.5 7.72
7/3/2021 6:00:00 AM 23.55 74.39 0.199 7.42 5.38 7.71
7/3/2021 6:15:00 AM 23.51 74.318 0.199 7.41 6.11 7.7
7/3/2021 6:30:00 AM 23.48 74.264 0.198 7.42 5.68 7.73
7/3/2021 6:45:00 AM 23.46 74.228 0.198 7.42 5.23 7.72
7/3/2021 7:00:00 AM 23.43 74.174 0.198 7.42 5.76 7.72
7/3/2021 7:15:00 AM 23.43 74.174 0.198 7.42 5.13 7.76
7/3/2021 7:30:00 AM 23.43 74.174 0.198 7.42 5.35 7.77
7/3/2021 7:45:00 AM 23.43 74.174 0.199 7.43 5 7.76
7/3/2021 8:00:00 AM 23.43 74.174 0.2 7.43 5.23 7.77
7/3/2021 8:15:00 AM 23.43 74.174 0.201 7.44 5.74 7.82
7/3/2021 8:30:00 AM 23.45 74.21 0.201 7.44 5.17 7.84
7/3/2021 8:45:00 AM 23.47 74.246 0.201 7.45 5.1 7.82
7/3/2021 9:00:00 AM 23.5 74.3 0.201 7.45 5.09 7.83
7/3/2021 9:15:00 AM 23.53 74.354 0.201 7.45 4.92 7.86
7/3/2021 9:30:00 AM 23.6 74.48 0.201 7.46 5.1 7.9
7/3/2021 9:45:00 AM 23.66 74.588 0.201 7.46 4.71 7.93
7/3/2021 10:00:00 AM 23.72 74.696 0.201 7.47 5.03 7.97
7/3/2021 10:15:00 AM 23.77 74.786 0.201 7.48 5.02 7.99
7/3/2021 10:30:00 AM 23.77 74.786 0.201 7.49 4.7 8
7/3/2021 10:45:00 AM 23.76 74.768 0.201 7.49 4.9 8.03
7/3/2021 11:00:00 AM 23.77 74.786 0.201 7.5 5.23 8.09
7/3/2021 11:15:00 AM 23.77 74.786 0.202 7.51 4.95 8.11
7/3/2021 11:30:00 AM 23.8 74.84 0.202 7.51 4.83 8.11
7/3/2021 11:45:00 AM 23.85 74.93 0.202 7.53 5.08 8.21
7/3/2021 12:00:00 PM 23.9 75.02 0.202 7.55 4.7 8.26
7/3/2021 12:15:00 PM 23.98 75.164 0.202 7.55 5.07 8.29
7/3/2021 12:30:00 PM 24.04 75.272 0.202 7.57 3.81 8.33
7/3/2021 12:45:00 PM 24.12 75.416 0.203 7.57 4.86 8.43
7/3/2021 1:00:00 PM 24.2 75.56 0.203 7.6 5.06 8.45
7/3/2021 1:15:00 PM 24.26 75.668 0.203 7.61 4.56 8.5
7/3/2021 1:30:00 PM 24.32 75.776 0.203 7.62 5 8.54
7/3/2021 1:45:00 PM 24.39 75.902 0.204 7.62 4.29 8.51
7/3/2021 2:00:00 PM 24.45 76.01 0.204 7.64 4.29 8.54
7/3/2021 2:15:00 PM 24.52 76.136 0.204 7.65 4.29 8.62
7/3/2021 2:30:00 PM 24.56 76.208 0.204 7.65 4.63 8.65
7/3/2021 2:45:00 PM 24.6 76.28 0.204 7.66 4.29 8.66
7/3/2021 3:00:00 PM 24.59 76.262 0.204 7.67 4.23 8.65
7/3/2021 3:15:00 PM 24.62 76.316 0.204 7.67 3.92 8.69
7/3/2021 3:30:00 PM 24.64 76.352 0.205 7.68 4.27 8.72
7/3/2021 3:45:00 PM 24.63 76.334 0.205 7.69 4.56 8.7
7/3/2021 4:00:00 PM 24.61 76.298 0.205 7.7 4.51 8.75
7/3/2021 4:15:00 PM 24.63 76.334 0.205 7.7 4.61 8.74
7/3/2021 4:30:00 PM 24.66 76.388 0.205 7.71 4.06 8.78
7/3/2021 4:45:00 PM 24.67 76.406 0.205 7.7 3.87 8.7
7/3/2021 5:00:00 PM 24.73 76.514 0.208 7.72 3.78 8.85
7/3/2021 5:15:00 PM 24.77 76.586 0.209 7.73 4.34 8.76
7/3/2021 5:30:00 PM 24.79 76.622 0.211 7.76 4.29 8.83
7/3/2021 5:45:00 PM 24.78 76.604 0.212 7.76 4.08 8.89
7/3/2021 6:00:00 PM 24.76 76.568 0.212 7.77 4.2 8.85
7/3/2021 6:15:00 PM 24.72 76.496 0.211 7.77 4.16 8.86
7/3/2021 6:30:00 PM 24.66 76.388 0.21 7.76 4.13 8.88
7/3/2021 6:45:00 PM 24.61 76.298 0.209 7.75 4.59 8.83
7/3/2021 7:00:00 PM 24.56 76.208 0.208 7.74 4.42 8.81
7/3/2021 7:15:00 PM 24.52 76.136 0.208 7.73 4.19 8.82
7/3/2021 7:30:00 PM 24.48 76.064 0.207 7.72 3.79 8.79
7/3/2021 7:45:00 PM 24.44 75.992 0.207 7.71 4.08 8.76
7/3/2021 8:00:00 PM 24.4 75.92 0.207 7.71 4.19 8.71
7/3/2021 8:15:00 PM 24.36 75.848 0.207 7.69 3.84 8.58
7/3/2021 8:30:00 PM 24.31 75.758 0.207 7.68 4.23 8.71
7/3/2021 8:45:00 PM 24.27 75.686 0.207 7.67 4.05 8.66
7/3/2021 9:00:00 PM 24.2 75.56 0.207 7.66 4.41 8.64
7/3/2021 9:15:00 PM 24.15 75.47 0.207 7.65 4.21 8.61
7/3/2021 9:30:00 PM 24.09 75.362 0.207 7.64 4.17 8.57
7/3/2021 9:45:00 PM 24.04 75.272 0.207 7.63 3.92 8.56
7/3/2021 10:00:00 PM 23.99 75.182 0.207 7.62 4.34 8.58
7/3/2021 10:15:00 PM 23.95 75.11 0.207 7.6 3.99 8.55
7/3/2021 10:30:00 PM 23.92 75.056 0.207 7.61 4.19 8.52
7/3/2021 10:45:00 PM 23.87 74.966 0.207 7.61 4.46 8.52
7/3/2021 11:00:00 PM 23.83 74.894 0.207 7.6 4.36 8.52
7/3/2021 11:15:00 PM 23.81 74.858 0.207 7.6 3.59 8.45
7/3/2021 11:30:00 PM 23.78 74.804 0.207 7.6 3.72 8.51
7/3/2021 11:45:00 PM 23.76 74.768 0.207 7.59 4.02 8.49
7/4/2021 12:00:00 AM 23.73 74.714 0.208 7.58 3.67 8.44
7/4/2021 12:15:00 AM 23.71 74.67799 0.207 7.58 4.44 8.48
7/4/2021 12:30:00 AM 23.68 74.624 0.207 7.58 3.49 8.46
7/4/2021 12:45:00 AM 23.64 74.552 0.207 7.57 4.37 8.45
7/4/2021 1:00:00 AM 23.62 74.516 0.207 7.55 3.92 8.41
7/4/2021 1:15:00 AM 23.61 74.498 0.208 7.57 4.01 8.37
7/4/2021 1:30:00 AM 23.58 74.444 0.21 7.57 4.27 8.41
7/4/2021 1:45:00 AM 23.57 74.426 0.211 7.57 4.09 8.34
7/4/2021 2:00:00 AM 23.55 74.39 0.212 7.57 4.4 8.39
7/4/2021 2:15:00 AM 23.53 74.354 0.213 7.57 4.65 8.39
7/4/2021 2:30:00 AM 23.51 74.318 0.212 7.57 3.97 8.35
7/4/2021 2:45:00 AM 23.49 74.282 0.212 7.56 4.29 8.33
7/4/2021 3:00:00 AM 23.47 74.246 0.212 7.56 4.42 8.35
7/4/2021 3:15:00 AM 23.64 74.552 0.218 7.58 8.83 8.46
7/4/2021 3:30:00 AM 24.04 75.272 0.222 7.53 4.04 8.48
7/4/2021 3:45:00 AM 23.71 74.67799 0.214 7.5 3.56 8.32
7/4/2021 4:00:00 AM 23.46 74.228 0.208 7.52 4.71 8.24
7/4/2021 4:15:00 AM 23.41 74.138 0.208 7.52 3.71 8.27
7/4/2021 4:30:00 AM 23.39 74.102 0.207 7.52 4.3 8.25
7/4/2021 4:45:00 AM 23.37 74.066 0.207 7.51 4.28 8.18
7/4/2021 5:00:00 AM 23.34 74.012 0.206 7.51 4.53 8.23
7/4/2021 5:15:00 AM 23.32 73.976 0.205 7.51 4.39 8.24
7/4/2021 5:30:00 AM 23.3 73.94 0.205 7.5 3.57 8.22
7/4/2021 5:45:00 AM 23.28 73.904 0.204 7.51 3.91 8.19
7/4/2021 6:00:00 AM 23.24 73.832 0.203 7.5 4.18 8.19
7/4/2021 6:15:00 AM 23.22 73.796 0.203 7.5 4.23 8.2
7/4/2021 6:30:00 AM 23.19 73.742 0.203 7.5 4.26 8.19
7/4/2021 6:45:00 AM 23.18 73.724 0.202 7.5 4.39 8.19
7/4/2021 7:00:00 AM 23.16 73.688 0.202 7.5 4.03 8.19
7/4/2021 7:15:00 AM 23.15 73.67 0.202 7.5 4.09 8.21
7/4/2021 7:30:00 AM 23.15 73.67 0.201 7.5 4.12 8.23
7/4/2021 7:45:00 AM 23.15 73.67 0.201 7.5 3.8 8.27
7/4/2021 8:00:00 AM 23.15 73.67 0.201 7.51 4.08 8.25
7/4/2021 8:15:00 AM 23.16 73.688 0.201 7.52 4.78 8.26
7/4/2021 8:30:00 AM 23.16 73.688 0.2 7.52 4.29 8.33
7/4/2021 8:45:00 AM 23.18 73.724 0.2 7.52 3.7 8.33
7/4/2021 9:00:00 AM 23.21 73.778 0.2 7.53 3.93 8.36
7/4/2021 9:15:00 AM 23.23 73.814 0.2 7.54 3.18 8.36
7/4/2021 9:30:00 AM 23.26 73.868 0.2 7.54 4.24 8.43
7/4/2021 9:45:00 AM 23.3 73.94 0.2 7.55 4.14 8.45
7/4/2021 10:00:00 AM 23.34 74.012 0.2 7.55 4.32 8.48
7/4/2021 10:15:00 AM 23.37 74.066 0.2 7.56 4.4 8.52
7/4/2021 10:30:00 AM 23.41 74.138 0.2 7.56 3.96 8.51
7/4/2021 10:45:00 AM 23.44 74.192 0.2 7.58 4.19 8.61
7/4/2021 11:00:00 AM 23.51 74.318 0.2 7.59 3.92 8.6
7/4/2021 11:15:00 AM 23.57 74.426 0.199 7.58 4.09 8.65
7/4/2021 11:30:00 AM 23.66 74.588 0.199 7.62 3.97 8.71
7/4/2021 11:45:00 AM 23.73 74.714 0.199 7.61 3.94 8.72
7/4/2021 12:00:00 PM 23.83 74.894 0.199 7.65 3.52 8.79
7/4/2021 12:15:00 PM 23.91 75.038 0.199 7.64 3.49 8.8
7/4/2021 12:30:00 PM 24.02 75.236 0.198 7.67 4.15 8.92
7/4/2021 12:45:00 PM 24.09 75.362 0.198 7.69 4.19 8.95
7/4/2021 1:00:00 PM 24.13 75.434 0.198 7.69 3.01 8.93
7/4/2021 1:15:00 PM 24.15 75.47 0.198 7.69 4.09 8.96
7/4/2021 1:30:00 PM 24.21 75.578 0.198 7.69 3.94 9.01
7/4/2021 1:45:00 PM 24.25 75.65 0.198 7.7 4.06 9.02
7/4/2021 2:00:00 PM 24.27 75.686 0.198 7.71 3.97 9.01
7/4/2021 2:15:00 PM 24.33 75.794 0.198 7.72 3.81 9.06
7/4/2021 2:30:00 PM 24.37 75.866 0.198 7.74 3.94 9.12
7/4/2021 2:45:00 PM 24.46 76.028 0.198 7.74 4.12 9.15
7/4/2021 3:00:00 PM 24.58 76.244 0.198 7.77 4.01 9.14
7/4/2021 3:15:00 PM 24.71 76.478 0.198 7.77 3.89 9.22
7/4/2021 3:30:00 PM 24.79 76.622 0.198 7.77 3.45 9.17
7/4/2021 3:45:00 PM 24.86 76.748 0.198 7.8 3.81 9.26
7/4/2021 4:00:00 PM 24.89 76.802 0.198 7.81 3.93 9.27
7/4/2021 4:15:00 PM 24.95 76.91 0.198 7.83 3.85 9.31
7/4/2021 4:30:00 PM 25 77 0.198 7.83 3.88 9.27
7/4/2021 4:45:00 PM 25.05 77.09 0.198 7.87 3.95 9.37
7/4/2021 5:00:00 PM 25.06 77.108 0.198 7.85 4.11 9.36
7/4/2021 5:15:00 PM 25.03 77.054 0.203 7.87 7.36 9.31
7/4/2021 5:30:00 PM 24.95 76.91 0.211 7.71 3.9 9.13
7/4/2021 5:45:00 PM 24.93 76.874 0.204 7.71 3.55 9.11
7/4/2021 6:00:00 PM 25.02 77.036 0.199 7.83 5.4 9.35
7/4/2021 6:15:00 PM 25 77 0.199 7.86 4.58 9.41
7/4/2021 6:30:00 PM 24.98 76.964 0.198 7.88 4.94 9.39
7/4/2021 6:45:00 PM 24.95 76.91 0.198 7.88 4.26 9.38
7/4/2021 7:00:00 PM 24.94 76.892 0.198 7.86 4.33 9.38
7/4/2021 7:15:00 PM 24.91 76.838 0.197 7.86 4.66 9.35
7/4/2021 7:30:00 PM 24.89 76.802 0.197 7.86 4.86 9.35
7/4/2021 7:45:00 PM 24.87 76.766 0.197 7.86 4.81 9.33
7/4/2021 8:00:00 PM 24.84 76.712 0.197 7.84 4.67 9.3
7/4/2021 8:15:00 PM 24.81 76.658 0.197 7.83 4.79 9.27
7/4/2021 8:30:00 PM 24.78 76.604 0.197 7.81 4.53 9.24
7/4/2021 8:45:00 PM 24.72 76.496 0.197 7.8 4.97 9.19
7/4/2021 9:00:00 PM 24.66 76.388 0.197 7.78 4.78 9.16
7/4/2021 9:15:00 PM 24.59 76.262 0.197 7.78 4.86 9.15
7/4/2021 9:30:00 PM 24.52 76.136 0.197 7.76 4.97 9.12
7/4/2021 9:45:00 PM 24.44 75.992 0.196 7.75 4.78 9.09
7/4/2021 10:00:00 PM 24.38 75.884 0.196 7.74 4.71 9.06
7/4/2021 10:15:00 PM 24.31 75.758 0.196 7.72 4.75 9.04
7/4/2021 10:30:00 PM 24.26 75.668 0.196 7.71 4.94 9.03
7/4/2021 10:45:00 PM 24.22 75.596 0.196 7.71 4.79 9.01
7/4/2021 11:00:00 PM 24.18 75.524 0.196 7.7 4.69 8.99
7/4/2021 11:15:00 PM 24.14 75.452 0.196 7.69 4.83 8.96
7/4/2021 11:30:00 PM 24.09 75.362 0.196 7.68 4.92 8.94
7/4/2021 11:45:00 PM 24.04 75.272 0.196 7.68 4.54 8.93
7/5/2021 12:00:00 AM 23.99 75.182 0.196 7.67 4.67 8.91
7/5/2021 12:15:00 AM 23.94 75.092 0.196 7.66 4.73 8.88
7/5/2021 12:30:00 AM 23.89 75.002 0.195 7.66 4.81 8.87
7/5/2021 12:45:00 AM 23.84 74.912 0.195 7.64 4.73 8.84
7/5/2021 1:00:00 AM 24.21 75.578 0.214 7.6 3.95 8.78
7/5/2021 1:15:00 AM 24.22 75.596 0.209 7.51 2.92 8.83
7/5/2021 1:30:00 AM 23.76 74.768 0.197 7.57 4.77 8.67
7/5/2021 1:45:00 AM 23.65 74.57 0.196 7.6 4.57 8.75
7/5/2021 2:00:00 AM 23.61 74.498 0.195 7.6 5.15 8.76
7/5/2021 2:15:00 AM 23.59 74.462 0.195 7.6 4.64 8.74
7/5/2021 2:30:00 AM 23.57 74.426 0.195 7.59 4.41 8.72
7/5/2021 2:45:00 AM 23.54 74.372 0.196 7.59 4.53 8.69
7/5/2021 3:00:00 AM 23.52 74.336 0.198 7.59 4.51 8.66
7/5/2021 3:15:00 AM 23.5 74.3 0.2 7.59 4.3 8.64
7/5/2021 3:30:00 AM 23.47 74.246 0.201 7.58 4.34 8.61
7/5/2021 3:45:00 AM 23.45 74.21 0.201 7.58 4.46 8.59
7/5/2021 4:00:00 AM 23.42 74.156 0.202 7.57 4.65 8.56
7/5/2021 4:15:00 AM 23.4 74.12 0.202 7.57 4.07 8.53
7/5/2021 4:30:00 AM 23.36 74.048 0.202 7.56 3.77 8.49
7/5/2021 4:45:00 AM 23.34 74.012 0.202 7.56 4.33 8.49
7/5/2021 5:00:00 AM 23.32 73.976 0.202 7.56 4.3 8.47
7/5/2021 5:15:00 AM 23.3 73.94 0.202 7.56 4.31 8.48
7/5/2021 5:30:00 AM 23.29 73.922 0.202 7.56 4.05 8.47
7/5/2021 5:45:00 AM 23.27 73.886 0.202 7.55 4.06 8.45
7/5/2021 6:00:00 AM 23.25 73.85 0.202 7.55 4.04 8.42
7/5/2021 6:15:00 AM 23.23 73.814 0.202 7.55 4.24 8.43
7/5/2021 6:30:00 AM 23.22 73.796 0.202 7.56 4.2 8.44
7/5/2021 6:45:00 AM 23.2 73.76 0.203 7.56 4.2 8.46
7/5/2021 7:00:00 AM 23.19 73.742 0.203 7.56 4.11 8.45
7/5/2021 7:15:00 AM 23.18 73.724 0.203 7.56 4.19 8.47
7/5/2021 7:30:00 AM 23.17 73.706 0.203 7.56 4.31 8.46
7/5/2021 7:45:00 AM 23.16 73.688 0.204 7.57 3.99 8.47
7/5/2021 8:00:00 AM 23.16 73.688 0.204 7.58 4.72 8.53
7/5/2021 8:15:00 AM 23.17 73.706 0.203 7.59 4.49 8.57
7/5/2021 8:30:00 AM 23.19 73.742 0.203 7.6 4.34 8.63
7/5/2021 8:45:00 AM 23.2 73.76 0.202 7.6 4.63 8.65
7/5/2021 9:00:00 AM 23.23 73.814 0.201 7.6 4.06 8.64
7/5/2021 9:15:00 AM 23.26 73.868 0.2 7.59 4.43 8.67
7/5/2021 9:30:00 AM 23.3 73.94 0.2 7.61 4.55 8.69
7/5/2021 9:45:00 AM 23.35 74.03 0.199 7.61 4.27 8.72
7/5/2021 10:00:00 AM 23.4 74.12 0.199 7.62 4.09 8.73
7/5/2021 10:15:00 AM 23.46 74.228 0.199 7.63 3.96 8.78
7/5/2021 10:30:00 AM 23.52 74.336 0.199 7.64 3.98 8.82
7/5/2021 10:45:00 AM 23.58 74.444 0.199 7.65 3.83 8.78
7/5/2021 11:00:00 AM 23.66 74.588 0.199 7.66 3.93 8.88
7/5/2021 11:15:00 AM 23.74 74.732 0.199 7.68 3.91 8.95
7/5/2021 11:30:00 AM 23.82 74.876 0.199 7.68 4.09 8.98
7/5/2021 11:45:00 AM 23.9 75.02 0.199 7.67 3.94 8.97
7/5/2021 12:00:00 PM 24 75.2 0.199 7.71 3.75 9.06
7/5/2021 12:15:00 PM 24.08 75.344 0.199 7.71 3.91 9.1
7/5/2021 12:30:00 PM 24.17 75.506 0.199 7.73 3.96 9.14
7/5/2021 12:45:00 PM 24.23 75.614 0.2 7.72 3.71 9.15
7/5/2021 1:00:00 PM 24.33 75.794 0.2 7.76 3.95 9.17
7/5/2021 1:15:00 PM 24.43 75.974 0.2 7.77 3.9 9.25
7/5/2021 1:30:00 PM 24.52 76.136 0.2 7.78 3.83 9.27
7/5/2021 1:45:00 PM 24.62 76.316 0.2 7.8 3.67 9.33
7/5/2021 2:00:00 PM 24.72 76.496 0.201 7.82 3.9 9.35
7/5/2021 2:15:00 PM 24.79 76.622 0.201 7.84 3.92 9.38
7/5/2021 2:30:00 PM 24.87 76.766 0.201 7.85 3.8 9.42
7/5/2021 2:45:00 PM 24.95 76.91 0.202 7.88 3.85 9.46
7/5/2021 3:00:00 PM 25.01 77.018 0.202 7.87 3.77 9.44
7/5/2021 3:15:00 PM 25.1 77.18 0.2 7.91 3.72 9.5
7/5/2021 3:30:00 PM 25.18 77.324 0.202 7.91 3.88 9.53
7/5/2021 3:45:00 PM 25.26 77.468 0.203 7.95 3.91 9.62
7/5/2021 4:00:00 PM 25.3 77.54 0.203 7.94 4.06 9.58
7/5/2021 4:15:00 PM 25.34 77.612 0.203 7.97 4.03 9.62
7/5/2021 4:30:00 PM 25.37 77.666 0.203 7.98 3.58 9.64
7/5/2021 4:45:00 PM 25.41 77.738 0.204 7.99 3.56 9.66
7/5/2021 5:00:00 PM 25.44 77.792 0.204 7.99 4.29 9.64
7/5/2021 5:15:00 PM 25.47 77.846 0.204 8.01 3.91 9.67
7/5/2021 5:30:00 PM 25.48 77.864 0.204 8.01 3.62 9.67
7/5/2021 5:45:00 PM 25.48 77.864 0.205 8.03 3.61 9.7
7/5/2021 6:00:00 PM 25.49 77.882 0.205 8.03 3.72 9.71
7/5/2021 6:15:00 PM 25.49 77.882 0.205 8.02 3.69 9.65
7/5/2021 6:30:00 PM 25.47 77.846 0.205 8.02 3.62 9.64
7/5/2021 6:45:00 PM 25.43 77.774 0.205 8.02 3.51 9.67
7/5/2021 7:00:00 PM 25.41 77.738 0.206 8.02 3.57 9.64
7/5/2021 7:15:00 PM 25.38 77.684 0.206 7.99 3.53 9.62
7/5/2021 7:30:00 PM 25.37 77.666 0.206 7.99 3.53 9.6
7/5/2021 7:45:00 PM 25.35 77.63 0.206 7.98 3.54 9.54
7/5/2021 8:00:00 PM 25.33 77.594 0.207 7.93 3.35 9.51
7/5/2021 8:15:00 PM 25.31 77.558 0.207 7.94 3.39 9.48
7/5/2021 8:30:00 PM 25.28 77.504 0.207 7.92 3.64 9.42
7/5/2021 8:45:00 PM 25.26 77.468 0.207 7.9 3.28 9.4
7/5/2021 9:00:00 PM 25.22 77.396 0.208 7.88 3.69 9.37
7/5/2021 9:15:00 PM 25.18 77.324 0.208 7.86 3.48 9.32
7/5/2021 9:30:00 PM 25.15 77.27 0.208 7.85 3.38 9.28
7/5/2021 9:45:00 PM 25.11 77.198 0.208 7.83 3.68 9.23
7/5/2021 10:00:00 PM 25.08 77.144 0.208 7.81 3.62 9.21
7/5/2021 10:15:00 PM 25.04 77.07201 0.209 7.8 3.54 9.19
7/5/2021 10:30:00 PM 25.01 77.018 0.209 7.78 3.61 9.18
7/5/2021 10:45:00 PM 24.97 76.946 0.209 7.78 3.47 9.13
7/5/2021 11:00:00 PM 24.93 76.874 0.209 7.76 3.05 9.1
7/5/2021 11:15:00 PM 24.89 76.802 0.209 7.74 3.34 9.07
7/5/2021 11:30:00 PM 24.84 76.712 0.209 7.73 3.63 9.06
7/5/2021 11:45:00 PM 24.8 76.64 0.21 7.72 3.53 8.98
7/6/2021 12:00:00 AM 24.76 76.568 0.21 7.7 3.63 8.98
7/6/2021 12:15:00 AM 24.72 76.496 0.21 7.69 4.32 8.98
7/6/2021 12:30:00 AM 24.69 76.442 0.21 7.69 3.99 9
7/6/2021 12:45:00 AM 24.66 76.388 0.21 7.68 4.28 8.98
7/6/2021 1:00:00 AM 24.63 76.334 0.21 7.67 4.03 8.95
7/6/2021 1:15:00 AM 24.6 76.28 0.21 7.66 4.25 8.92
7/6/2021 1:30:00 AM 24.57 76.226 0.21 7.65 3.96 8.89
7/6/2021 1:45:00 AM 24.54 76.172 0.21 7.64 4.05 8.86
7/6/2021 2:00:00 AM 24.52 76.136 0.21 7.63 3.82 8.84
7/6/2021 2:15:00 AM 24.48 76.064 0.21 7.62 3.52 8.8
7/6/2021 2:30:00 AM 24.46 76.028 0.21 7.61 3.78 8.77
7/6/2021 2:45:00 AM 24.43 75.974 0.21 7.6 3.6 8.75
7/6/2021 3:00:00 AM 24.41 75.938 0.21 7.59 4.55 8.72
7/6/2021 3:15:00 AM 24.39 75.902 0.21 7.59 3.99 8.71
7/6/2021 3:30:00 AM 24.58 76.244 0.218 7.58 5.77 8.62
7/6/2021 3:45:00 AM 24.55 76.19 0.216 7.54 3.09 8.68
7/6/2021 4:00:00 AM 24.38 75.884 0.215 7.55 4.2 8.54
7/6/2021 4:15:00 AM 24.35 75.83 0.217 7.57 3.82 8.59
7/6/2021 4:30:00 AM 24.34 75.812 0.218 7.57 3.7 8.56
7/6/2021 4:45:00 AM 24.32 75.776 0.219 7.57 3.91 8.54
7/6/2021 5:00:00 AM 24.31 75.758 0.219 7.57 3.79 8.51
7/6/2021 5:15:00 AM 24.31 75.758 0.219 7.56 3.53 8.5
7/6/2021 5:30:00 AM 24.3 75.74 0.22 7.56 3.94 8.49
7/6/2021 5:45:00 AM 24.3 75.74 0.22 7.57 5.91 8.51
7/6/2021 6:00:00 AM 24.3 75.74 0.219 7.56 5.36 8.51
7/6/2021 6:15:00 AM 24.3 75.74 0.22 7.57 3.99 8.49
7/6/2021 6:30:00 AM 24.3 75.74 0.22 7.56 3.84 8.47
7/6/2021 6:45:00 AM 24.31 75.758 0.22 7.56 3.84 8.49
7/6/2021 7:00:00 AM 24.32 75.776 0.219 7.56 3.55 8.48
7/6/2021 7:15:00 AM 24.33 75.794 0.218 7.57 3.4 8.49
7/6/2021 7:30:00 AM 24.35 75.83 0.216 7.56 3.73 8.51
7/6/2021 7:45:00 AM 24.38 75.884 0.215 7.56 4.57 8.48
7/6/2021 8:00:00 AM 24.41 75.938 0.214 7.55 3.6 8.52
7/6/2021 8:15:00 AM 24.45 76.01 0.213 7.57 3.73 8.51
7/6/2021 8:30:00 AM 24.51 76.118 0.212 7.59 3.56 8.59
7/6/2021 8:45:00 AM 24.58 76.244 0.211 7.59 3.86 8.65
7/6/2021 9:00:00 AM 24.63 76.334 0.211 7.61 3.69 8.67
7/6/2021 9:15:00 AM 24.69 76.442 0.211 7.62 3.28 8.71
7/6/2021 9:30:00 AM 24.89 76.802 0.223 7.63 3.26 8.84
7/6/2021 9:45:00 AM 24.81 76.658 0.218 7.54 2.68 8.79
7/6/2021 10:00:00 AM 24.91 76.838 0.211 7.64 3.39 8.79
7/6/2021 10:15:00 AM 25.02 77.036 0.211 7.66 3.11 8.85
7/6/2021 10:30:00 AM 25.13 77.234 0.21 7.69 2.93 8.9
7/6/2021 10:45:00 AM 25.25 77.45 0.21 7.71 3.81 8.96
7/6/2021 11:00:00 AM 25.34 77.612 0.21 7.7 3.41 8.99
7/6/2021 11:15:00 AM 25.44 77.792 0.21 7.74 3.42 9.04
7/6/2021 11:30:00 AM 25.53 77.954 0.21 7.76 3.02 9.07
7/6/2021 11:45:00 AM 25.64 78.152 0.21 7.77 3.33 9.15
7/6/2021 12:00:00 PM 25.75 78.35 0.209 7.79 3.38 9.16
7/6/2021 12:15:00 PM 25.86 78.548 0.209 7.81 3.17 9.18
7/6/2021 12:30:00 PM 25.96 78.728 0.209 7.82 3.51 9.24
7/6/2021 12:45:00 PM 26.09 78.962 0.209 7.85 3.21 9.28
7/6/2021 1:00:00 PM 26.19 79.142 0.209 7.87 3.31 9.31
7/6/2021 1:15:00 PM 26.26 79.268 0.209 7.89 3.46 9.34
7/6/2021 1:30:00 PM 26.36 79.448 0.209 7.9 3.02 9.38
7/6/2021 1:45:00 PM 26.46 79.628 0.209 7.92 3.76 9.41
7/6/2021 2:00:00 PM 26.56 79.808 0.209 7.95 3.33 9.43
7/6/2021 2:15:00 PM 26.66 79.988 0.209 7.95 3.14 9.47
7/6/2021 2:30:00 PM 26.72 80.096 0.209 7.97 3.09 9.49
7/6/2021 2:45:00 PM 26.78 80.204 0.21 7.97 3.18 9.47
7/6/2021 3:00:00 PM 26.86 80.348 0.209 7.99 3.03 9.51
7/6/2021 3:15:00 PM 26.9 80.42 0.21 7.98 3.09 9.51
7/6/2021 3:30:00 PM 26.91 80.438 0.21 8.01 2.92 9.49
7/6/2021 3:45:00 PM 26.88 80.384 0.21 8.03 3.05 9.55
7/6/2021 4:00:00 PM 26.86 80.348 0.21 8.05 3.01 9.57
7/6/2021 4:15:00 PM 26.88 80.384 0.21 8.07 3.37 9.61
7/6/2021 4:30:00 PM 26.94 80.492 0.21 8.06 3.37 9.59
7/6/2021 4:45:00 PM 27 80.6 0.21 8.07 3.48 9.63
7/6/2021 5:00:00 PM 27.07 80.726 0.21 8.09 3.07 9.69
7/6/2021 5:15:00 PM 27.09 80.762 0.21 8.11 3.14 9.62
7/6/2021 5:30:00 PM 27.07 80.726 0.21 8.1 3.15 9.64
7/6/2021 5:45:00 PM 27.07 80.726 0.21 8.11 3.2 9.64
7/6/2021 6:00:00 PM 27.06 80.708 0.21 8.1 3.09 9.64
7/6/2021 6:15:00 PM 27.04 80.672 0.211 8.11 2.9 9.63
7/6/2021 6:30:00 PM 27.05 80.69 0.211 8.09 3.37 9.63
7/6/2021 6:45:00 PM 27.06 80.708 0.211 8.1 3.46 9.6
7/6/2021 7:00:00 PM 27.04 80.672 0.211 8.08 3.36 9.54
7/6/2021 7:15:00 PM 27.03 80.654 0.212 8.07 3.17 9.48
7/6/2021 7:30:00 PM 26.65 79.97 0.221 7.92 3.64 9.18
7/6/2021 7:45:00 PM 26.69 80.042 0.218 7.74 2.89 9.01
7/6/2021 8:00:00 PM 26.92 80.456 0.213 7.96 2.91 9.29
7/6/2021 8:15:00 PM 26.92 80.456 0.213 7.96 3.25 9.28
7/6/2021 8:30:00 PM 26.89 80.402 0.213 7.95 3.2 9.24
7/6/2021 8:45:00 PM 26.87 80.366 0.213 7.93 3.04 9.21
7/6/2021 9:00:00 PM 26.84 80.312 0.213 7.91 3.15 9.17
7/6/2021 9:15:00 PM 26.82 80.276 0.213 7.88 3.11 9.13
7/6/2021 9:30:00 PM 26.79 80.222 0.214 7.87 2.89 9.07
7/6/2021 9:45:00 PM 26.74 80.132 0.214 7.84 2.98 9.01
7/6/2021 10:00:00 PM 26.69 80.042 0.214 7.81 3.31 8.95
7/6/2021 10:15:00 PM 26.64 79.952 0.214 7.79 3.27 8.92
7/6/2021 10:30:00 PM 26.59 79.862 0.214 7.78 3.29 8.86
7/6/2021 10:45:00 PM 26.55 79.79 0.214 7.76 3.22 8.81
7/6/2021 11:00:00 PM 26.5 79.7 0.215 7.74 3.15 8.78
7/6/2021 11:15:00 PM 26.45 79.61 0.215 7.72 3.09 8.74
7/6/2021 11:30:00 PM 26.39 79.502 0.215 7.71 3.11 8.71
7/6/2021 11:45:00 PM 26.34 79.412 0.216 7.69 3.12 8.65
7/7/2021 12:00:00 AM 26.28 79.304 0.216 7.68 2.85 8.61
7/7/2021 12:15:00 AM 26.22 79.196 0.216 7.66 3.21 8.58
7/7/2021 12:30:00 AM 26.15 79.07 0.216 7.65 3.2 8.56
7/7/2021 12:45:00 AM 26.09 78.962 0.217 7.65 3.21 8.49
7/7/2021 1:00:00 AM 26.03 78.854 0.217 7.64 3.29 8.49
7/7/2021 1:15:00 AM 25.97 78.746 0.217 7.62 3.29 8.47
7/7/2021 1:30:00 AM 25.92 78.656 0.219 7.61 3.21 8.43
7/7/2021 1:45:00 AM 25.86 78.548 0.222 7.61 3.11 8.42
7/7/2021 2:00:00 AM 25.81 78.458 0.225 7.6 3.32 8.42
7/7/2021 2:15:00 AM 25.76 78.368 0.227 7.61 3.26 8.39
7/7/2021 2:30:00 AM 25.71 78.278 0.228 7.6 3.24 8.36
7/7/2021 2:45:00 AM 25.66 78.188 0.228 7.6 3.23 8.34
7/7/2021 3:00:00 AM 25.61 78.098 0.228 7.59 3.03 8.31
7/7/2021 3:15:00 AM 25.56 78.008 0.227 7.58 3.11 8.28
7/7/2021 3:30:00 AM 25.53 77.954 0.228 7.57 3.3 8.25
7/7/2021 3:45:00 AM 25.5 77.9 0.228 7.56 3.08 8.25
7/7/2021 4:00:00 AM 25.46 77.828 0.227 7.55 3.26 8.23
7/7/2021 4:15:00 AM 25.43 77.774 0.226 7.55 2.99 8.19
7/7/2021 4:30:00 AM 25.4 77.72 0.225 7.53 3.23 8.17
7/7/2021 4:45:00 AM 25.37 77.666 0.225 7.53 3.06 8.16
7/7/2021 5:00:00 AM 25.34 77.612 0.224 7.52 3.17 8.14
7/7/2021 5:15:00 AM 25.31 77.558 0.225 7.51 2.98 8.12
7/7/2021 5:30:00 AM 25.29 77.522 0.227 7.51 3.1 8.12
7/7/2021 5:45:00 AM 25.28 77.504 0.229 7.51 2.87 8.08
7/7/2021 6:00:00 AM 25.27 77.486 0.23 7.51 2.95 8.08
7/7/2021 6:15:00 AM 25.26 77.468 0.231 7.53 3.43 8.13
7/7/2021 6:30:00 AM 25.27 77.486 0.232 7.53 3.17 8.14
7/7/2021 6:45:00 AM 25.27 77.486 0.232 7.54 3.4 8.16
7/7/2021 7:00:00 AM 25.28 77.504 0.233 7.54 3.36 8.18
7/7/2021 7:15:00 AM 25.3 77.54 0.233 7.55 3.24 8.2
7/7/2021 7:30:00 AM 25.33 77.594 0.233 7.54 3.14 8.19
7/7/2021 7:45:00 AM 25.36 77.648 0.233 7.55 3.48 8.12
7/7/2021 8:00:00 AM 25.4 77.72 0.233 7.55 3.16 8.22
7/7/2021 8:15:00 AM 25.45 77.81 0.232 7.56 3.2 8.23
7/7/2021 8:30:00 AM 25.51 77.918 0.231 7.58 3.25 8.34
7/7/2021 8:45:00 AM 25.58 78.044 0.23 7.59 3.17 8.37
7/7/2021 9:00:00 AM 25.64 78.152 0.231 7.6 3.04 8.44
7/7/2021 9:15:00 AM 25.71 78.278 0.232 7.62 3.08 8.48
7/7/2021 9:30:00 AM 25.91 78.638 0.236 7.64 3.22 8.6
7/7/2021 9:45:00 AM 25.86 78.548 0.234 7.57 2.85 8.61
7/7/2021 10:00:00 AM 26 78.8 0.232 7.68 3.58 8.67
7/7/2021 10:15:00 AM 26.11 78.998 0.231 7.7 3.31 8.72
7/7/2021 10:30:00 AM 26.21 79.17799 0.23 7.72 3.24 8.79
7/7/2021 10:45:00 AM 26.31 79.358 0.23 7.74 3.38 8.83
7/7/2021 11:00:00 AM 26.39 79.502 0.23 7.75 3.14 8.87
7/7/2021 11:15:00 AM 26.51 79.718 0.229 7.77 3.1 8.94
7/7/2021 11:30:00 AM 26.59 79.862 0.229 7.79 3.48 8.96
7/7/2021 11:45:00 AM 26.69 80.042 0.229 7.8 3.12 8.99
7/7/2021 12:00:00 PM 26.8 80.24 0.229 7.83 3.05 9.07
7/7/2021 12:15:00 PM 26.92 80.456 0.229 7.85 3.58 9.1
7/7/2021 12:30:00 PM 27.04 80.672 0.229 7.86 3.11 9.11
7/7/2021 12:45:00 PM 27.13 80.834 0.229 7.88 3.25 9.15
7/7/2021 1:00:00 PM 27.3 81.14 0.229 7.9 3.12 9.19
7/7/2021 1:15:00 PM 27.44 81.392 0.23 7.93 3.3 9.27
7/7/2021 1:30:00 PM 27.55 81.59 0.23 7.95 3.02 9.28
7/7/2021 1:45:00 PM 27.66 81.788 0.23 7.97 3.18 9.31
7/7/2021 2:00:00 PM 27.69 81.842 0.23 7.99 3.12 9.37
7/7/2021 2:15:00 PM 27.71 81.878 0.231 7.99 2.98 9.39
7/7/2021 2:30:00 PM 27.7 81.86 0.231 8.02 3.34 9.38
7/7/2021 2:45:00 PM 27.76 81.968 0.231 8.04 3.05 9.43
7/7/2021 3:00:00 PM 27.81 82.058 0.231 8.06 2.94 9.45
7/7/2021 3:15:00 PM 27.88 82.184 0.232 8.06 3.02 9.48
7/7/2021 3:30:00 PM 27.93 82.274 0.232 8.08 3.01 9.47
7/7/2021 3:45:00 PM 27.98 82.364 0.232 8.08 3.15 9.49
7/7/2021 4:00:00 PM 28.04 82.472 0.232 8.1 3.03 9.5
7/7/2021 4:15:00 PM 28.1 82.58 0.233 8.12 2.69 9.52
7/7/2021 4:30:00 PM 28.16 82.688 0.233 8.13 2.88 9.52
7/7/2021 4:45:00 PM 28.21 82.778 0.233 8.14 3.11 9.54
7/7/2021 5:00:00 PM 28.28 82.904 0.233 8.14 2.79 9.52
7/7/2021 5:15:00 PM 28.35 83.03 0.233 8.16 2.76 9.55
7/7/2021 5:30:00 PM 28.42 83.156 0.233 8.16 2.8 9.55
7/7/2021 5:45:00 PM 28.5 83.3 0.234 8.16 2.78 9.55
7/7/2021 6:00:00 PM 28.54 83.372 0.234 8.17 2.7 9.54
7/7/2021 6:15:00 PM 28.54 83.372 0.234 8.17 2.72 9.52
7/7/2021 6:30:00 PM 28.52 83.336 0.234 8.16 2.7 9.46
7/7/2021 6:45:00 PM 28.5 83.3 0.234 8.14 3.11 9.45
7/7/2021 7:00:00 PM 28.48 83.264 0.234 8.13 2.6 9.37
7/7/2021 7:15:00 PM 28.41 83.138 0.234 8.11 2.8 9.32
7/7/2021 7:30:00 PM 28.32 82.976 0.234 8.09 2.92 9.21
7/7/2021 7:45:00 PM 28.26 82.868 0.234 8.05 2.97 9.09
7/7/2021 8:00:00 PM 28.22 82.796 0.234 8.04 3 9.07
7/7/2021 8:15:00 PM 28.21 82.778 0.234 8 2.84 8.99
7/7/2021 8:30:00 PM 28.17 82.706 0.234 7.98 3.32 8.92
7/7/2021 8:45:00 PM 28.07 82.526 0.233 7.94 4.08 8.81
7/7/2021 9:00:00 PM 28.01 82.418 0.233 7.92 3.72 8.72
7/7/2021 9:15:00 PM 27.92 82.256 0.233 7.89 3.47 8.63
7/7/2021 9:30:00 PM 27.85 82.13 0.233 7.85 3.32 8.55
7/7/2021 9:45:00 PM 27.79 82.022 0.233 7.83 3.47 8.5
7/7/2021 10:00:00 PM 27.73 81.914 0.233 7.81 3.69 8.43
7/7/2021 10:15:00 PM 27.67 81.806 0.233 7.79 3.54 8.39
7/7/2021 10:30:00 PM 27.57 81.626 0.233 7.76 3.41 8.33
7/7/2021 10:45:00 PM 27.45 81.41 0.232 7.73 3.04 8.27
7/7/2021 11:00:00 PM 27.35 81.23 0.231 7.72 3.3 8.21
7/7/2021 11:15:00 PM 27.27 81.086 0.231 7.7 3.39 8.17
7/7/2021 11:30:00 PM 27.07 80.726 0.235 7.73 4.18 8.31
7/7/2021 11:45:00 PM 27.16 80.888 0.234 7.69 5.91 8.25
7/8/2021 12:00:00 AM 27.08 80.744 0.23 7.71 5.83 8.06
7/8/2021 12:15:00 AM 27.06 80.708 0.231 7.68 4.18 8.04
7/8/2021 12:30:00 AM 27.03 80.654 0.232 7.66 3.44 8.04
7/8/2021 12:45:00 AM 27 80.6 0.232 7.64 3.55 8.02
7/8/2021 1:00:00 AM 26.95 80.51 0.233 7.63 3.63 8
7/8/2021 1:15:00 AM 26.9 80.42 0.233 7.62 3.68 7.96
7/8/2021 1:30:00 AM 26.85 80.33 0.234 7.61 3.4 7.94
7/8/2021 1:45:00 AM 26.79 80.222 0.234 7.6 3.49 7.9
7/8/2021 2:00:00 AM 26.72 80.096 0.235 7.59 3.67 7.88
7/8/2021 2:15:00 AM 26.64 79.952 0.238 7.59 3.46 7.87
7/8/2021 2:30:00 AM 26.57 79.826 0.242 7.58 3.58 7.82
7/8/2021 2:45:00 AM 26.5 79.7 0.244 7.58 3.58 7.8
7/8/2021 3:00:00 AM 26.44 79.592 0.246 7.58 3.72 7.78
7/8/2021 3:15:00 AM 26.39 79.502 0.248 7.58 3.77 7.77
7/8/2021 3:30:00 AM 26.33 79.394 0.249 7.57 3.58 7.74
7/8/2021 3:45:00 AM 26.27 79.286 0.249 7.56 3.45 7.72
7/8/2021 4:00:00 AM 26.2 79.16 0.25 7.56 3.72 7.67
7/8/2021 4:15:00 AM 26.14 79.052 0.25 7.55 4.25 7.68
7/8/2021 4:30:00 AM 26.08 78.944 0.25 7.55 4.43 7.66
7/8/2021 4:45:00 AM 26.03 78.854 0.249 7.54 4.37 7.65
7/8/2021 5:00:00 AM 25.98 78.764 0.249 7.54 4.61 7.62
7/8/2021 5:15:00 AM 25.94 78.692 0.25 7.53 4.43 7.63
7/8/2021 5:30:00 AM 25.9 78.62 0.249 7.53 4.35 7.6
7/8/2021 5:45:00 AM 25.87 78.566 0.25 7.52 4.26 7.62
7/8/2021 6:00:00 AM 25.84 78.512 0.25 7.52 4.58 7.62
7/8/2021 6:15:00 AM 25.82 78.476 0.25 7.52 4.71 7.6
7/8/2021 6:30:00 AM 25.81 78.458 0.25 7.52 4.46 7.62
7/8/2021 6:45:00 AM 25.79 78.422 0.25 7.52 4.12 7.62
7/8/2021 7:00:00 AM 25.77 78.386 0.25 7.52 4.26 7.62
7/8/2021 7:15:00 AM 25.76 78.368 0.249 7.52 4.06 7.64
7/8/2021 7:30:00 AM 25.75 78.35 0.249 7.52 3.92 7.63
7/8/2021 7:45:00 AM 25.75 78.35 0.248 7.52 3.68 7.65
7/8/2021 8:00:00 AM 25.75 78.35 0.248 7.52 3.96 7.67
7/8/2021 8:15:00 AM 25.76 78.368 0.248 7.53 3.59 7.7
7/8/2021 8:30:00 AM 25.76 78.368 0.249 7.53 3.7 7.68
7/8/2021 8:45:00 AM 25.78 78.404 0.248 7.53 3.63 7.69
7/8/2021 9:00:00 AM 25.79 78.422 0.248 7.52 3.56 7.62
7/8/2021 9:15:00 AM 25.81 78.458 0.247 7.53 3.49 7.67
7/8/2021 9:30:00 AM 26.13 79.034 0.25 7.55 3.04 8.14
7/8/2021 9:45:00 AM 25.94 78.692 0.248 7.49 2.93 7.87
7/8/2021 10:00:00 AM 25.89 78.602 0.243 7.55 3.6 7.83
7/8/2021 10:15:00 AM 25.93 78.674 0.242 7.56 3.37 7.9
7/8/2021 10:30:00 AM 25.96 78.728 0.241 7.57 3.35 7.95
7/8/2021 10:45:00 AM 25.99 78.782 0.241 7.58 3.36 8.01
7/8/2021 11:00:00 AM 26.03 78.854 0.24 7.58 3.31 8.04
7/8/2021 11:15:00 AM 26.04 78.872 0.24 7.58 4.23 8.02
7/8/2021 11:30:00 AM 26.06 78.908 0.24 7.6 3.43 8.08
7/8/2021 11:45:00 AM 26.09 78.962 0.239 7.61 3.18 8.14
7/8/2021 12:00:00 PM 26.14 79.052 0.239 7.62 3.41 8.2
7/8/2021 12:15:00 PM 26.17 79.106 0.239 7.64 3.17 8.24
7/8/2021 12:30:00 PM 26.22 79.196 0.239 7.65 3.36 8.29
7/8/2021 12:45:00 PM 26.26 79.268 0.239 7.67 3.39 8.34
7/8/2021 1:00:00 PM 26.31 79.358 0.239 7.69 3.39 8.38
7/8/2021 1:15:00 PM 26.34 79.412 0.239 7.7 3.33 8.44
7/8/2021 1:30:00 PM 26.38 79.484 0.239 7.71 3.16 8.47
7/8/2021 1:45:00 PM 26.4 79.52 0.238 7.73 3.23 8.51
7/8/2021 2:00:00 PM 26.41 79.538 0.238 7.74 3.07 8.53
7/8/2021 2:15:00 PM 26.42 79.556 0.238 7.75 3.15 8.54
7/8/2021 2:30:00 PM 26.43 79.574 0.238 7.76 3.04 8.59
7/8/2021 2:45:00 PM 26.43 79.574 0.238 7.77 3.13 8.62
7/8/2021 3:00:00 PM 26.44 79.592 0.238 7.78 3.15 8.6
7/8/2021 3:15:00 PM 26.45 79.61 0.238 7.78 2.95 8.64
7/8/2021 3:30:00 PM 26.45 79.61 0.238 7.79 2.92 8.65
7/8/2021 3:45:00 PM 26.46 79.628 0.238 7.8 3.16 8.66
7/8/2021 4:00:00 PM 26.45 79.61 0.238 7.8 3.01 8.66
7/8/2021 4:15:00 PM 26.44 79.592 0.238 7.81 2.99 8.67
7/8/2021 4:30:00 PM 26.43 79.574 0.238 7.81 3.1 8.67
7/8/2021 4:45:00 PM 26.42 79.556 0.238 7.82 2.96 8.67
7/8/2021 5:00:00 PM 26.41 79.538 0.237 7.81 2.94 8.67
7/8/2021 5:15:00 PM 26.38 79.484 0.237 7.81 3.07 8.64
7/8/2021 5:30:00 PM 26.34 79.412 0.237 7.8 3.08 8.59
7/8/2021 5:45:00 PM 26.31 79.358 0.237 7.79 3.19 8.56
7/8/2021 6:00:00 PM 26.26 79.268 0.236 7.77 3.01 8.52
7/8/2021 6:15:00 PM 26.21 79.17799 0.238 7.76 2.98 8.5
7/8/2021 6:30:00 PM 26.16 79.088 0.24 7.78 3.8 8.42
7/8/2021 6:45:00 PM 26.12 79.016 0.242 7.77 4.06 8.4
7/8/2021 7:00:00 PM 26.07 78.926 0.244 7.76 3.62 8.36
7/8/2021 7:15:00 PM 26.02 78.836 0.245 7.75 3.28 8.3
7/8/2021 7:30:00 PM 25.96 78.728 0.244 7.74 3.24 8.3
7/8/2021 7:45:00 PM 26.03 78.854 0.247 7.69 3.07 8.37
7/8/2021 8:00:00 PM 25.91 78.638 0.245 7.67 2.62 8.2
7/8/2021 8:15:00 PM 25.82 78.476 0.243 7.7 3.22 8.18
7/8/2021 8:30:00 PM 25.78 78.404 0.242 7.69 3.05 8.14
7/8/2021 8:45:00 PM 25.74 78.332 0.241 7.67 2.95 8.08
7/8/2021 9:00:00 PM 25.69 78.242 0.24 7.66 3.12 8.04
7/8/2021 9:15:00 PM 25.64 78.152 0.237 7.64 2.97 7.98
7/8/2021 9:30:00 PM 25.58 78.044 0.235 7.63 3.3 7.95
7/8/2021 9:45:00 PM 25.53 77.954 0.233 7.62 3.57 7.94
7/8/2021 10:00:00 PM 25.49 77.882 0.232 7.61 3.76 7.87
7/8/2021 10:15:00 PM 25.45 77.81 0.231 7.59 3.92 7.86
7/8/2021 10:30:00 PM 25.4 77.72 0.231 7.58 4.26 7.81
7/8/2021 10:45:00 PM 25.36 77.648 0.231 7.57 4.43 7.77
7/8/2021 11:00:00 PM 25.31 77.558 0.23 7.57 4.83 7.73
7/8/2021 11:15:00 PM 25.27 77.486 0.23 7.57 5.53 7.7
7/8/2021 11:30:00 PM 25.22 77.396 0.229 7.56 5.69 7.67
7/8/2021 11:45:00 PM 25.17 77.306 0.229 7.55 6.14 7.65
7/9/2021 12:00:00 AM 25.11 77.198 0.228 7.54 6.8 7.61
7/9/2021 12:15:00 AM 25.06 77.108 0.227 7.54 6.28 7.62
7/9/2021 12:30:00 AM 25 77 0.227 7.53 6.42 7.6
7/9/2021 12:45:00 AM 24.94 76.892 0.227 7.52 6.5 7.57
7/9/2021 1:00:00 AM 24.9 76.82 0.229 7.51 6.32 7.52
7/9/2021 1:15:00 AM 24.85 76.73 0.232 7.51 5.78 7.53
7/9/2021 1:30:00 AM 24.8 76.64 0.235 7.52 6.07 7.53
7/9/2021 1:45:00 AM 24.75 76.55 0.238 7.52 6.43 7.47
7/9/2021 2:00:00 AM 24.66 76.388 0.243 7.52 7.64 7.5
7/9/2021 2:15:00 AM 24.56 76.208 0.248 7.53 14.64 7.46
7/9/2021 2:30:00 AM 24.46 76.028 0.251 7.54 19.11 7.47
7/9/2021 2:45:00 AM 24.37 75.866 0.254 7.54 23.34 7.44
7/9/2021 3:00:00 AM 24.3 75.74 0.255 7.53 24.67 7.45
7/9/2021 3:15:00 AM 24.24 75.632 0.255 7.53 25.22 7.42
7/9/2021 3:30:00 AM 24.2 75.56 0.253 7.52 26.34 7.4
7/9/2021 3:45:00 AM 24.19 75.542 0.25 7.52 26.82 7.36
7/9/2021 4:00:00 AM 24.18 75.524 0.248 7.51 25.34 7.36
7/9/2021 4:15:00 AM 24.17 75.506 0.246 7.5 26.06 7.34
7/9/2021 4:30:00 AM 24.17 75.506 0.244 7.5 24.12 7.32
7/9/2021 4:45:00 AM 24.17 75.506 0.242 7.49 22.43 7.32
7/9/2021 5:00:00 AM 24.18 75.524 0.24 7.49 21.35 7.34
7/9/2021 5:15:00 AM 24.17 75.506 0.239 7.48 20.49 7.34
7/9/2021 5:30:00 AM 24.17 75.506 0.238 7.48 18.73 7.36
7/9/2021 5:45:00 AM 24.16 75.488 0.237 7.48 19.12 7.36
7/9/2021 6:00:00 AM 24.16 75.488 0.237 7.47 17.45 7.37
7/9/2021 6:15:00 AM 24.15 75.47 0.236 7.47 16.11 7.36
7/9/2021 6:30:00 AM 24.15 75.47 0.235 7.47 14.72 7.41
7/9/2021 6:45:00 AM 24.15 75.47 0.235 7.47 14.51 7.39
7/9/2021 7:00:00 AM 24.17 75.506 0.234 7.47 12.79 7.41
7/9/2021 7:15:00 AM 24.17 75.506 0.233 7.47 12.37 7.4
7/9/2021 7:30:00 AM 24.19 75.542 0.232 7.46 11.52 7.4
7/9/2021 7:45:00 AM 24.21 75.578 0.231 7.46 11.32 7.38
7/9/2021 8:00:00 AM 24.24 75.632 0.229 7.46 10.4 7.44
7/9/2021 8:15:00 AM 24.27 75.686 0.228 7.46 10 7.43
7/9/2021 8:30:00 AM 24.31 75.758 0.226 7.48 9.36 7.54
7/9/2021 8:45:00 AM 24.33 75.794 0.223 7.48 9.11 7.58
7/9/2021 9:00:00 AM 24.35 75.83 0.22 7.48 8.33 7.65
7/9/2021 9:15:00 AM 24.38 75.884 0.218 7.49 8.59 7.67
7/9/2021 9:30:00 AM 24.43 75.974 0.216 7.5 8.15 7.74
7/9/2021 9:45:00 AM 24.46 76.028 0.214 7.49 24.65 7.72
7/9/2021 10:00:00 AM 24.52 76.136 0.212 7.5 6.98 7.82
7/9/2021 10:15:00 AM 24.6 76.28 0.21 7.52 7.53 7.88
7/9/2021 10:30:00 AM 24.67 76.406 0.209 7.53 6.92 7.97
7/9/2021 10:45:00 AM 24.71 76.478 0.208 7.53 7.08 8.01
7/9/2021 11:00:00 AM 24.78 76.604 0.207 7.55 6.16 8.04
7/9/2021 11:15:00 AM 24.87 76.766 0.206 7.55 6.33 8.06
7/9/2021 11:30:00 AM 24.93 76.874 0.206 7.55 6.45 8.08
7/9/2021 11:45:00 AM 24.98 76.964 0.205 7.56 6.23 8.11
7/9/2021 12:00:00 PM 25.01 77.018 0.205 7.56 6.01 8.11
7/9/2021 12:15:00 PM 25.05 77.09 0.204 7.58 6.11 8.19
7/9/2021 12:30:00 PM 25.1 77.18 0.204 7.58 5.53 8.17
7/9/2021 12:45:00 PM 25.15 77.27 0.203 7.58 5.16 8.16
7/9/2021 1:00:00 PM 25.22 77.396 0.203 7.6 5.57 8.24
7/9/2021 1:15:00 PM 25.31 77.558 0.202 7.62 5.38 8.31
7/9/2021 1:30:00 PM 25.42 77.756 0.202 7.61 5.2 8.22
7/9/2021 1:45:00 PM 25.55 77.99 0.201 7.63 5.52 8.37
7/9/2021 2:00:00 PM 25.65 78.17 0.201 7.64 5.59 8.36
7/9/2021 2:15:00 PM 25.79 78.422 0.201 7.67 5.06 8.46
7/9/2021 2:30:00 PM 25.83 78.494 0.2 7.68 5.16 8.51
7/9/2021 2:45:00 PM 25.86 78.548 0.2 7.7 5.1 8.6
7/9/2021 3:00:00 PM 25.94 78.692 0.202 7.69 5.15 8.54
7/9/2021 3:15:00 PM 25.98 78.764 0.203 7.71 5.4 8.52
7/9/2021 3:30:00 PM 25.98 78.764 0.203 7.7 5.07 8.48
7/9/2021 3:45:00 PM 25.97 78.746 0.203 7.71 5.08 8.53
7/9/2021 4:00:00 PM 25.97 78.746 0.202 7.72 5.26 8.59
7/9/2021 4:15:00 PM 25.97 78.746 0.2 7.72 5.5 8.59
7/9/2021 4:30:00 PM 25.93 78.674 0.198 7.71 6.05 8.56
7/9/2021 4:45:00 PM 25.9 78.62 0.195 7.71 6.22 8.53
7/9/2021 5:00:00 PM 25.85 78.53 0.193 7.69 6.39 8.5
7/9/2021 5:15:00 PM 25.81 78.458 0.19 7.67 6.89 8.47
7/9/2021 5:30:00 PM 25.79 78.422 0.188 7.66 6.54 8.45
7/9/2021 5:45:00 PM 25.68 78.224 0.189 7.64 6.52 8.32
7/9/2021 6:00:00 PM 25.81 78.458 0.219 7.63 6.72 8.57
7/9/2021 6:15:00 PM 25.57 78.026 0.205 7.54 5.14 8.45
7/9/2021 6:30:00 PM 25.45 77.81 0.185 7.58 7.61 8.3
7/9/2021 6:45:00 PM 25.36 77.648 0.182 7.59 8.34 8.33
7/9/2021 7:00:00 PM 25.3 77.54 0.18 7.58 8.26 8.29
7/9/2021 7:15:00 PM 25.24 77.432 0.178 7.58 9.08 8.27
7/9/2021 7:30:00 PM 25.19 77.342 0.177 7.56 8.7 8.21
7/9/2021 7:45:00 PM 25.13 77.234 0.177 7.55 9.25 8.17
7/9/2021 8:00:00 PM 25.09 77.162 0.177 7.53 8.94 8.14
7/9/2021 8:15:00 PM 25.05 77.09 0.176 7.52 10.25 8.11
7/9/2021 8:30:00 PM 25 77 0.176 7.52 11.22 8.07
7/9/2021 8:45:00 PM 24.96 76.92799 0.176 7.49 11.67 7.98
7/9/2021 9:00:00 PM 24.93 76.874 0.175 7.5 12.05 8.01
7/9/2021 9:15:00 PM 24.89 76.802 0.175 7.48 12.08 7.97
7/9/2021 9:30:00 PM 24.83 76.694 0.175 7.47 12.46 7.93
7/9/2021 9:45:00 PM 24.78 76.604 0.175 7.47 13.06 7.93
7/9/2021 10:00:00 PM 24.73 76.514 0.176 7.47 13.03 7.89
7/9/2021 10:15:00 PM 24.7 76.46 0.176 7.46 13.38 7.87
7/9/2021 10:30:00 PM 24.67 76.406 0.177 7.45 13 7.88
7/9/2021 10:45:00 PM 24.64 76.352 0.177 7.45 12.23 7.87
7/9/2021 11:00:00 PM 24.63 76.334 0.177 7.44 12.97 7.86
7/9/2021 11:15:00 PM 24.63 76.334 0.178 7.44 12.82 7.88
7/9/2021 11:30:00 PM 24.62 76.316 0.178 7.44 12.2 7.86
7/9/2021 11:45:00 PM 24.61 76.298 0.178 7.44 12.8 7.85
7/10/2021 12:00:00 AM 24.58 76.244 0.179 7.45 12.4 7.9
7/10/2021 12:15:00 AM 24.55 76.19 0.179 7.44 11.92 7.89
7/10/2021 12:30:00 AM 24.52 76.136 0.18 7.45 11.73 7.88
7/10/2021 12:45:00 AM 24.48 76.064 0.18 7.44 11.62 7.89
7/10/2021 1:00:00 AM 24.44 75.992 0.18 7.44 11.3 7.9
7/10/2021 1:15:00 AM 24.41 75.938 0.181 7.44 10.62 7.89
7/10/2021 1:30:00 AM 24.38 75.884 0.181 7.43 9.7 7.9
7/10/2021 1:45:00 AM 24.35 75.83 0.181 7.43 10.42 7.85
7/10/2021 2:00:00 AM 24.34 75.812 0.181 7.43 9.8 7.87
7/10/2021 2:15:00 AM 24.32 75.776 0.181 7.43 10.95 7.86
7/10/2021 2:30:00 AM 24.31 75.758 0.182 7.42 10.23 7.89
7/10/2021 2:45:00 AM 24.3 75.74 0.183 7.43 10.33 7.89
7/10/2021 3:00:00 AM 24.29 75.722 0.186 7.44 9.78 7.9
7/10/2021 3:15:00 AM 24.3 75.74 0.19 7.45 9.28 7.92
7/10/2021 3:30:00 AM 24.57 76.226 0.207 7.5 9.09 8.17
7/10/2021 3:45:00 AM 24.47 76.046 0.199 7.44 6.98 8.22
7/10/2021 4:00:00 AM 24.23 75.614 0.194 7.45 9.66 7.84
7/10/2021 4:15:00 AM 24.18 75.524 0.194 7.46 9.06 7.92
7/10/2021 4:30:00 AM 24.15 75.47 0.194 7.46 8.26 7.91
7/10/2021 4:45:00 AM 24.11 75.398 0.194 7.46 8.66 7.9
7/10/2021 5:00:00 AM 24.09 75.362 0.193 7.46 8.92 7.94
7/10/2021 5:15:00 AM 24.06 75.308 0.192 7.46 8.75 7.93
7/10/2021 5:30:00 AM 24.04 75.272 0.191 7.46 8.03 7.92
7/10/2021 5:45:00 AM 24.03 75.254 0.19 7.45 8.04 7.87
7/10/2021 6:00:00 AM 24.02 75.236 0.19 7.45 8.17 7.89
7/10/2021 6:15:00 AM 24 75.2 0.189 7.45 7.46 7.85
7/10/2021 6:30:00 AM 23.98 75.164 0.188 7.45 7.75 7.88
7/10/2021 6:45:00 AM 23.96 75.128 0.188 7.45 7.71 7.85
7/10/2021 7:00:00 AM 23.95 75.11 0.187 7.46 7.07 7.89
7/10/2021 7:15:00 AM 23.94 75.092 0.187 7.45 7.32 7.9
7/10/2021 7:30:00 AM 23.94 75.092 0.186 7.46 7.53 7.9
7/10/2021 7:45:00 AM 23.93 75.074 0.186 7.46 7.79 7.89
7/10/2021 8:00:00 AM 23.91 75.038 0.185 7.46 7.37 7.91
7/10/2021 8:15:00 AM 23.88 74.984 0.184 7.46 8 7.89
7/10/2021 8:30:00 AM 23.87 74.966 0.182 7.47 7.77 7.93
7/10/2021 8:45:00 AM 23.85 74.93 0.181 7.47 7.22 7.89
7/10/2021 9:00:00 AM 23.82 74.876 0.18 7.47 8.41 7.94
7/10/2021 9:15:00 AM 23.82 74.876 0.179 7.47 9.18 7.96
7/10/2021 9:30:00 AM 23.81 74.858 0.179 7.46 9.76 7.9
7/10/2021 9:45:00 AM 23.81 74.858 0.178 7.46 10.31 7.96
7/10/2021 10:00:00 AM 23.82 74.876 0.178 7.46 10.13 7.87
7/10/2021 10:15:00 AM 23.87 74.966 0.178 7.46 11.18 7.9
7/10/2021 10:30:00 AM 23.91 75.038 0.178 7.45 12.83 7.81
7/10/2021 10:45:00 AM 23.97 75.146 0.178 7.44 12.85 7.85
7/10/2021 11:00:00 AM 24.01 75.218 0.178 7.45 13.37 7.86
7/10/2021 11:15:00 AM 24.07 75.326 0.177 7.44 14.47 7.82
7/10/2021 11:30:00 AM 24.15 75.47 0.177 7.43 13.66 7.79
7/10/2021 11:45:00 AM 24.17 75.506 0.175 7.44 16.15 7.88
7/10/2021 12:00:00 PM 24.19 75.542 0.173 7.44 13.53 7.92
7/10/2021 12:15:00 PM 24.2 75.56 0.172 7.44 14.65 7.91
7/10/2021 12:30:00 PM 24.21 75.578 0.171 7.44 12.85 7.96
7/10/2021 12:45:00 PM 24.25 75.65 0.171 7.43 13.77 7.91
7/10/2021 1:00:00 PM 24.28 75.704 0.171 7.43 14.28 7.88
7/10/2021 1:15:00 PM 24.33 75.794 0.17 7.43 13.41 8
7/10/2021 1:30:00 PM 24.4 75.92 0.169 7.44 13.98 8.03
7/10/2021 1:45:00 PM 24.44 75.992 0.168 7.43 14.75 8
7/10/2021 2:00:00 PM 24.52 76.136 0.168 7.43 16 8.02
7/10/2021 2:15:00 PM 24.58 76.244 0.168 7.42 16.89 7.9
7/10/2021 2:30:00 PM 24.6 76.28 0.168 7.41 19.3 7.95
7/10/2021 2:45:00 PM 24.63 76.334 0.168 7.41 19.78 7.94
7/10/2021 3:00:00 PM 24.7 76.46 0.168 7.4 22.32 7.89
7/10/2021 3:15:00 PM 24.77 76.586 0.168 7.4 23.76 7.85
7/10/2021 3:30:00 PM 24.82 76.676 0.168 7.39 23.41 7.86
7/10/2021 3:45:00 PM 24.87 76.766 0.168 7.39 26.98 7.86
7/10/2021 4:00:00 PM 24.92 76.856 0.168 7.38 24.41 7.86
7/10/2021 4:15:00 PM 24.95 76.91 0.167 7.38 22.24 7.83
7/10/2021 4:30:00 PM 24.97 76.946 0.167 7.38 25.61 7.86
7/10/2021 4:45:00 PM 24.98 76.964 0.166 7.38 22.13 7.84
7/10/2021 5:00:00 PM 24.97 76.946 0.166 7.38 23.77 7.89
7/10/2021 5:15:00 PM 24.96 76.92799 0.165 7.39 22.51 7.92
7/10/2021 5:30:00 PM 24.93 76.874 0.165 7.38 21.7 7.91
7/10/2021 5:45:00 PM 24.92 76.856 0.164 7.37 22.38 7.86
7/10/2021 6:00:00 PM 24.89 76.802 0.164 7.38 19.88 7.94
7/10/2021 6:15:00 PM 24.83 76.694 0.164 7.37 31.21 7.68
7/10/2021 6:30:00 PM 24.78 76.604 0.164 7.38 22 7.96
7/10/2021 6:45:00 PM 24.68 76.424 0.164 7.36 29.04 7.85
7/10/2021 7:00:00 PM 24.54 76.172 0.163 7.38 18.99 7.94
7/10/2021 7:15:00 PM 24.43 75.974 0.163 7.37 19.61 7.97
7/10/2021 7:30:00 PM 24.38 75.884 0.163 7.37 18.04 7.96
7/10/2021 7:45:00 PM 24.36 75.848 0.163 7.36 20.18 7.95
7/10/2021 8:00:00 PM 24.32 75.776 0.163 7.37 20.62 7.95
7/10/2021 8:15:00 PM 24.28 75.704 0.163 7.36 17.9 7.95
7/10/2021 8:30:00 PM 24.24 75.632 0.162 7.36 16.46 7.95
7/10/2021 8:45:00 PM 24.2 75.56 0.162 7.36 19.36 7.95
7/10/2021 9:00:00 PM 24.16 75.488 0.162 7.36 22.16 7.97
7/10/2021 9:15:00 PM 24.13 75.434 0.162 7.36 21.44 7.92
7/10/2021 9:30:00 PM 24.09 75.362 0.162 7.37 20.77 8.04
7/10/2021 9:45:00 PM 24.05 75.29 0.162 7.37 18.34 8
7/10/2021 10:00:00 PM 23.99 75.182 0.162 7.36 18.29 8.01
7/10/2021 10:15:00 PM 23.94 75.092 0.162 7.37 18.11 8
7/10/2021 10:30:00 PM 23.9 75.02 0.162 7.37 16.62 8.01
7/10/2021 10:45:00 PM 23.86 74.948 0.162 7.36 17.17 8.04
7/10/2021 11:00:00 PM 23.84 74.912 0.162 7.36 18.71 8.01
7/10/2021 11:15:00 PM 23.8 74.84 0.162 7.37 18.1 8.05
7/10/2021 11:30:00 PM 23.79 74.82201 0.162 7.37 18.26 8.06
7/10/2021 11:45:00 PM 23.79 74.82201 0.161 7.37 14.28 8.09
7/11/2021 12:00:00 AM 23.8 74.84 0.161 7.37 15.81 8.09
7/11/2021 12:15:00 AM 23.82 74.876 0.161 7.38 15.79 8.1
7/11/2021 12:30:00 AM 23.82 74.876 0.161 7.38 13.75 8.09
7/11/2021 12:45:00 AM 23.81 74.858 0.161 7.38 16.32 8.12
7/11/2021 1:00:00 AM 23.8 74.84 0.161 7.39 16.19 8.11
7/11/2021 1:15:00 AM 23.78 74.804 0.161 7.39 14.75 8.12
7/11/2021 1:30:00 AM 23.75 74.75 0.162 7.39 15.96 8.12
7/11/2021 1:45:00 AM 23.73 74.714 0.164 7.39 15.62 8.14
7/11/2021 2:00:00 AM 23.7 74.66 0.166 7.39 13.82 8.14
7/11/2021 2:15:00 AM 23.68 74.624 0.166 7.4 15.15 8.14
7/11/2021 2:30:00 AM 23.66 74.588 0.167 7.4 13.98 8.16
7/11/2021 2:45:00 AM 23.65 74.57 0.168 7.4 13.43 8.16
7/11/2021 3:00:00 AM 23.65 74.57 0.168 7.41 13.3 8.16
7/11/2021 3:15:00 AM 23.65 74.57 0.169 7.41 14.72 8.17
7/11/2021 3:30:00 AM 23.64 74.552 0.17 7.41 13.84 8.19
7/11/2021 3:45:00 AM 24.06 75.308 0.185 7.38 11.46 7.9
7/11/2021 4:00:00 AM 23.93 75.074 0.18 7.38 8.34 8.39
7/11/2021 4:15:00 AM 23.65 74.57 0.172 7.41 14.1 8.16
7/11/2021 4:30:00 AM 23.63 74.534 0.172 7.42 12.87 8.16
7/11/2021 4:45:00 AM 23.62 74.516 0.172 7.42 9.83 8.16
7/11/2021 5:00:00 AM 23.62 74.516 0.173 7.42 10.26 8.11
7/11/2021 5:15:00 AM 23.62 74.516 0.174 7.41 10.69 8.1
7/11/2021 5:30:00 AM 23.61 74.498 0.174 7.41 10.96 8.09
7/11/2021 5:45:00 AM 23.61 74.498 0.174 7.41 9.49 8.08
7/11/2021 6:00:00 AM 23.6 74.48 0.175 7.4 8.97 8.04
7/11/2021 6:15:00 AM 23.59 74.462 0.176 7.41 8.98 8.05
7/11/2021 6:30:00 AM 23.58 74.444 0.176 7.41 9.26 8
7/11/2021 6:45:00 AM 23.58 74.444 0.177 7.41 9.49 8.02
7/11/2021 7:00:00 AM 23.57 74.426 0.177 7.41 9.53 8
7/11/2021 7:15:00 AM 23.57 74.426 0.178 7.41 9 8.01
7/11/2021 7:30:00 AM 23.56 74.408 0.178 7.41 9.29 7.98
7/11/2021 7:45:00 AM 23.56 74.408 0.179 7.41 8.8 8
7/11/2021 8:00:00 AM 23.56 74.408 0.179 7.41 8.85 7.99
7/11/2021 8:15:00 AM 23.57 74.426 0.18 7.41 9.34 8
7/11/2021 8:30:00 AM 23.57 74.426 0.18 7.41 8.44 8.01
7/11/2021 8:45:00 AM 23.57 74.426 0.179 7.41 8.63 7.96
7/11/2021 9:00:00 AM 23.58 74.444 0.179 7.41 7.77 7.99
7/11/2021 9:15:00 AM 23.58 74.444 0.178 7.41 8.25 7.99
7/11/2021 9:30:00 AM 23.6 74.48 0.178 7.42 7.73 7.97
7/11/2021 9:45:00 AM 23.6 74.48 0.178 7.41 8.67 7.97
7/11/2021 10:00:00 AM 23.61 74.498 0.178 7.4 8.1 7.95
7/11/2021 10:15:00 AM 23.63 74.534 0.178 7.4 8.4 7.95
7/11/2021 10:30:00 AM 23.65 74.57 0.178 7.4 8.28 7.91
7/11/2021 10:45:00 AM 23.67 74.606 0.179 7.42 7.41 8.01
7/11/2021 11:00:00 AM 23.67 74.606 0.179 7.42 7.17 7.98
7/11/2021 11:15:00 AM 23.66 74.588 0.179 7.43 8.01 8.03
7/11/2021 11:30:00 AM 23.66 74.588 0.179 7.43 7.24 8.06
7/11/2021 11:45:00 AM 23.66 74.588 0.179 7.44 7.53 8.05
7/11/2021 12:00:00 PM 23.66 74.588 0.179 7.44 8.26 8.08
7/11/2021 12:15:00 PM 23.66 74.588 0.179 7.44 7.85 8.09
7/11/2021 12:30:00 PM 23.66 74.588 0.179 7.45 7.84 8.13
7/11/2021 12:45:00 PM 23.66 74.588 0.179 7.46 7.56 8.15
7/11/2021 1:00:00 PM 23.66 74.588 0.179 7.45 7.62 8.16
7/11/2021 1:15:00 PM 23.67 74.606 0.179 7.46 7.42 8.17
7/11/2021 1:30:00 PM 23.66 74.588 0.179 7.46 7.73 8.21
7/11/2021 1:45:00 PM 23.64 74.552 0.179 7.46 6.89 8.21
7/11/2021 2:00:00 PM 23.63 74.534 0.179 7.47 7.56 8.22
7/11/2021 2:15:00 PM 23.62 74.516 0.179 7.47 6.84 8.25
7/11/2021 2:30:00 PM 23.62 74.516 0.179 7.48 7.97 8.27
7/11/2021 2:45:00 PM 23.62 74.516 0.178 7.48 7.7 8.31
7/11/2021 3:00:00 PM 23.62 74.516 0.178 7.49 7.82 8.37
7/11/2021 3:15:00 PM 23.64 74.552 0.178 7.5 7.37 8.38
7/11/2021 3:30:00 PM 23.66 74.588 0.178 7.49 7.23 8.35
7/11/2021 3:45:00 PM 23.67 74.606 0.178 7.5 6.46 8.38
7/11/2021 4:00:00 PM 23.7 74.66 0.178 7.52 6.97 8.42
7/11/2021 4:15:00 PM 23.74 74.732 0.178 7.52 6.3 8.47
7/11/2021 4:30:00 PM 23.76 74.768 0.179 7.51 6.34 8.42
7/11/2021 4:45:00 PM 23.82 74.876 0.182 7.57 13.12 8.73
7/11/2021 5:00:00 PM 24.07 75.326 0.19 7.46 4.89 8.81
7/11/2021 5:15:00 PM 23.84 74.912 0.182 7.46 5.33 8.58
7/11/2021 5:30:00 PM 23.75 74.75 0.179 7.54 6.43 8.62
7/11/2021 5:45:00 PM 23.76 74.768 0.179 7.56 6.39 8.69
7/11/2021 6:00:00 PM 23.76 74.768 0.179 7.57 6.25 8.68
7/11/2021 6:15:00 PM 23.75 74.75 0.179 7.58 6.22 8.71
7/11/2021 6:30:00 PM 23.74 74.732 0.179 7.58 6.24 8.69
7/11/2021 6:45:00 PM 23.74 74.732 0.179 7.57 6.2 8.67
7/11/2021 7:00:00 PM 23.73 74.714 0.18 7.58 6.55 8.67
7/11/2021 7:15:00 PM 23.71 74.67799 0.18 7.58 6.49 8.7
7/11/2021 7:30:00 PM 23.69 74.642 0.18 7.57 6.09 8.66
7/11/2021 7:45:00 PM 23.67 74.606 0.181 7.57 5.83 8.63
7/11/2021 8:00:00 PM 23.63 74.534 0.181 7.56 6.09 8.61
7/11/2021 8:15:00 PM 23.62 74.516 0.181 7.55 5.96 8.55
7/11/2021 8:30:00 PM 23.58 74.444 0.18 7.55 5.12 8.55
7/11/2021 8:45:00 PM 23.54 74.372 0.181 7.56 5.55 8.52
7/11/2021 9:00:00 PM 23.53 74.354 0.181 7.57 6.92 8.51
7/11/2021 9:15:00 PM 23.5 74.3 0.181 7.56 6.22 8.5
7/11/2021 9:30:00 PM 23.49 74.282 0.181 7.55 6.26 8.48
7/11/2021 9:45:00 PM 23.46 74.228 0.181 7.55 5.79 8.48
7/11/2021 10:00:00 PM 23.46 74.228 0.181 7.54 6 8.47
7/11/2021 10:15:00 PM 23.44 74.192 0.181 7.54 6.28 8.46
7/11/2021 10:30:00 PM 23.44 74.192 0.182 7.55 5.47 8.46
7/11/2021 10:45:00 PM 23.42 74.156 0.182 7.55 5.95 8.44
7/11/2021 11:00:00 PM 23.41 74.138 0.182 7.53 5.8 8.41
7/11/2021 11:15:00 PM 23.4 74.12 0.182 7.54 6.09 8.41
7/11/2021 11:30:00 PM 23.38 74.084 0.183 7.54 5.46 8.41
7/11/2021 11:45:00 PM 23.37 74.066 0.184 7.54 6.3 8.39
7/12/2021 12:00:00 AM 23.36 74.048 0.184 7.53 5.91 8.35
7/12/2021 12:15:00 AM 23.35 74.03 0.184 7.52 5.58 8.35
7/12/2021 12:30:00 AM 23.33 73.994 0.185 7.53 5.49 8.36
7/12/2021 12:45:00 AM 23.31 73.958 0.186 7.53 5.66 8.34
7/12/2021 1:00:00 AM 23.29 73.922 0.187 7.53 6.38 8.31
7/12/2021 1:15:00 AM 23.28 73.904 0.188 7.54 7.17 8.35
7/12/2021 1:30:00 AM 23.27 73.886 0.191 7.55 8.64 8.37
7/12/2021 1:45:00 AM 23.42 74.156 0.197 7.55 10.62 8.54
7/12/2021 2:00:00 AM 23.5 74.3 0.195 7.49 5.38 8.62
7/12/2021 2:15:00 AM 23.29 73.922 0.193 7.5 6.45 8.28
7/12/2021 2:30:00 AM 23.2 73.76 0.194 7.54 7.75 8.33
7/12/2021 2:45:00 AM 23.18 73.724 0.194 7.51 7.92 8.2
7/12/2021 3:00:00 AM 23.15 73.67 0.193 7.55 12.94 8.33
7/12/2021 3:15:00 AM 23.15 73.67 0.194 7.55 9.3 8.36
7/12/2021 3:30:00 AM 23.15 73.67 0.194 7.54 10.08 8.36
7/12/2021 3:45:00 AM 23.15 73.67 0.195 7.54 8.57 8.36
7/12/2021 4:00:00 AM 23.15 73.67 0.195 7.54 8.71 8.36
7/12/2021 4:15:00 AM 23.15 73.67 0.195 7.54 8.25 8.35
7/12/2021 4:30:00 AM 23.15 73.67 0.196 7.53 8.53 8.34
7/12/2021 4:45:00 AM 23.14 73.652 0.197 7.54 8.91 8.35
7/12/2021 5:00:00 AM 23.14 73.652 0.198 7.53 8.48 8.35
7/12/2021 5:15:00 AM 23.11 73.598 0.201 7.54 9.01 8.33
7/12/2021 5:30:00 AM 23.09 73.562 0.203 7.54 9.62 8.32
7/12/2021 5:45:00 AM 23.06 73.508 0.205 7.55 11.31 8.31
7/12/2021 6:00:00 AM 23.04 73.472 0.208 7.55 11.31 8.3
7/12/2021 6:15:00 AM 23.03 73.454 0.209 7.56 10.99 8.3
7/12/2021 6:30:00 AM 23.02 73.436 0.208 7.55 10.99 8.3
7/12/2021 6:45:00 AM 23.03 73.454 0.207 7.54 10.32 8.28
7/12/2021 7:00:00 AM 23.03 73.454 0.205 7.54 9.67 8.26
7/12/2021 7:15:00 AM 23.05 73.49 0.203 7.53 9.62 8.25
7/12/2021 7:30:00 AM 23.06 73.508 0.202 7.53 9.73 8.26
7/12/2021 7:45:00 AM 23.09 73.562 0.2 7.52 9.13 8.26
7/12/2021 8:00:00 AM 23.12 73.616 0.199 7.52 9.13 8.24
7/12/2021 8:15:00 AM 23.16 73.688 0.197 7.52 9.37 8.28
7/12/2021 8:30:00 AM 23.18 73.724 0.196 7.52 8.77 8.22
7/12/2021 8:45:00 AM 23.2 73.76 0.195 7.51 8.88 8.22
7/12/2021 9:00:00 AM 23.22 73.796 0.195 7.5 9.57 8.2
7/12/2021 9:15:00 AM 23.26 73.868 0.195 7.51 8.67 8.23
7/12/2021 9:30:00 AM 23.31 73.958 0.194 7.51 9.32 8.21
7/12/2021 9:45:00 AM 23.35 74.03 0.194 7.48 9.67 8.05
7/12/2021 10:00:00 AM 23.42 74.156 0.193 7.51 10.35 8.29
7/12/2021 10:15:00 AM 23.45 74.21 0.193 7.5 10.02 8.16
7/12/2021 10:30:00 AM 23.51 74.318 0.192 7.5 9.76 8.24
7/12/2021 10:45:00 AM 23.6 74.48 0.192 7.52 10.39 8.33
7/12/2021 11:00:00 AM 23.64 74.552 0.191 7.53 10.14 8.31
7/12/2021 11:15:00 AM 23.67 74.606 0.191 7.53 10.16 8.37
7/12/2021 11:30:00 AM 23.73 74.714 0.191 7.52 8.44 8.39
7/12/2021 11:45:00 AM 23.85 74.93 0.19 7.55 10.05 8.5
7/12/2021 12:00:00 PM 23.92 75.056 0.189 7.54 8.49 8.47
7/12/2021 12:15:00 PM 23.94 75.092 0.189 7.55 10.04 8.51
7/12/2021 12:30:00 PM 23.93 75.074 0.188 7.55 9.99 8.49
7/12/2021 12:45:00 PM 23.96 75.128 0.188 7.56 10.28 8.56
7/12/2021 1:00:00 PM 24.03 75.254 0.187 7.55 10.02 8.55
7/12/2021 1:15:00 PM 24.05 75.29 0.188 7.54 10.37 8.48
7/12/2021 1:30:00 PM 24.04 75.272 0.187 7.54 11.08 8.54
7/12/2021 1:45:00 PM 24 75.2 0.187 7.55 10.94 8.56
7/12/2021 2:00:00 PM 24.08 75.344 0.188 7.53 12.13 8.5
7/12/2021 2:15:00 PM 24.16 75.488 0.188 7.52 13.96 8.46
7/12/2021 2:30:00 PM 24.18 75.524 0.188 7.52 11.69 8.4
7/12/2021 2:45:00 PM 24.16 75.488 0.187 7.52 13.01 8.44
7/12/2021 3:00:00 PM 24.16 75.488 0.187 7.51 13.36 8.44
7/12/2021 3:15:00 PM 24.13 75.434 0.192 7.52 13.87 8.46
7/12/2021 3:30:00 PM 24.06 75.308 0.238 7.62 14.07 8.5
7/12/2021 3:45:00 PM 24 75.2 0.294 7.76 13.62 8.51
7/12/2021 4:00:00 PM 24 75.2 0.349 7.98 12.49 8.52
7/12/2021 4:15:00 PM 23.99 75.182 0.372 8.12 12.96 8.53
7/12/2021 4:30:00 PM 24 75.2 0.387 8.2 14.02 8.55
7/12/2021 4:45:00 PM 24 75.2 0.396 8.25 10.73 8.56
7/12/2021 5:00:00 PM 23.99 75.182 0.401 8.27 12.83 8.54
7/12/2021 5:15:00 PM 23.96 75.128 0.409 8.31 11.68 8.58
7/12/2021 5:30:00 PM 23.92 75.056 0.374 8.27 13.7 8.6
7/12/2021 5:45:00 PM 23.87 74.966 0.357 8.24 13.29 8.57
7/12/2021 6:00:00 PM 23.8 74.84 0.358 8.26 11.39 8.59
7/12/2021 6:15:00 PM 23.72 74.696 0.357 8.27 11.41 8.59
7/12/2021 6:30:00 PM 23.65 74.57 0.348 8.25 12.59 8.58
7/12/2021 6:45:00 PM 23.56 74.408 0.348 8.28 17.1 8.56
7/12/2021 7:00:00 PM 23.45 74.21 0.337 8.31 29.22 8.49
7/12/2021 7:15:00 PM 23.36 74.048 0.262 8.23 29.89 8.49
7/12/2021 7:30:00 PM 23.26 73.868 0.212 8.13 24.41 8.52
7/12/2021 7:45:00 PM 23.17 73.706 0.181 7.78 15.91 8.53
7/12/2021 8:00:00 PM 23.11 73.598 0.166 7.61 11.83 8.51
7/12/2021 8:15:00 PM 23.06 73.508 0.16 7.52 13.59 8.48
7/12/2021 8:30:00 PM 23.03 73.454 0.157 7.49 14.59 8.46
7/12/2021 8:45:00 PM 23 73.4 0.155 7.45 13.76 8.41
7/12/2021 9:00:00 PM 22.99 73.382 0.153 7.44 15.7 8.43
7/12/2021 9:15:00 PM 22.97 73.346 0.152 7.42 18.52 8.41
7/12/2021 9:30:00 PM 22.96 73.328 0.152 7.4 18.54 8.35
7/12/2021 9:45:00 PM 22.94 73.292 0.151 7.4 18.73 8.37
7/12/2021 10:00:00 PM 22.92 73.256 0.151 7.38 23.58 8.36
7/12/2021 10:15:00 PM 22.91 73.238 0.151 7.37 27.48 8.33
7/12/2021 10:30:00 PM 22.9 73.22 0.152 7.37 25.81 8.31
7/12/2021 10:45:00 PM 22.9 73.22 0.151 7.36 30.34 8.29
7/12/2021 11:00:00 PM 22.91 73.238 0.151 7.35 34.98 8.27
7/12/2021 11:15:00 PM 22.91 73.238 0.151 7.34 35.09 8.26
7/12/2021 11:30:00 PM 22.93 73.274 0.152 7.33 35.61 8.26
7/12/2021 11:45:00 PM 22.93 73.274 0.152 7.32 39.53 8.19
7/13/2021 12:00:00 AM 22.93 73.274 0.151 7.32 38.57 8.23
7/13/2021 12:15:00 AM 22.92 73.256 0.151 7.33 38.7 8.25
7/13/2021 12:30:00 AM 22.9 73.22 0.151 7.32 43.18 8.23
7/13/2021 12:45:00 AM 22.89 73.202 0.151 7.32 42.67 8.24
7/13/2021 1:00:00 AM 22.88 73.184 0.151 7.31 43.3 8.25
7/13/2021 1:15:00 AM 22.87 73.166 0.152 7.31 47.17 8.21
7/13/2021 1:30:00 AM 22.87 73.166 0.152 7.31 52.03 8.26
7/13/2021 1:45:00 AM 22.87 73.166 0.152 7.31 50.58 8.25
7/13/2021 2:00:00 AM 22.87 73.166 0.153 7.32 47.21 8.25
7/13/2021 2:15:00 AM 22.87 73.166 0.153 7.31 53.77 8.23
7/13/2021 2:30:00 AM 22.87 73.166 0.155 7.32 57.86 8.25
7/13/2021 2:45:00 AM 23.29 73.922 0.178 7.32 23.54 8.09
7/13/2021 3:00:00 AM 23.02 73.436 0.166 7.31 39.4 8.32
7/13/2021 3:15:00 AM 22.89 73.202 0.156 7.32 55.39 8.23
7/13/2021 3:30:00 AM 22.88 73.184 0.156 7.32 48.63 8.24
7/13/2021 3:45:00 AM 22.9 73.22 0.156 7.32 46.13 8.25
7/13/2021 4:00:00 AM 22.9 73.22 0.157 7.32 46.4 8.25
7/13/2021 4:15:00 AM 22.91 73.238 0.158 7.32 47.61 8.2
7/13/2021 4:30:00 AM 22.92 73.256 0.158 7.33 40.54 8.25
7/13/2021 4:45:00 AM 22.93 73.274 0.159 7.33 42.21 8.26
7/13/2021 5:00:00 AM 22.93 73.274 0.161 7.32 39.05 8.24
7/13/2021 5:15:00 AM 22.93 73.274 0.16 7.34 37.6 8.27
7/13/2021 5:30:00 AM 22.93 73.274 0.16 7.33 34.78 8.28
7/13/2021 5:45:00 AM 22.92 73.256 0.161 7.34 34.28 8.27
7/13/2021 6:00:00 AM 22.92 73.256 0.161 7.34 32.37 8.26
7/13/2021 6:15:00 AM 22.91 73.238 0.161 7.34 31.02 8.28
7/13/2021 6:30:00 AM 22.89 73.202 0.161 7.34 28.16 8.28
7/13/2021 6:45:00 AM 22.88 73.184 0.161 7.34 26.07 8.28
7/13/2021 7:00:00 AM 22.87 73.166 0.162 7.34 24.75 8.2
7/13/2021 7:15:00 AM 22.86 73.148 0.162 7.34 22.64 8.27
7/13/2021 7:30:00 AM 22.85 73.13 0.162 7.34 18.48 8.27
7/13/2021 7:45:00 AM 22.85 73.13 0.162 7.34 19.83 8.26
7/13/2021 8:00:00 AM 22.87 73.166 0.162 7.34 22.28 8.26
7/13/2021 8:15:00 AM 22.87 73.166 0.163 7.35 21.39 8.3
7/13/2021 8:30:00 AM 22.87 73.166 0.163 7.34 19.82 8.29
7/13/2021 8:45:00 AM 22.87 73.166 0.163 7.35 18.36 8.31
7/13/2021 9:00:00 AM 22.89 73.202 0.163 7.34 19.04 8.3
7/13/2021 9:15:00 AM 22.93 73.274 0.164 7.34 17.06 8.26
7/13/2021 9:30:00 AM 22.98 73.364 0.164 7.32 18.21 8.21
7/13/2021 9:45:00 AM 23.02 73.436 0.165 7.31 16.06 8.17
7/13/2021 10:00:00 AM 23.04 73.472 0.165 7.34 16.23 8.27
7/13/2021 10:15:00 AM 23.03 73.454 0.166 7.35 14.51 8.31
7/13/2021 10:30:00 AM 23.03 73.454 0.171 7.37 16.63 8.33
7/13/2021 10:45:00 AM 23.05 73.49 0.171 7.38 17.31 8.34
7/13/2021 11:00:00 AM 23.07 73.526 0.172 7.38 14.75 8.37
7/13/2021 11:15:00 AM 23.08 73.544 0.171 7.38 12.82 8.33
7/13/2021 11:30:00 AM 23.2 73.76 0.18 7.38 13.02 8.29
7/13/2021 11:45:00 AM 23.21 73.778 0.176 7.34 10.2 8.3
7/13/2021 12:00:00 PM 23.26 73.868 0.173 7.36 16.42 8.34
7/13/2021 12:15:00 PM 23.33 73.994 0.173 7.38 14.27 8.39
7/13/2021 12:30:00 PM 23.38 74.084 0.173 7.38 12.24 8.42
7/13/2021 12:45:00 PM 23.44 74.192 0.173 7.39 13.77 8.42
7/13/2021 1:00:00 PM 23.52 74.336 0.174 7.39 14.11 8.43
7/13/2021 1:15:00 PM 23.59 74.462 0.174 7.38 13.33 8.41
7/13/2021 1:30:00 PM 23.66 74.588 0.175 7.39 14.35 8.39
7/13/2021 1:45:00 PM 23.73 74.714 0.175 7.4 13.46 8.43
7/13/2021 2:00:00 PM 23.8 74.84 0.177 7.42 11.95 8.44
7/13/2021 2:15:00 PM 23.86 74.948 0.177 7.42 13.29 8.4
7/13/2021 2:30:00 PM 23.93 75.074 0.175 7.42 11.17 8.44
7/13/2021 2:45:00 PM 23.96 75.128 0.172 7.41 13.16 8.44
7/13/2021 3:00:00 PM 24 75.2 0.171 7.4 12.85 8.43
7/13/2021 3:15:00 PM 24.05 75.29 0.171 7.41 11.38 8.43
7/13/2021 3:30:00 PM 24.13 75.434 0.171 7.4 13.05 8.44
7/13/2021 3:45:00 PM 24.2 75.56 0.171 7.41 15 8.44
7/13/2021 4:00:00 PM 24.25 75.65 0.171 7.42 9.7 8.49
7/13/2021 4:15:00 PM 24.26 75.668 0.171 7.41 9.77 8.47
7/13/2021 4:30:00 PM 24.25 75.65 0.17 7.42 13.18 8.48
7/13/2021 4:45:00 PM 24.24 75.632 0.169 7.42 12.62 8.48
7/13/2021 5:00:00 PM 24.22 75.596 0.167 7.41 10.62 8.48
7/13/2021 5:15:00 PM 24.18 75.524 0.165 7.41 13.3 8.48
7/13/2021 5:30:00 PM 24.15 75.47 0.165 7.4 12.51 8.47
7/13/2021 5:45:00 PM 24.12 75.416 0.164 7.39 14.21 8.45
7/13/2021 6:00:00 PM 24.09 75.362 0.162 7.39 15.12 8.45
7/13/2021 6:15:00 PM 24.05 75.29 0.161 7.39 14.66 8.43
7/13/2021 6:30:00 PM 23.99 75.182 0.16 7.38 16.01 8.39
7/13/2021 6:45:00 PM 23.94 75.092 0.157 7.38 16.11 8.4
7/13/2021 7:00:00 PM 23.9 75.02 0.155 7.37 14.3 8.39
7/13/2021 7:15:00 PM 23.87 74.966 0.154 7.36 13.43 8.39
7/13/2021 7:30:00 PM 23.85 74.93 0.154 7.35 15.35 8.37
7/13/2021 7:45:00 PM 23.83 74.894 0.154 7.35 15.11 8.35
7/13/2021 8:00:00 PM 23.81 74.858 0.153 7.35 15.79 8.34
7/13/2021 8:15:00 PM 23.8 74.84 0.153 7.34 17.44 8.32
7/13/2021 8:30:00 PM 23.79 74.82201 0.154 7.34 18.47 8.32
7/13/2021 8:45:00 PM 23.78 74.804 0.154 7.33 18.88 8.29
7/13/2021 9:00:00 PM 23.76 74.768 0.154 7.33 23.5 8.28
7/13/2021 9:15:00 PM 23.72 74.696 0.155 7.33 25.52 8.25
7/13/2021 9:30:00 PM 23.69 74.642 0.155 7.33 26.63 8.23
7/13/2021 9:45:00 PM 23.66 74.588 0.156 7.32 35.33 8.22
7/13/2021 10:00:00 PM 23.62 74.516 0.156 7.33 41.75 8.21
7/13/2021 10:15:00 PM 23.59 74.462 0.156 7.33 52.34 8.2
7/13/2021 10:30:00 PM 23.58 74.444 0.156 7.37 58.64 8.2
7/13/2021 10:45:00 PM 23.58 74.444 0.157 7.37 72.19 8.15
7/13/2021 11:00:00 PM 23.6 74.48 0.158 7.35 80.13 8.15
7/13/2021 11:15:00 PM 23.61 74.498 0.159 7.34 74.85 8.15
7/13/2021 11:30:00 PM 23.61 74.498 0.159 7.34 82.15 8.15
7/13/2021 11:45:00 PM 23.6 74.48 0.16 7.34 92.85 8.14
7/14/2021 12:00:00 AM 23.58 74.444 0.161 7.34 92.77 8.13
7/14/2021 12:15:00 AM 23.57 74.426 0.161 7.34 99.08 8.13
7/14/2021 12:30:00 AM 23.55 74.39 0.161 7.34 102.65 8.12
7/14/2021 12:45:00 AM 23.53 74.354 0.162 7.35 109.89 8.12
7/14/2021 1:00:00 AM 23.5 74.3 0.163 7.36 98.45 8.1
7/14/2021 1:15:00 AM 23.46 74.228 0.164 7.37 105.9 8.1
7/14/2021 1:30:00 AM 23.43 74.174 0.164 7.38 102.42 8.11
7/14/2021 1:45:00 AM 23.41 74.138 0.164 7.38 90.07 8.09
7/14/2021 2:00:00 AM 23.42 74.156 0.164 7.38 99.32 8.07
7/14/2021 2:15:00 AM 23.44 74.192 0.163 7.37 100.11 8.1
7/14/2021 2:30:00 AM 23.45 74.21 0.162 7.37 90.6 8.08
7/14/2021 2:45:00 AM 23.44 74.192 0.162 7.37 85.75 8.08
7/14/2021 3:00:00 AM 23.44 74.192 0.163 7.37 81.86 8.07
7/14/2021 3:15:00 AM 23.41 74.138 0.166 7.38 88.38 8.07
7/14/2021 3:30:00 AM 23.36 74.048 0.17 7.4 98.82 8.04
7/14/2021 3:45:00 AM 23.53 74.354 0.179 7.4 60.14 8.29
7/14/2021 4:00:00 AM 23.4 74.12 0.173 7.34 62.62 8.08
7/14/2021 4:15:00 AM 23.27 73.886 0.168 7.38 104.01 7.97
7/14/2021 4:30:00 AM 23.25 73.85 0.166 7.37 86.98 7.95
7/14/2021 4:45:00 AM 23.23 73.814 0.164 7.37 89.31 7.95
7/14/2021 5:00:00 AM 23.2 73.76 0.162 7.36 87.59 7.94
7/14/2021 5:15:00 AM 23.17 73.706 0.161 7.36 79.69 7.97
7/14/2021 5:30:00 AM 23.13 73.634 0.159 7.34 78.12 7.96
7/14/2021 5:45:00 AM 23.12 73.616 0.158 7.34 69.72 7.97
7/14/2021 6:00:00 AM 23.1 73.58 0.157 7.34 67.66 7.97
7/14/2021 6:15:00 AM 23.09 73.562 0.157 7.34 62.77 7.93
7/14/2021 6:30:00 AM 23.06 73.508 0.156 7.34 52.97 7.92
7/14/2021 6:45:00 AM 23.02 73.436 0.155 7.34 65.13 7.91
7/14/2021 7:00:00 AM 22.97 73.346 0.154 7.33 61.9 7.89
7/14/2021 7:15:00 AM 22.89 73.202 0.152 7.32 81.7 7.83
7/14/2021 7:30:00 AM 22.81 73.058 0.15 7.31 96.87 7.84
7/14/2021 7:45:00 AM 22.72 72.896 0.147 7.29 96.59 7.83
7/14/2021 8:00:00 AM 22.61 72.698 0.144 7.28 109.98 7.84
7/14/2021 8:15:00 AM 22.44 72.392 0.139 7.27 128.95 7.85
7/14/2021 8:30:00 AM 22.28 72.104 0.136 7.24 125.76 7.86
7/14/2021 8:45:00 AM 22.1 71.78 0.131 7.22 131.41 7.87
7/14/2021 9:00:00 AM 21.93 71.474 0.126 7.19 159.16 7.9
7/14/2021 9:15:00 AM 21.77 71.186 0.122 7.17 149.48 7.9
7/14/2021 9:30:00 AM 21.62 70.916 0.117 7.14 158.76 7.94
7/14/2021 9:45:00 AM 21.49 70.682 0.114 7.12 175.45 7.97
7/14/2021 10:00:00 AM 21.35 70.43 0.11 7.1 243.27 8.01
7/14/2021 10:15:00 AM 21.28 70.304 0.108 7.08 236.16 8.03
7/14/2021 10:30:00 AM 21.23 70.214 0.106 7.07 208.19 8.06
7/14/2021 10:45:00 AM 21.17 70.106 0.104 7.06 242.65 8.1
7/14/2021 11:00:00 AM 21.13 70.034 0.103 7.05 215.66 8.13
7/14/2021 11:15:00 AM 21.08 69.944 0.103 7.05 215.38 8.18
7/14/2021 11:30:00 AM 21.05 69.89 0.102 7.05 186.55 8.18
7/14/2021 11:45:00 AM 21.04 69.872 0.102 7.05 185.18 8.23
7/14/2021 12:00:00 PM 21.04 69.872 0.102 7.05 174.18 8.24
7/14/2021 12:15:00 PM 21.01 69.818 0.102 7.06 171.26 8.27
7/14/2021 12:30:00 PM 20.99 69.782 0.102 7.06 177.25 8.3
7/14/2021 12:45:00 PM 20.99 69.782 0.102 7.05 190.12 8.31
7/14/2021 1:00:00 PM 20.95 69.71 0.102 7.05 161.39 8.33
7/14/2021 1:15:00 PM 20.94 69.692 0.102 7.05 172.79 8.38
7/14/2021 1:30:00 PM 20.96 69.728 0.102 7.05 144.15 8.39
7/14/2021 1:45:00 PM 20.97 69.746 0.103 7.06 153.05 8.4
7/14/2021 2:00:00 PM 20.98 69.764 0.103 7.07 130.53 8.42
7/14/2021 2:15:00 PM 21.06 69.908 0.105 7.07 139.45 8.41
7/14/2021 2:30:00 PM 21.13 70.034 0.107 7.07 117.75 8.34
7/14/2021 2:45:00 PM 21.2 70.16 0.106 7.07 119.44 8.4
7/14/2021 3:00:00 PM 21.21 70.17799 0.11 7.08 108.77 8.39
7/14/2021 3:15:00 PM 21.2 70.16 0.109 7.08 99.69 8.46
7/14/2021 3:30:00 PM 21.23 70.214 0.108 7.09 96.84 8.39
7/14/2021 3:45:00 PM 21.27 70.286 0.108 7.09 90.78 8.41
7/14/2021 4:00:00 PM 21.33 70.394 0.109 7.09 96.49 8.44
7/14/2021 4:15:00 PM 21.41 70.538 0.113 7.09 72.99 8.33
7/14/2021 4:30:00 PM 21.47 70.646 0.112 7.1 70.22 8.32
7/14/2021 4:45:00 PM 21.47 70.646 0.112 7.1 75.08 8.39
7/14/2021 5:00:00 PM 21.48 70.664 0.11 7.1 69.23 8.42
7/14/2021 5:15:00 PM 21.49 70.682 0.112 7.11 72.56 8.44
7/14/2021 5:30:00 PM 21.53 70.754 0.113 7.11 66.24 8.34
7/14/2021 5:45:00 PM 21.54 70.772 0.114 7.12 67.13 8.36
7/14/2021 6:00:00 PM 21.56 70.808 0.115 7.12 63.71 8.47
7/14/2021 6:15:00 PM 21.57 70.826 0.114 7.12 52.36 8.45
7/14/2021 6:30:00 PM 21.56 70.808 0.119 7.11 47.91 8.23
7/14/2021 6:45:00 PM 22.43 72.374 0.142 7.2 43.48 8.53
7/14/2021 7:00:00 PM 21.91 71.438 0.129 7.14 37.81 8.53
7/14/2021 7:15:00 PM 21.67 71.006 0.114 7.14 55.27 8.55
7/14/2021 7:30:00 PM 21.68 71.024 0.113 7.14 62.19 8.55
7/14/2021 7:45:00 PM 21.71 71.078 0.114 7.15 58.46 8.54
7/14/2021 8:00:00 PM 21.72 71.096 0.114 7.15 53.22 8.54
7/14/2021 8:15:00 PM 21.71 71.078 0.114 7.16 43.49 8.53
7/14/2021 8:30:00 PM 21.72 71.096 0.114 7.16 49.2 8.49
7/14/2021 8:45:00 PM 21.73 71.114 0.114 7.15 47.09 8.51
7/14/2021 9:00:00 PM 21.74 71.132 0.115 7.15 44.16 8.5
7/14/2021 9:15:00 PM 21.75 71.15 0.114 7.16 45.2 8.52
7/14/2021 9:30:00 PM 21.76 71.168 0.114 7.16 39.39 8.5
7/14/2021 9:45:00 PM 21.76 71.168 0.113 7.16 43.93 8.49
7/14/2021 10:00:00 PM 21.76 71.168 0.113 7.16 43.09 8.5
7/14/2021 10:15:00 PM 21.74 71.132 0.113 7.16 40.23 8.51
7/14/2021 10:30:00 PM 21.72 71.096 0.113 7.17 41.81 8.52
7/14/2021 10:45:00 PM 21.7 71.06 0.112 7.17 40 8.51
7/14/2021 11:00:00 PM 21.69 71.042 0.113 7.17 37.67 8.5
7/14/2021 11:15:00 PM 21.69 71.042 0.112 7.17 37.75 8.5
7/14/2021 11:30:00 PM 21.7 71.06 0.112 7.17 41.03 8.48
7/14/2021 11:45:00 PM 21.72 71.096 0.113 7.17 39.35 8.5
7/15/2021 12:00:00 AM 21.74 71.132 0.112 7.17 35.89 8.48
7/15/2021 12:15:00 AM 21.76 71.168 0.112 7.18 34.25 8.47
7/15/2021 12:30:00 AM 21.77 71.186 0.113 7.17 32.4 8.44
7/15/2021 12:45:00 AM 21.79 71.222 0.112 7.18 31.52 8.46
7/15/2021 1:00:00 AM 21.81 71.258 0.112 7.18 37.46 8.45
7/15/2021 1:15:00 AM 21.82 71.276 0.113 7.19 49.99 8.44
7/15/2021 1:30:00 AM 21.83 71.294 0.112 7.19 41.83 8.48
7/15/2021 1:45:00 AM 21.84 71.312 0.112 7.2 38.27 8.48
7/15/2021 2:00:00 AM 21.85 71.33 0.112 7.19 35.49 8.46
7/15/2021 2:15:00 AM 21.86 71.348 0.112 7.19 35.86 8.43
7/15/2021 2:30:00 AM 21.86 71.348 0.112 7.19 34.72 8.42
7/15/2021 2:45:00 AM 21.87 71.366 0.112 7.19 35.24 8.43
7/15/2021 3:00:00 AM 21.88 71.384 0.113 7.19 34.45 8.41
7/15/2021 3:15:00 AM 21.89 71.402 0.113 7.2 32.82 8.38
7/15/2021 3:30:00 AM 21.89 71.402 0.113 7.2 33.38 8.4
7/15/2021 3:45:00 AM 21.9 71.42 0.113 7.2 32.53 8.36
7/15/2021 4:00:00 AM 21.9 71.42 0.113 7.21 31.97 8.37
7/15/2021 4:15:00 AM 21.9 71.42 0.113 7.2 32.45 8.37
7/15/2021 4:30:00 AM 21.9 71.42 0.114 7.2 31.8 8.36
7/15/2021 4:45:00 AM 21.89 71.402 0.114 7.2 32.3 8.36
7/15/2021 5:00:00 AM 21.89 71.402 0.114 7.2 32.15 8.35
7/15/2021 5:15:00 AM 21.88 71.384 0.114 7.2 29.92 8.34
7/15/2021 5:30:00 AM 21.88 71.384 0.115 7.2 31.57 8.34
7/15/2021 5:45:00 AM 21.87 71.366 0.115 7.21 30.63 8.33
7/15/2021 6:00:00 AM 21.87 71.366 0.115 7.21 30.7 8.33
7/15/2021 6:15:00 AM 21.87 71.366 0.115 7.21 29.87 8.32
7/15/2021 6:30:00 AM 21.85 71.33 0.116 7.21 30.7 8.33
7/15/2021 6:45:00 AM 21.84 71.312 0.116 7.21 29.41 8.35
7/15/2021 7:00:00 AM 21.83 71.294 0.116 7.21 29.96 8.33
7/15/2021 7:15:00 AM 21.83 71.294 0.116 7.21 29.25 8.33
7/15/2021 7:30:00 AM 21.82 71.276 0.117 7.22 29.49 8.33
7/15/2021 7:45:00 AM 21.82 71.276 0.117 7.22 28.62 8.34
7/15/2021 8:00:00 AM 21.82 71.276 0.118 7.22 28.43 8.33
7/15/2021 8:15:00 AM 21.83 71.294 0.118 7.22 28.51 8.34
7/15/2021 8:30:00 AM 21.83 71.294 0.118 7.22 28.99 8.33
7/15/2021 8:45:00 AM 21.84 71.312 0.119 7.23 28.15 8.34
7/15/2021 9:00:00 AM 21.86 71.348 0.119 7.23 28.02 8.35
7/15/2021 9:15:00 AM 21.89 71.402 0.119 7.22 27.93 8.34
7/15/2021 9:30:00 AM 21.91 71.438 0.12 7.22 26.15 8.32
7/15/2021 9:45:00 AM 21.99 71.582 0.131 7.26 22.85 8.54
7/15/2021 10:00:00 AM 22 71.6 0.128 7.18 18.29 8.57
7/15/2021 10:15:00 AM 22.02 71.636 0.122 7.22 27.68 8.39
7/15/2021 10:30:00 AM 22.08 71.744 0.121 7.23 25.58 8.36
7/15/2021 10:45:00 AM 22.13 71.834 0.122 7.23 26.9 8.36
7/15/2021 11:00:00 AM 22.19 71.942 0.122 7.23 26.06 8.3
7/15/2021 11:15:00 AM 22.25 72.05 0.122 7.24 26.2 8.33
7/15/2021 11:30:00 AM 22.3 72.14 0.122 7.23 25.16 8.34
7/15/2021 11:45:00 AM 22.36 72.248 0.122 7.24 26.12 8.37
7/15/2021 12:00:00 PM 22.38 72.284 0.121 7.24 26.75 8.37
7/15/2021 12:15:00 PM 22.42 72.356 0.121 7.25 25.58 8.36
7/15/2021 12:30:00 PM 22.49 72.482 0.121 7.25 28.44 8.37
7/15/2021 12:45:00 PM 22.55 72.59 0.121 7.25 24.94 8.39
7/15/2021 1:00:00 PM 22.62 72.716 0.121 7.25 24.84 8.39
7/15/2021 1:15:00 PM 22.68 72.824 0.121 7.25 23.22 8.39
7/15/2021 1:30:00 PM 22.75 72.95 0.12 7.25 24.61 8.41
7/15/2021 1:45:00 PM 22.81 73.058 0.121 7.26 23.55 8.38
7/15/2021 2:00:00 PM 22.86 73.148 0.12 7.25 23.99 8.4
7/15/2021 2:15:00 PM 22.88 73.184 0.12 7.25 22.89 8.4
7/15/2021 2:30:00 PM 22.89 73.202 0.12 7.26 23.66 8.44
7/15/2021 2:45:00 PM 22.87 73.166 0.12 7.26 22.26 8.41
7/15/2021 3:00:00 PM 22.84 73.112 0.12 7.27 22.29 8.42
7/15/2021 3:15:00 PM 22.81 73.058 0.12 7.27 22.43 8.42
7/15/2021 3:30:00 PM 22.8 73.04 0.12 7.27 22.2 8.43
7/15/2021 3:45:00 PM 22.76 72.968 0.12 7.27 22.09 8.44
7/15/2021 4:00:00 PM 22.76 72.968 0.12 7.27 22.31 8.45
7/15/2021 4:15:00 PM 22.78 73.004 0.12 7.27 22.02 8.45
7/15/2021 4:30:00 PM 22.86 73.148 0.121 7.27 22.45 8.46
7/15/2021 4:45:00 PM 22.9 73.22 0.121 7.26 20.59 8.45
7/15/2021 5:00:00 PM 22.97 73.346 0.121 7.27 21.12 8.47
7/15/2021 5:15:00 PM 23.02 73.436 0.121 7.28 21.02 8.49
7/15/2021 5:30:00 PM 23.04 73.472 0.121 7.28 21.12 8.49
7/15/2021 5:45:00 PM 23.05 73.49 0.121 7.29 19.79 8.49
7/15/2021 6:00:00 PM 23.07 73.526 0.122 7.28 20.38 8.49
7/15/2021 6:15:00 PM 23.08 73.544 0.122 7.29 19.89 8.49
7/15/2021 6:30:00 PM 23.08 73.544 0.122 7.29 19.93 8.49
7/15/2021 6:45:00 PM 23.08 73.544 0.122 7.29 19.89 8.5
7/15/2021 7:00:00 PM 23.09 73.562 0.122 7.29 19.64 8.51
7/15/2021 7:15:00 PM 23.1 73.58 0.122 7.29 21.13 8.52
7/15/2021 7:30:00 PM 23.12 73.616 0.122 7.29 20.31 8.54
7/15/2021 7:45:00 PM 23.13 73.634 0.122 7.29 32.18 8.51
7/15/2021 8:00:00 PM 23.13 73.634 0.122 7.29 55.12 8.53
7/15/2021 8:15:00 PM 23.13 73.634 0.122 7.29 19.49 8.52
7/15/2021 8:30:00 PM 23.13 73.634 0.122 7.29 18.57 8.52
7/15/2021 8:45:00 PM 23.14 73.652 0.122 7.29 19.09 8.49
7/15/2021 9:00:00 PM 23.14 73.652 0.123 7.29 19.16 8.5
7/15/2021 9:15:00 PM 23.13 73.634 0.122 7.29 17.95 8.49
7/15/2021 9:30:00 PM 23.1 73.58 0.122 7.28 18.58 8.5
7/15/2021 9:45:00 PM 23.09 73.562 0.122 7.28 17.6 8.5
7/15/2021 10:00:00 PM 23.09 73.562 0.122 7.28 17.12 8.49
7/15/2021 10:15:00 PM 23.09 73.562 0.122 7.28 17.43 8.48
7/15/2021 10:30:00 PM 23.09 73.562 0.122 7.28 16.76 8.46
7/15/2021 10:45:00 PM 23.08 73.544 0.122 7.28 17.83 8.45
7/15/2021 11:00:00 PM 23.07 73.526 0.122 7.28 15.44 8.43
7/15/2021 11:15:00 PM 23.05 73.49 0.122 7.27 17.54 8.46
7/15/2021 11:30:00 PM 23.03 73.454 0.122 7.27 17.64 8.42
7/15/2021 11:45:00 PM 23.01 73.418 0.122 7.27 17.88 8.43
7/16/2021 12:00:00 AM 22.99 73.382 0.122 7.27 18.5 8.42
7/16/2021 12:15:00 AM 22.97 73.346 0.122 7.27 17.96 8.42
7/16/2021 12:30:00 AM 22.95 73.31 0.122 7.27 17.64 8.4
7/16/2021 12:45:00 AM 22.93 73.274 0.122 7.27 17.26 8.41
7/16/2021 1:00:00 AM 22.91 73.238 0.122 7.27 16.24 8.39
7/16/2021 1:15:00 AM 22.89 73.202 0.122 7.26 16.63 8.38
7/16/2021 1:30:00 AM 22.87 73.166 0.122 7.26 16.97 8.38
7/16/2021 1:45:00 AM 22.85 73.13 0.122 7.26 17.24 8.38
7/16/2021 2:00:00 AM 22.83 73.094 0.122 7.26 16.19 8.38
7/16/2021 2:15:00 AM 22.81 73.058 0.123 7.26 16.57 8.37
7/16/2021 2:30:00 AM 22.78 73.004 0.123 7.26 17.11 8.37
7/16/2021 2:45:00 AM 22.76 72.968 0.123 7.26 17.13 8.37
7/16/2021 3:00:00 AM 22.72 72.896 0.123 7.26 17.2 8.37
7/16/2021 3:15:00 AM 22.7 72.86 0.123 7.26 17.2 8.38
7/16/2021 3:30:00 AM 22.66 72.788 0.123 7.26 15.95 8.37
7/16/2021 3:45:00 AM 22.64 72.752 0.123 7.26 15.69 8.37
7/16/2021 4:00:00 AM 22.78 73.004 0.137 7.29 12.31 8.63
7/16/2021 4:15:00 AM 22.76 72.968 0.132 7.19 8.81 8.58
7/16/2021 4:30:00 AM 22.56 72.608 0.125 7.23 15.16 8.37
7/16/2021 4:45:00 AM 22.49 72.482 0.124 7.24 17.25 8.34
7/16/2021 5:00:00 AM 22.46 72.42799 0.124 7.25 16.19 8.34
7/16/2021 5:15:00 AM 22.43 72.374 0.124 7.26 15.75 8.36
7/16/2021 5:30:00 AM 22.4 72.32 0.125 7.26 15.23 8.36
7/16/2021 5:45:00 AM 22.38 72.284 0.125 7.25 15.49 8.34
7/16/2021 6:00:00 AM 22.35 72.23 0.126 7.25 15.05 8.36
7/16/2021 6:15:00 AM 22.34 72.212 0.126 7.25 15.26 8.36
7/16/2021 6:30:00 AM 22.32 72.176 0.126 7.25 15.36 8.36
7/16/2021 6:45:00 AM 22.3 72.14 0.127 7.25 14.93 8.32
7/16/2021 7:00:00 AM 22.29 72.122 0.127 7.26 15.15 8.35
7/16/2021 7:15:00 AM 22.28 72.104 0.127 7.26 14.31 8.37
7/16/2021 7:30:00 AM 22.27 72.086 0.128 7.26 14.23 8.36
7/16/2021 7:45:00 AM 22.28 72.104 0.128 7.26 14.89 8.36
7/16/2021 8:00:00 AM 22.29 72.122 0.129 7.26 14.27 8.38
7/16/2021 8:15:00 AM 22.3 72.14 0.129 7.26 13.55 8.38
7/16/2021 8:30:00 AM 22.32 72.176 0.13 7.26 13.27 8.38
7/16/2021 8:45:00 AM 22.52 72.536 0.138 7.26 10.66 8.48
7/16/2021 9:00:00 AM 22.56 72.608 0.136 7.23 8.27 8.59
7/16/2021 9:15:00 AM 22.42 72.356 0.131 7.26 13.59 8.42
7/16/2021 9:30:00 AM 22.45 72.41 0.131 7.27 13.31 8.41
7/16/2021 9:45:00 AM 22.5 72.5 0.132 7.27 12.84 8.43
7/16/2021 10:00:00 AM 22.54 72.57201 0.132 7.27 12.54 8.42
7/16/2021 10:15:00 AM 22.6 72.68 0.132 7.27 12.64 8.42
7/16/2021 10:30:00 AM 22.66 72.788 0.133 7.28 12.23 8.45
7/16/2021 10:45:00 AM 22.71 72.878 0.133 7.28 12.18 8.43
7/16/2021 11:00:00 AM 22.78 73.004 0.134 7.29 12.32 8.47
7/16/2021 11:15:00 AM 22.84 73.112 0.134 7.29 12.31 8.47
7/16/2021 11:30:00 AM 22.91 73.238 0.134 7.3 12.8 8.5
7/16/2021 11:45:00 AM 22.97 73.346 0.134 7.3 11.84 8.51
7/16/2021 12:00:00 PM 23.05 73.49 0.135 7.3 11.7 8.54
7/16/2021 12:15:00 PM 23.1 73.58 0.135 7.31 11.89 8.56
7/16/2021 12:30:00 PM 23.15 73.67 0.135 7.32 11.75 8.57
7/16/2021 12:45:00 PM 23.26 73.868 0.135 7.32 11.92 8.61
7/16/2021 1:00:00 PM 23.28 73.904 0.135 7.33 11.59 8.64
7/16/2021 1:15:00 PM 23.33 73.994 0.135 7.33 11.99 8.62
7/16/2021 1:30:00 PM 23.33 73.994 0.135 7.33 12 8.67
7/16/2021 1:45:00 PM 23.31 73.958 0.136 7.34 12.21 8.66
7/16/2021 2:00:00 PM 23.28 73.904 0.135 7.34 12.1 8.66
7/16/2021 2:15:00 PM 23.26 73.868 0.135 7.35 12.23 8.66
7/16/2021 2:30:00 PM 23.23 73.814 0.135 7.36 12.03 8.65
7/16/2021 2:45:00 PM 23.18 73.724 0.134 7.42 15.08 8.65
7/16/2021 3:00:00 PM 23.12 73.616 0.132 7.45 15.56 8.67
7/16/2021 3:15:00 PM 23.1 73.58 0.132 7.41 14.68 8.65
7/16/2021 3:30:00 PM 23.11 73.598 0.134 7.39 14.1 8.63
7/16/2021 3:45:00 PM 23.13 73.634 0.135 7.38 13.46 8.63
7/16/2021 4:00:00 PM 23.16 73.688 0.136 7.37 13.17 8.63
7/16/2021 4:15:00 PM 23.21 73.778 0.137 7.37 13.01 8.62
7/16/2021 4:30:00 PM 23.28 73.904 0.136 7.37 13.94 8.62
7/16/2021 4:45:00 PM 23.32 73.976 0.138 7.4 15.5 8.67
7/16/2021 5:00:00 PM 23.29 73.922 0.144 7.45 24.86 8.66
7/16/2021 5:15:00 PM 23.32 73.976 0.142 7.47 44.72 8.58
7/16/2021 5:30:00 PM 23.37 74.066 0.139 7.48 50.41 8.54
7/16/2021 5:45:00 PM 23.38 74.084 0.139 7.49 56.49 8.54
7/16/2021 6:00:00 PM 23.4 74.12 0.138 7.49 53 8.55
7/16/2021 6:15:00 PM 23.44 74.192 0.138 7.47 48.45 8.55
7/16/2021 6:30:00 PM 23.46 74.228 0.138 7.45 46.82 8.54
7/16/2021 6:45:00 PM 23.46 74.228 0.138 7.45 44.37 8.56
7/16/2021 7:00:00 PM 23.44 74.192 0.142 7.45 42.79 8.57
7/16/2021 7:15:00 PM 23.37 74.066 0.152 7.49 41.81 8.58
7/16/2021 7:30:00 PM 23.29 73.922 0.16 7.5 49.07 8.54
7/16/2021 7:45:00 PM 23.26 73.868 0.159 7.49 60.59 8.48
7/16/2021 8:00:00 PM 23.28 73.904 0.154 7.48 65.38 8.44
7/16/2021 8:15:00 PM 23.31 73.958 0.15 7.46 66.16 8.41
7/16/2021 8:30:00 PM 23.33 73.994 0.146 7.44 65.49 8.33
7/16/2021 8:45:00 PM 23.34 74.012 0.144 7.43 53.77 8.37
7/16/2021 9:00:00 PM 23.36 74.048 0.142 7.41 56.36 8.33
7/16/2021 9:15:00 PM 23.35 74.03 0.141 7.4 52.54 8.33
7/16/2021 9:30:00 PM 23.34 74.012 0.14 7.39 44.82 8.32
7/16/2021 9:45:00 PM 23.33 73.994 0.14 7.38 42.22 8.3
7/16/2021 10:00:00 PM 23.3 73.94 0.141 7.37 41.18 8.3
7/16/2021 10:15:00 PM 23.29 73.922 0.141 7.37 40.33 8.28
7/16/2021 10:30:00 PM 23.29 73.922 0.142 7.36 38.93 8.27
7/16/2021 10:45:00 PM 23.29 73.922 0.142 7.37 37.91 8.27
7/16/2021 11:00:00 PM 23.29 73.922 0.143 7.37 35.2 8.22
7/16/2021 11:15:00 PM 23.3 73.94 0.144 7.36 33.35 8.25
7/16/2021 11:30:00 PM 23.3 73.94 0.144 7.37 38.76 8.24
7/16/2021 11:45:00 PM 23.3 73.94 0.145 7.36 37.97 8.19
7/17/2021 12:00:00 AM 23.31 73.958 0.145 7.36 30.8 8.22
7/17/2021 12:15:00 AM 23.32 73.976 0.145 7.36 34.82 8.21
7/17/2021 12:30:00 AM 23.32 73.976 0.145 7.36 32.51 8.21
7/17/2021 12:45:00 AM 23.32 73.976 0.146 7.36 33.96 8.2
7/17/2021 1:00:00 AM 23.31 73.958 0.146 7.36 32.64 8.15
7/17/2021 1:15:00 AM 23.31 73.958 0.147 7.36 31.83 8.19
7/17/2021 1:30:00 AM 23.29 73.922 0.148 7.36 28.39 8.16
7/17/2021 1:45:00 AM 23.27 73.886 0.148 7.37 32.91 8.17
7/17/2021 2:00:00 AM 23.25 73.85 0.148 7.37 28.87 8.18
7/17/2021 2:15:00 AM 23.23 73.814 0.149 7.37 30.74 8.15
7/17/2021 2:30:00 AM 23.22 73.796 0.149 7.37 28.92 8.16
7/17/2021 2:45:00 AM 23.21 73.778 0.149 7.37 27.31 8.13
7/17/2021 3:00:00 AM 23.2 73.76 0.148 7.37 27.77 8.13
7/17/2021 3:15:00 AM 23.18 73.724 0.148 7.37 26.58 8.15
7/17/2021 3:30:00 AM 23.17 73.706 0.147 7.36 23.54 8.17
7/17/2021 3:45:00 AM 23.14 73.652 0.147 7.36 25.25 8.15
7/17/2021 4:00:00 AM 23.13 73.634 0.147 7.36 21.96 8.16
7/17/2021 4:15:00 AM 23.1 73.58 0.146 7.36 22.42 8.15
7/17/2021 4:30:00 AM 23.07 73.526 0.146 7.37 21.85 8.16
7/17/2021 4:45:00 AM 23.03 73.454 0.146 7.37 20.26 8.16
7/17/2021 5:00:00 AM 22.98 73.364 0.146 7.37 19.65 8.16
7/17/2021 5:15:00 AM 22.94 73.292 0.145 7.37 20.1 8.16
7/17/2021 5:30:00 AM 22.9 73.22 0.144 7.37 22.8 8.14
7/17/2021 5:45:00 AM 22.87 73.166 0.143 7.36 22.24 8.14
7/17/2021 6:00:00 AM 22.84 73.112 0.143 7.35 23.04 8.11
7/17/2021 6:15:00 AM 22.81 73.058 0.142 7.34 22.61 8.11
7/17/2021 6:30:00 AM 22.78 73.004 0.141 7.34 23.62 8.11
7/17/2021 6:45:00 AM 22.76 72.968 0.141 7.34 23.96 8.1
7/17/2021 7:00:00 AM 22.74 72.932 0.14 7.33 21.69 8.09
7/17/2021 7:15:00 AM 22.71 72.878 0.14 7.33 20.45 8.09
7/17/2021 7:30:00 AM 22.69 72.842 0.139 7.33 21.23 8.09
7/17/2021 7:45:00 AM 22.67 72.806 0.139 7.32 20.71 8.11
7/17/2021 8:00:00 AM 22.66 72.788 0.139 7.32 17.99 8.12
7/17/2021 8:15:00 AM 22.63 72.734 0.138 7.32 18.08 8.12
7/17/2021 8:30:00 AM 22.61 72.698 0.138 7.31 18.46 8.13
7/17/2021 8:45:00 AM 22.6 72.68 0.138 7.31 16.32 8.14
7/17/2021 9:00:00 AM 22.69 72.842 0.145 7.32 17.28 8.24
7/17/2021 9:15:00 AM 22.84 73.112 0.146 7.28 10.84 8.32
7/17/2021 9:30:00 AM 22.69 72.842 0.141 7.3 15.9 8.26
7/17/2021 9:45:00 AM 22.62 72.716 0.138 7.31 15.44 8.23
7/17/2021 10:00:00 AM 22.63 72.734 0.138 7.31 17 8.23
7/17/2021 10:15:00 AM 22.64 72.752 0.137 7.31 15.47 8.25
7/17/2021 10:30:00 AM 22.63 72.734 0.136 7.32 14.19 8.27
7/17/2021 10:45:00 AM 22.63 72.734 0.134 7.29 15.88 8.22
7/17/2021 11:00:00 AM 22.62 72.716 0.131 7.31 16.36 8.3
7/17/2021 11:15:00 AM 22.6 72.68 0.128 7.31 15.63 8.31
7/17/2021 11:30:00 AM 22.57 72.626 0.126 7.3 15.63 8.34
7/17/2021 11:45:00 AM 22.53 72.554 0.124 7.3 15.25 8.33
7/17/2021 12:00:00 PM 22.49 72.482 0.123 7.3 16.59 8.33
7/17/2021 12:15:00 PM 22.46 72.42799 0.121 7.29 15.25 8.32
7/17/2021 12:30:00 PM 22.41 72.338 0.12 7.28 27.8 8.3
7/17/2021 12:45:00 PM 22.4 72.32 0.119 7.27 37.16 8.29
7/17/2021 1:00:00 PM 22.42 72.356 0.118 7.25 57.23 8.27
7/17/2021 1:15:00 PM 22.46 72.42799 0.117 7.24 72.6 8.27
7/17/2021 1:30:00 PM 22.51 72.518 0.117 7.23 96.29 8.27
7/17/2021 1:45:00 PM 22.55 72.59 0.117 7.23 94.93 8.27
7/17/2021 2:00:00 PM 22.6 72.68 0.117 7.22 110.53 8.24
7/17/2021 2:15:00 PM 22.65 72.77 0.117 7.22 118.34 8.24
7/17/2021 2:30:00 PM 22.7 72.86 0.117 7.22 123.91 8.23
7/17/2021 2:45:00 PM 22.75 72.95 0.118 7.22 129.41 8.22
7/17/2021 3:00:00 PM 22.8 73.04 0.118 7.22 124.71 8.23
7/17/2021 3:15:00 PM 22.85 73.13 0.118 7.21 116.14 8.22
7/17/2021 3:30:00 PM 22.91 73.238 0.119 7.22 125.67 8.2
7/17/2021 3:45:00 PM 22.98 73.364 0.119 7.21 115.06 8.21
7/17/2021 4:00:00 PM 23.03 73.454 0.119 7.22 112.33 8.22
7/17/2021 4:15:00 PM 23.05 73.49 0.119 7.21 106.37 8.22
7/17/2021 4:30:00 PM 23.07 73.526 0.12 7.23 111.27 8.22
7/17/2021 4:45:00 PM 23.08 73.544 0.119 7.22 95.94 8.24
7/17/2021 5:00:00 PM 23.07 73.526 0.119 7.23 94.38 8.25
7/17/2021 5:15:00 PM 23.03 73.454 0.119 7.24 88.06 8.28
7/17/2021 5:30:00 PM 23 73.4 0.119 7.26 91.16 8.29
7/17/2021 5:45:00 PM 22.97 73.346 0.118 7.31 74.89 8.3
7/17/2021 6:00:00 PM 22.93 73.274 0.118 7.28 103.29 8.25
7/17/2021 6:15:00 PM 22.89 73.202 0.117 7.26 90.34 8.3
7/17/2021 6:30:00 PM 22.87 73.166 0.117 7.26 83.15 8.3
7/17/2021 6:45:00 PM 22.85 73.13 0.117 7.26 82.46 8.29
7/17/2021 7:00:00 PM 22.82 73.076 0.117 7.26 70.84 8.31
7/17/2021 7:15:00 PM 22.77 72.986 0.116 7.26 67.22 8.31
7/17/2021 7:30:00 PM 22.72 72.896 0.117 7.25 70.33 8.31
7/17/2021 7:45:00 PM 22.67 72.806 0.118 7.26 67.56 8.32
7/17/2021 8:00:00 PM 22.62 72.716 0.12 7.27 69.55 8.31
7/17/2021 8:15:00 PM 22.57 72.626 0.12 7.27 72.05 8.3
7/17/2021 8:30:00 PM 22.55 72.59 0.118 7.27 75.51 8.3
7/17/2021 8:45:00 PM 22.52 72.536 0.118 7.27 74.53 8.29
7/17/2021 9:00:00 PM 22.5 72.5 0.118 7.27 67.04 8.3
7/17/2021 9:15:00 PM 22.49 72.482 0.118 7.26 63.49 8.29
7/17/2021 9:30:00 PM 22.47 72.446 0.118 7.25 56.21 8.29
7/17/2021 9:45:00 PM 22.46 72.42799 0.119 7.26 62.64 8.28
7/17/2021 10:00:00 PM 22.46 72.42799 0.12 7.26 68.35 8.23
7/17/2021 10:15:00 PM 22.46 72.42799 0.12 7.25 69.19 8.19
7/17/2021 10:30:00 PM 22.47 72.446 0.12 7.25 68.91 8.19
7/17/2021 10:45:00 PM 22.49 72.482 0.121 7.25 56 8.24
7/17/2021 11:00:00 PM 22.5 72.5 0.122 7.25 56.55 8.21
7/17/2021 11:15:00 PM 22.52 72.536 0.122 7.25 53.57 8.2
7/17/2021 11:30:00 PM 22.54 72.57201 0.123 7.26 53.04 8.19
7/17/2021 11:45:00 PM 22.55 72.59 0.124 7.26 55.18 8.19
7/18/2021 12:00:00 AM 22.56 72.608 0.124 7.26 54.53 8.19
7/18/2021 12:15:00 AM 22.56 72.608 0.125 7.26 53.66 8.22
7/18/2021 12:30:00 AM 22.57 72.626 0.126 7.27 51.73 8.14
7/18/2021 12:45:00 AM 22.91 73.238 0.141 7.22 28.45 8.25
7/18/2021 1:00:00 AM 22.73 72.914 0.135 7.19 30.71 8.28
7/18/2021 1:15:00 AM 22.58 72.644 0.128 7.27 53.56 8.24
7/18/2021 1:30:00 AM 22.57 72.626 0.128 7.29 51.34 8.28
7/18/2021 1:45:00 AM 22.57 72.626 0.128 7.29 45.32 8.29
7/18/2021 2:00:00 AM 22.56 72.608 0.128 7.29 39.45 8.28
7/18/2021 2:15:00 AM 22.56 72.608 0.128 7.29 40.44 8.3
7/18/2021 2:30:00 AM 22.55 72.59 0.128 7.29 38.22 8.29
7/18/2021 2:45:00 AM 22.54 72.57201 0.128 7.29 35.71 8.29
7/18/2021 3:00:00 AM 22.54 72.57201 0.127 7.3 32.31 8.29
7/18/2021 3:15:00 AM 22.53 72.554 0.128 7.29 32.67 8.29
7/18/2021 3:30:00 AM 22.51 72.518 0.128 7.29 28.25 8.29
7/18/2021 3:45:00 AM 22.5 72.5 0.127 7.3 29.5 8.3
7/18/2021 4:00:00 AM 22.49 72.482 0.127 7.29 27.6 8.3
7/18/2021 4:15:00 AM 22.47 72.446 0.128 7.29 24.02 8.3
7/18/2021 4:30:00 AM 22.45 72.41 0.128 7.3 23.34 8.28
7/18/2021 4:45:00 AM 22.44 72.392 0.128 7.29 23.12 8.28
7/18/2021 5:00:00 AM 22.41 72.338 0.128 7.3 23.78 8.28
7/18/2021 5:15:00 AM 22.38 72.284 0.128 7.29 21.82 8.29
7/18/2021 5:30:00 AM 22.34 72.212 0.128 7.3 22.44 8.28
7/18/2021 5:45:00 AM 22.3 72.14 0.128 7.3 21.92 8.3
7/18/2021 6:00:00 AM 22.25 72.05 0.128 7.29 22.66 8.27
7/18/2021 6:15:00 AM 22.2 71.96 0.127 7.29 20.91 8.29
7/18/2021 6:30:00 AM 22.14 71.852 0.127 7.3 23.55 8.3
7/18/2021 6:45:00 AM 22.1 71.78 0.127 7.3 26.19 8.32
7/18/2021 7:00:00 AM 22.07 71.726 0.127 7.3 28.39 8.28
7/18/2021 7:15:00 AM 22.05 71.69 0.126 7.29 39.44 8.31
7/18/2021 7:30:00 AM 22.03 71.654 0.126 7.3 45.74 8.31
7/18/2021 7:45:00 AM 22.01 71.618 0.126 7.3 56.65 8.31
7/18/2021 8:00:00 AM 21.98 71.564 0.126 7.31 66.86 8.32
7/18/2021 8:15:00 AM 21.95 71.51 0.126 7.32 69.4 8.31
7/18/2021 8:30:00 AM 21.92 71.456 0.126 7.33 75.54 8.31
7/18/2021 8:45:00 AM 21.89 71.402 0.126 7.32 74.84 8.32
7/18/2021 9:00:00 AM 21.84 71.312 0.125 7.33 78.16 8.34
7/18/2021 9:15:00 AM 21.82 71.276 0.125 7.33 72.91 8.35
7/18/2021 9:30:00 AM 21.79 71.222 0.124 7.33 66.04 8.35
7/18/2021 9:45:00 AM 21.76 71.168 0.124 7.32 71.57 8.36
7/18/2021 10:00:00 AM 21.73 71.114 0.123 7.31 62.83 8.37
7/18/2021 10:15:00 AM 21.71 71.078 0.123 7.31 53.67 8.39
7/18/2021 10:30:00 AM 21.71 71.078 0.123 7.31 57.18 8.4
7/18/2021 10:45:00 AM 21.69 71.042 0.122 7.3 57.95 8.41
7/18/2021 11:00:00 AM 21.68 71.024 0.122 7.3 52.72 8.41
7/18/2021 11:15:00 AM 21.67 71.006 0.122 7.3 55.03 8.41
7/18/2021 11:30:00 AM 21.66 70.988 0.122 7.29 49.95 8.42
7/18/2021 11:45:00 AM 21.66 70.988 0.121 7.29 48.27 8.42
7/18/2021 12:00:00 PM 21.64 70.952 0.121 7.29 47.88 8.43
7/18/2021 12:15:00 PM 21.63 70.934 0.12 7.29 51.69 8.45
7/18/2021 12:30:00 PM 21.62 70.916 0.12 7.28 48.02 8.45
7/18/2021 12:45:00 PM 21.61 70.898 0.12 7.28 41.24 8.44
7/18/2021 1:00:00 PM 21.61 70.898 0.12 7.28 39.04 8.43
7/18/2021 1:15:00 PM 21.59 70.862 0.12 7.28 41.97 8.42
7/18/2021 1:30:00 PM 21.57 70.826 0.12 7.28 38.57 8.44
7/18/2021 1:45:00 PM 21.56 70.808 0.12 7.28 39.46 8.45
7/18/2021 2:00:00 PM 21.52 70.736 0.12 7.29 31.95 8.48
7/18/2021 2:15:00 PM 21.5 70.7 0.119 7.28 34.15 8.47
7/18/2021 2:30:00 PM 21.47 70.646 0.12 7.27 29.74 8.44
7/18/2021 2:45:00 PM 21.45 70.61 0.118 7.27 29.45 8.5
7/18/2021 3:00:00 PM 21.43 70.574 0.117 7.27 26.33 8.5
7/18/2021 3:15:00 PM 21.41 70.538 0.116 7.27 25.64 8.5
7/18/2021 3:30:00 PM 21.39 70.502 0.115 7.27 27.09 8.51
7/18/2021 3:45:00 PM 21.37 70.466 0.114 7.27 29.01 8.53
7/18/2021 4:00:00 PM 21.34 70.412 0.114 7.27 30.26 8.53
7/18/2021 4:15:00 PM 21.3 70.34 0.113 7.27 32.08 8.56
7/18/2021 4:30:00 PM 21.29 70.32201 0.113 7.24 30.9 8.52
7/18/2021 4:45:00 PM 21.98 71.564 0.137 7.23 22.32 8.42
7/18/2021 5:00:00 PM 21.93 71.474 0.132 7.19 16.58 8.52
7/18/2021 5:15:00 PM 21.38 70.484 0.114 7.25 35.98 8.62
7/18/2021 5:30:00 PM 21.28 70.304 0.11 7.25 38.69 8.62
7/18/2021 5:45:00 PM 21.26 70.268 0.11 7.26 41.15 8.63
7/18/2021 6:00:00 PM 21.26 70.268 0.11 7.24 37.87 8.62
7/18/2021 6:15:00 PM 21.26 70.268 0.11 7.26 36.28 8.63
7/18/2021 6:30:00 PM 21.25 70.25 0.11 7.25 34.25 8.64
7/18/2021 6:45:00 PM 21.22 70.196 0.111 7.24 36.08 8.58
7/18/2021 7:00:00 PM 21.22 70.196 0.109 7.25 40.26 8.65
7/18/2021 7:15:00 PM 21.21 70.17799 0.109 7.24 37.73 8.65
7/18/2021 7:30:00 PM 21.18 70.124 0.109 7.25 35.73 8.65
7/18/2021 7:45:00 PM 21.15 70.07 0.109 7.25 35.85 8.64
7/18/2021 8:00:00 PM 21.13 70.034 0.109 7.25 33.12 8.67
7/18/2021 8:15:00 PM 21.1 69.98 0.11 7.24 31.34 8.64
7/18/2021 8:30:00 PM 21.08 69.944 0.11 7.24 32.27 8.65
7/18/2021 8:45:00 PM 21.05 69.89 0.11 7.25 31.2 8.64
7/18/2021 9:00:00 PM 21.02 69.836 0.111 7.26 29.27 8.64
7/18/2021 9:15:00 PM 20.98 69.764 0.11 7.25 29.64 8.65
7/18/2021 9:30:00 PM 20.95 69.71 0.111 7.25 24.51 8.65
7/18/2021 9:45:00 PM 20.93 69.674 0.112 7.24 25.02 8.58
7/18/2021 10:00:00 PM 20.89 69.602 0.111 7.25 30.33 8.68
7/18/2021 10:15:00 PM 20.86 69.548 0.111 7.25 31.78 8.71
7/18/2021 10:30:00 PM 20.83 69.494 0.112 7.26 28.15 8.7
7/18/2021 10:45:00 PM 20.81 69.458 0.112 7.26 23.99 8.7
7/18/2021 11:00:00 PM 20.79 69.422 0.112 7.26 24.6 8.71
7/18/2021 11:15:00 PM 20.78 69.404 0.112 7.26 21.18 8.73
7/18/2021 11:30:00 PM 20.77 69.386 0.112 7.26 24.04 8.72
7/18/2021 11:45:00 PM 20.75 69.35 0.112 7.26 23.09 8.72
7/19/2021 12:00:00 AM 20.74 69.332 0.112 7.26 23.49 8.72
7/19/2021 12:15:00 AM 20.74 69.332 0.113 7.27 22.7 8.73
7/19/2021 12:30:00 AM 20.74 69.332 0.113 7.27 19.8 8.73
7/19/2021 12:45:00 AM 20.74 69.332 0.113 7.26 20.93 8.72
7/19/2021 1:00:00 AM 20.74 69.332 0.113 7.27 21.17 8.74
7/19/2021 1:15:00 AM 20.73 69.314 0.114 7.26 21.52 8.68
7/19/2021 1:30:00 AM 20.73 69.314 0.114 7.27 21.4 8.71
7/19/2021 1:45:00 AM 20.72 69.296 0.114 7.28 19.66 8.75
7/19/2021 2:00:00 AM 20.71 69.278 0.114 7.26 18.94 8.72
7/19/2021 2:15:00 AM 20.7 69.26 0.114 7.28 19.48 8.71
7/19/2021 2:30:00 AM 20.69 69.242 0.115 7.25 20.94 8.64
7/19/2021 2:45:00 AM 20.98 69.764 0.125 7.29 20.76 8.84
7/19/2021 3:00:00 AM 21.09 69.962 0.128 7.18 12.38 8.66
7/19/2021 3:15:00 AM 20.77 69.386 0.118 7.24 18.3 8.83
7/19/2021 3:30:00 AM 20.64 69.152 0.115 7.27 21.92 8.75
7/19/2021 3:45:00 AM 20.61 69.098 0.115 7.27 23.76 8.76
7/19/2021 4:00:00 AM 20.59 69.062 0.116 7.27 25.35 8.75
7/19/2021 4:15:00 AM 20.58 69.044 0.116 7.27 22.36 8.76
7/19/2021 4:30:00 AM 20.56 69.008 0.116 7.27 21 8.75
7/19/2021 4:45:00 AM 20.54 68.972 0.117 7.28 21.76 8.73
7/19/2021 5:00:00 AM 20.53 68.954 0.117 7.27 21.29 8.74
7/19/2021 5:15:00 AM 20.51 68.918 0.117 7.28 20.6 8.74
7/19/2021 5:30:00 AM 20.52 68.936 0.118 7.27 40.13 8.74
7/19/2021 5:45:00 AM 20.48 68.864 0.118 7.27 24.77 8.75
7/19/2021 6:00:00 AM 20.46 68.828 0.118 7.27 23.12 8.75
7/19/2021 6:15:00 AM 20.45 68.81 0.118 7.27 28.26 8.75
7/19/2021 6:30:00 AM 20.44 68.792 0.119 7.27 22.43 8.74
7/19/2021 6:45:00 AM 20.43 68.774 0.119 7.27 22.4 8.74
7/19/2021 7:00:00 AM 20.42 68.756 0.119 7.27 21.47 8.75
7/19/2021 7:15:00 AM 20.43 68.774 0.12 7.28 22.95 8.74
7/19/2021 7:30:00 AM 20.44 68.792 0.12 7.28 21.41 8.75
7/19/2021 7:45:00 AM 20.44 68.792 0.12 7.28 21.56 8.76
7/19/2021 8:00:00 AM 20.46 68.828 0.121 7.28 21.16 8.75
7/19/2021 8:15:00 AM 20.47 68.846 0.121 7.28 21.32 8.75
7/19/2021 8:30:00 AM 20.49 68.882 0.121 7.28 22.6 8.75
7/19/2021 8:45:00 AM 20.52 68.936 0.122 7.27 21.15 8.73
7/19/2021 9:00:00 AM 20.55 68.99 0.122 7.27 21.37 8.72
7/19/2021 9:15:00 AM 20.58 69.044 0.122 7.28 21.51 8.75
7/19/2021 9:30:00 AM 20.6 69.08 0.122 7.27 19.07 8.74
7/19/2021 9:45:00 AM 20.64 69.152 0.123 7.28 20.6 8.76
7/19/2021 10:00:00 AM 20.67 69.206 0.123 7.28 17.73 8.75
7/19/2021 10:15:00 AM 20.7 69.26 0.123 7.28 20.49 8.76
7/19/2021 10:30:00 AM 21.06 69.908 0.134 7.24 9.33 8.72
7/19/2021 10:45:00 AM 20.85 69.53 0.126 7.25 16.48 8.85
7/19/2021 11:00:00 AM 20.82 69.476 0.123 7.28 20.76 8.78
7/19/2021 11:15:00 AM 20.84 69.512 0.123 7.28 17.36 8.77
7/19/2021 11:30:00 AM 20.87 69.566 0.123 7.27 13.53 8.74
7/19/2021 11:45:00 AM 20.9 69.62 0.123 7.27 15.44 8.73
7/19/2021 12:00:00 PM 20.94 69.692 0.123 7.27 14.61 8.71
7/19/2021 12:15:00 PM 20.98 69.764 0.123 7.27 13.35 8.66
7/19/2021 12:30:00 PM 21.01 69.818 0.123 7.25 13.97 8.64
7/19/2021 12:45:00 PM 21.04 69.872 0.123 7.26 14.46 8.67
7/19/2021 1:00:00 PM 21.06 69.908 0.123 7.26 13.94 8.68
7/19/2021 1:15:00 PM 21.09 69.962 0.123 7.27 14.34 8.71
7/19/2021 1:30:00 PM 21.11 69.998 0.122 7.27 15.24 8.71
7/19/2021 1:45:00 PM 21.13 70.034 0.122 7.27 12.86 8.7
7/19/2021 2:00:00 PM 21.14 70.052 0.121 7.27 13.66 8.72
7/19/2021 2:15:00 PM 21.13 70.034 0.121 7.27 14.46 8.76
7/19/2021 2:30:00 PM 21.12 70.016 0.12 7.28 14.77 8.75
7/19/2021 2:45:00 PM 21.11 69.998 0.119 7.28 22.57 8.77
7/19/2021 3:00:00 PM 21.09 69.962 0.119 7.28 23.53 8.82
7/19/2021 3:15:00 PM 21.09 69.962 0.118 7.28 19.52 8.81
7/19/2021 3:30:00 PM 21.1 69.98 0.118 7.27 20.86 8.82
7/19/2021 3:45:00 PM 21.1 69.98 0.117 7.27 18.64 8.81
7/19/2021 4:00:00 PM 21.07 69.926 0.117 7.28 17.97 8.81
7/19/2021 4:15:00 PM 21.07 69.926 0.116 7.28 19.47 8.81
7/19/2021 4:30:00 PM 21.05 69.89 0.116 7.28 18.85 8.81
7/19/2021 4:45:00 PM 21.04 69.872 0.115 7.27 23.85 8.81
7/19/2021 5:00:00 PM 21.03 69.854 0.115 7.26 21.71 8.81
7/19/2021 5:15:00 PM 21.02 69.836 0.114 7.25 21.49 8.79
7/19/2021 5:30:00 PM 21.02 69.836 0.114 7.26 19.55 8.81
7/19/2021 5:45:00 PM 21.02 69.836 0.114 7.25 22.83 8.79
7/19/2021 6:00:00 PM 20.99 69.782 0.113 7.25 21.15 8.8
7/19/2021 6:15:00 PM 20.97 69.746 0.113 7.25 21.43 8.78
7/19/2021 6:30:00 PM 20.95 69.71 0.112 7.26 23.73 8.8
7/19/2021 6:45:00 PM 20.94 69.692 0.112 7.25 24.67 8.78
7/19/2021 7:00:00 PM 20.93 69.674 0.112 7.24 24.14 8.75
7/19/2021 7:15:00 PM 20.92 69.656 0.112 7.25 25.07 8.81
7/19/2021 7:30:00 PM 20.89 69.602 0.111 7.25 24.23 8.79
7/19/2021 7:45:00 PM 20.88 69.584 0.111 7.25 24.73 8.79
7/19/2021 8:00:00 PM 20.86 69.548 0.111 7.25 23.64 8.78
7/19/2021 8:15:00 PM 20.85 69.53 0.111 7.23 22.81 8.75
7/19/2021 8:30:00 PM 20.84 69.512 0.11 7.23 19.19 8.77
7/19/2021 8:45:00 PM 20.82 69.476 0.11 7.22 28.88 8.72
7/19/2021 9:00:00 PM 20.8 69.44 0.11 7.21 26.64 8.71
7/19/2021 9:15:00 PM 20.77 69.386 0.109 7.24 30.92 8.77
7/19/2021 9:30:00 PM 20.74 69.332 0.109 7.23 33.94 8.79
7/19/2021 9:45:00 PM 20.74 69.332 0.109 7.23 33.63 8.78
7/19/2021 10:00:00 PM 20.72 69.296 0.109 7.22 30.62 8.78
7/19/2021 10:15:00 PM 20.71 69.278 0.109 7.23 52.9 8.77
7/19/2021 10:30:00 PM 20.7 69.26 0.109 7.22 32.62 8.77
7/19/2021 10:45:00 PM 20.68 69.224 0.108 7.22 28.9 8.75
7/19/2021 11:00:00 PM 20.66 69.188 0.108 7.21 31.9 8.76
7/19/2021 11:15:00 PM 20.64 69.152 0.108 7.23 32.33 8.78
7/19/2021 11:30:00 PM 20.63 69.134 0.108 7.22 31.07 8.76
7/19/2021 11:45:00 PM 20.62 69.116 0.108 7.21 33.03 8.76
7/20/2021 12:00:00 AM 20.61 69.098 0.108 7.22 31.08 8.78
7/20/2021 12:15:00 AM 20.6 69.08 0.108 7.21 28.76 8.77
7/20/2021 12:30:00 AM 20.6 69.08 0.108 7.2 27.73 8.71
7/20/2021 12:45:00 AM 20.58 69.044 0.108 7.22 31.29 8.78
7/20/2021 1:00:00 AM 20.57 69.026 0.108 7.22 32.55 8.78
7/20/2021 1:15:00 AM 20.55 68.99 0.108 7.22 31.39 8.76
7/20/2021 1:30:00 AM 20.54 68.972 0.108 7.21 30.7 8.77
7/20/2021 1:45:00 AM 20.53 68.954 0.108 7.22 28.52 8.78
7/20/2021 2:00:00 AM 20.52 68.936 0.108 7.19 30.74 8.73
7/20/2021 2:15:00 AM 20.5 68.9 0.108 7.21 27.95 8.77
7/20/2021 2:30:00 AM 20.49 68.882 0.107 7.22 26.38 8.79
7/20/2021 2:45:00 AM 20.47 68.846 0.107 7.21 24.85 8.78
7/20/2021 3:00:00 AM 20.45 68.81 0.107 7.21 26.45 8.79
7/20/2021 3:15:00 AM 20.43 68.774 0.107 7.21 23.2 8.8
7/20/2021 3:30:00 AM 20.4 68.72 0.107 7.21 25.85 8.79
7/20/2021 3:45:00 AM 20.75 69.35 0.122 7.2 15.97 8.83
7/20/2021 4:00:00 AM 20.59 69.062 0.117 7.14 13.43 8.85
7/20/2021 4:15:00 AM 20.36 68.648 0.107 7.21 28.71 8.81
7/20/2021 4:30:00 AM 20.32 68.576 0.107 7.21 28.14 8.81
7/20/2021 4:45:00 AM 20.31 68.558 0.107 7.21 24.35 8.82
7/20/2021 5:00:00 AM 20.29 68.522 0.107 7.21 24.34 8.81
7/20/2021 5:15:00 AM 20.27 68.486 0.107 7.21 24.25 8.82
7/20/2021 5:30:00 AM 20.24 68.432 0.107 7.21 21.46 8.82
7/20/2021 5:45:00 AM 20.22 68.396 0.106 7.21 24.09 8.83
7/20/2021 6:00:00 AM 20.19 68.342 0.106 7.21 23.75 8.81
7/20/2021 6:15:00 AM 20.16 68.288 0.106 7.21 25.98 8.82
7/20/2021 6:30:00 AM 20.14 68.252 0.106 7.21 19.77 8.83
7/20/2021 6:45:00 AM 20.11 68.198 0.106 7.21 21.63 8.83
7/20/2021 7:00:00 AM 20.09 68.162 0.106 7.2 19.75 8.83
7/20/2021 7:15:00 AM 20.06 68.108 0.106 7.21 19.13 8.83
7/20/2021 7:30:00 AM 20.04 68.07201 0.106 7.22 20.36 8.83
7/20/2021 7:45:00 AM 20.02 68.036 0.106 7.21 18.99 8.85
7/20/2021 8:00:00 AM 20 68 0.106 7.21 19.06 8.84
7/20/2021 8:15:00 AM 19.99 67.982 0.106 7.2 17.03 8.84
7/20/2021 8:30:00 AM 19.99 67.982 0.106 7.21 17.57 8.87
7/20/2021 8:45:00 AM 19.98 67.964 0.106 7.2 17.13 8.85
7/20/2021 9:00:00 AM 19.98 67.964 0.105 7.2 17.7 8.88
7/20/2021 9:15:00 AM 19.98 67.964 0.106 7.21 17.49 8.85
7/20/2021 9:30:00 AM 19.98 67.964 0.105 7.21 18.63 8.85
7/20/2021 9:45:00 AM 19.98 67.964 0.105 7.22 15.67 8.89
7/20/2021 10:00:00 AM 19.99 67.982 0.105 7.21 16.18 8.86
7/20/2021 10:15:00 AM 20.01 68.018 0.105 7.22 15 8.86
7/20/2021 10:30:00 AM 20.03 68.054 0.105 7.19 13.98 8.85
7/20/2021 10:45:00 AM 20.05 68.09 0.105 7.21 15.64 8.83
7/20/2021 11:00:00 AM 20.08 68.144 0.105 7.19 17.07 8.86
7/20/2021 11:15:00 AM 20.11 68.198 0.105 7.2 15.57 8.87
7/20/2021 11:30:00 AM 20.14 68.252 0.106 7.2 12.58 8.86
7/20/2021 11:45:00 AM 20.18 68.324 0.104 7.22 15.02 8.91
7/20/2021 12:00:00 PM 20.22 68.396 0.104 7.22 15.05 8.94
7/20/2021 12:15:00 PM 20.26 68.468 0.104 7.2 15.55 8.89
7/20/2021 12:30:00 PM 20.29 68.522 0.104 7.2 12.7 8.89
7/20/2021 12:45:00 PM 20.34 68.612 0.104 7.22 13.46 8.85
7/20/2021 1:00:00 PM 20.38 68.684 0.105 7.2 13.72 8.87
7/20/2021 1:15:00 PM 20.44 68.792 0.104 7.22 13.81 8.95
7/20/2021 1:30:00 PM 20.49 68.882 0.103 7.22 14.73 8.95
7/20/2021 1:45:00 PM 20.54 68.972 0.104 7.22 14.09 8.93
7/20/2021 2:00:00 PM 20.58 69.044 0.103 7.22 14.52 8.88
7/20/2021 2:15:00 PM 20.63 69.134 0.103 7.23 14.19 8.95
7/20/2021 2:30:00 PM 20.67 69.206 0.103 7.23 14.29 8.95
7/20/2021 2:45:00 PM 20.71 69.278 0.104 7.23 14.27 8.97
7/20/2021 3:00:00 PM 20.74 69.332 0.104 7.22 13.91 8.97
7/20/2021 3:15:00 PM 20.79 69.422 0.103 7.25 13.83 8.99
7/20/2021 3:30:00 PM 20.83 69.494 0.103 7.24 13.02 8.98
7/20/2021 3:45:00 PM 20.88 69.584 0.102 7.24 14.02 8.98
7/20/2021 4:00:00 PM 20.92 69.656 0.102 7.25 14.27 8.98
7/20/2021 4:15:00 PM 20.95 69.71 0.102 7.24 14.88 8.98
7/20/2021 4:30:00 PM 20.97 69.746 0.102 7.25 12.96 8.99
7/20/2021 4:45:00 PM 21 69.8 0.102 7.26 13.6 9.01
7/20/2021 5:00:00 PM 21.01 69.818 0.102 7.26 11.43 8.99
7/20/2021 5:15:00 PM 21.01 69.818 0.102 7.26 13.05 8.99
7/20/2021 5:30:00 PM 21.01 69.818 0.102 7.26 11.06 8.99
7/20/2021 5:45:00 PM 21.01 69.818 0.102 7.25 14.96 8.98
7/20/2021 6:00:00 PM 21.01 69.818 0.102 7.25 13.46 9
7/20/2021 6:15:00 PM 21.01 69.818 0.102 7.25 12.46 8.99
7/20/2021 6:30:00 PM 21 69.8 0.102 7.25 12.74 9
7/20/2021 6:45:00 PM 21 69.8 0.102 7.25 12.42 8.99
7/20/2021 7:00:00 PM 21 69.8 0.101 7.25 13.55 8.99
7/20/2021 7:15:00 PM 21 69.8 0.101 7.25 14.24 9
7/20/2021 7:30:00 PM 20.99 69.782 0.101 7.25 11.23 8.99
7/20/2021 7:45:00 PM 20.99 69.782 0.101 7.26 12.15 8.99
7/20/2021 8:00:00 PM 20.98 69.764 0.101 7.27 13.49 8.99
7/20/2021 8:15:00 PM 20.98 69.764 0.101 7.27 12.94 8.98
7/20/2021 8:30:00 PM 20.97 69.746 0.101 7.25 13.51 8.98
7/20/2021 8:45:00 PM 20.96 69.728 0.101 7.25 13.13 8.98
7/20/2021 9:00:00 PM 20.95 69.71 0.101 7.27 13.35 8.98
7/20/2021 9:15:00 PM 20.95 69.71 0.101 7.25 13.92 8.99
7/20/2021 9:30:00 PM 20.95 69.71 0.101 7.26 11.58 8.97
7/20/2021 9:45:00 PM 20.95 69.71 0.101 7.26 12.51 8.98
7/20/2021 10:00:00 PM 20.95 69.71 0.101 7.25 12.9 8.98
7/20/2021 10:15:00 PM 20.95 69.71 0.101 7.25 13.18 8.96
7/20/2021 10:30:00 PM 20.94 69.692 0.101 7.25 13.33 8.96
7/20/2021 10:45:00 PM 20.94 69.692 0.101 7.25 12.15 8.96
7/20/2021 11:00:00 PM 20.94 69.692 0.101 7.24 13.34 8.96
7/20/2021 11:15:00 PM 20.94 69.692 0.101 7.24 13.79 8.96
7/20/2021 11:30:00 PM 20.93 69.674 0.101 7.25 14.89 8.96
7/20/2021 11:45:00 PM 20.93 69.674 0.101 7.25 15.35 8.95
7/21/2021 12:00:00 AM 20.92 69.656 0.101 7.25 14.41 8.95
7/21/2021 12:15:00 AM 20.91 69.638 0.102 7.24 12.31 8.93
7/21/2021 12:30:00 AM 20.9 69.62 0.102 7.25 13.26 8.93
7/21/2021 12:45:00 AM 20.9 69.62 0.102 7.24 12.35 8.95
7/21/2021 1:00:00 AM 20.89 69.602 0.102 7.24 13.12 8.94
7/21/2021 1:15:00 AM 20.89 69.602 0.102 7.24 11.04 8.93
7/21/2021 1:30:00 AM 21.19 70.142 0.117 7.27 8.79 9.01
7/21/2021 1:45:00 AM 21 69.8 0.109 7.21 7.76 9.03
7/21/2021 2:00:00 AM 20.87 69.566 0.103 7.24 13.11 8.9
7/21/2021 2:15:00 AM 20.84 69.512 0.102 7.25 14.99 8.93
7/21/2021 2:30:00 AM 20.83 69.494 0.102 7.24 12.63 8.93
7/21/2021 2:45:00 AM 20.81 69.458 0.102 7.25 13.86 8.92
7/21/2021 3:00:00 AM 20.79 69.422 0.102 7.24 14.7 8.91
7/21/2021 3:15:00 AM 20.78 69.404 0.102 7.25 14.09 8.92
7/21/2021 3:30:00 AM 20.77 69.386 0.103 7.24 22.84 8.89
7/21/2021 3:45:00 AM 20.73 69.314 0.103 7.25 14.61 8.91
7/21/2021 4:00:00 AM 20.71 69.278 0.102 7.24 14.71 8.91
7/21/2021 4:15:00 AM 20.69 69.242 0.103 7.26 15.31 8.9
7/21/2021 4:30:00 AM 20.67 69.206 0.103 7.24 15.05 8.91
7/21/2021 4:45:00 AM 20.65 69.17 0.103 7.26 14.19 8.9
7/21/2021 5:00:00 AM 20.63 69.134 0.103 7.26 14.49 8.89
7/21/2021 5:15:00 AM 20.61 69.098 0.103 7.26 14.87 8.9
7/21/2021 5:30:00 AM 20.59 69.062 0.103 7.26 14.64 8.9
7/21/2021 5:45:00 AM 20.57 69.026 0.103 7.25 13.5 8.89
7/21/2021 6:00:00 AM 20.55 68.99 0.103 7.25 14.93 8.9
7/21/2021 6:15:00 AM 20.53 68.954 0.103 7.24 12.59 8.9
7/21/2021 6:30:00 AM 20.51 68.918 0.103 7.25 13.79 8.89
7/21/2021 6:45:00 AM 20.49 68.882 0.103 7.25 13 8.9
7/21/2021 7:00:00 AM 20.48 68.864 0.104 7.26 13.69 8.9
7/21/2021 7:15:00 AM 20.47 68.846 0.104 7.26 12.85 8.89
7/21/2021 7:30:00 AM 20.46 68.828 0.104 7.26 12.64 8.9
7/21/2021 7:45:00 AM 20.45 68.81 0.104 7.26 12.29 8.9
7/21/2021 8:00:00 AM 20.45 68.81 0.104 7.26 12.08 8.91
7/21/2021 8:15:00 AM 20.45 68.81 0.104 7.25 12.16 8.91
7/21/2021 8:30:00 AM 20.46 68.828 0.104 7.26 11.06 8.91
7/21/2021 8:45:00 AM 20.54 68.972 0.107 7.27 12.54 8.94
7/21/2021 9:00:00 AM 20.66 69.188 0.11 7.26 8.18 9.03
7/21/2021 9:15:00 AM 20.56 69.008 0.105 7.24 11.4 8.94
7/21/2021 9:30:00 AM 20.56 69.008 0.104 7.26 12.09 8.94
7/21/2021 9:45:00 AM 20.59 69.062 0.104 7.26 11.9 8.93
7/21/2021 10:00:00 AM 20.62 69.116 0.104 7.27 12.64 8.97
7/21/2021 10:15:00 AM 20.62 69.116 0.104 7.26 12 8.96
7/21/2021 10:30:00 AM 20.61 69.098 0.104 7.26 12.11 8.96
7/21/2021 10:45:00 AM 20.63 69.134 0.104 7.27 11.58 8.98
7/21/2021 11:00:00 AM 20.68 69.224 0.105 7.27 11.87 8.98
7/21/2021 11:15:00 AM 20.71 69.278 0.105 7.27 11.22 9
7/21/2021 11:30:00 AM 20.75 69.35 0.105 7.28 11.53 9.01
7/21/2021 11:45:00 AM 20.81 69.458 0.105 7.28 11.12 9.02
7/21/2021 12:00:00 PM 20.88 69.584 0.105 7.29 11.74 9.01
7/21/2021 12:15:00 PM 20.93 69.674 0.105 7.29 11.5 9.04
7/21/2021 12:30:00 PM 20.99 69.782 0.105 7.3 10.84 9.03
7/21/2021 12:45:00 PM 21.06 69.908 0.105 7.31 11.68 9.09
7/21/2021 1:00:00 PM 21.09 69.962 0.105 7.31 12.61 9.08
7/21/2021 1:15:00 PM 21.15 70.07 0.105 7.31 11.28 9.1
7/21/2021 1:30:00 PM 21.2 70.16 0.105 7.31 12.46 9.12
7/21/2021 1:45:00 PM 21.27 70.286 0.106 7.32 12.43 9.11
7/21/2021 2:00:00 PM 21.34 70.412 0.106 7.33 11.96 9.13
7/21/2021 2:15:00 PM 21.39 70.502 0.106 7.33 12.01 9.13
7/21/2021 2:30:00 PM 21.39 70.502 0.106 7.34 11.69 9.14
7/21/2021 2:45:00 PM 21.36 70.448 0.106 7.33 13.03 9.17
7/21/2021 3:00:00 PM 21.33 70.394 0.106 7.34 12.59 9.17
7/21/2021 3:15:00 PM 21.35 70.43 0.106 7.34 12.89 9.17
7/21/2021 3:30:00 PM 21.36 70.448 0.106 7.35 13.12 9.18
7/21/2021 3:45:00 PM 21.35 70.43 0.106 7.35 11.54 9.19
7/21/2021 4:00:00 PM 21.43 70.574 0.106 7.34 11.17 9.2
7/21/2021 4:15:00 PM 21.47 70.646 0.106 7.35 11.03 9.2
7/21/2021 4:30:00 PM 21.48 70.664 0.106 7.34 10.69 9.19
7/21/2021 4:45:00 PM 21.51 70.718 0.106 7.34 10.86 9.19
7/21/2021 5:00:00 PM 21.57 70.826 0.116 7.39 9.51 9.27
7/21/2021 5:15:00 PM 21.53 70.754 0.114 7.27 6.81 9.27
7/21/2021 5:30:00 PM 21.6 70.88 0.107 7.33 12.67 9.22
7/21/2021 5:45:00 PM 21.64 70.952 0.106 7.35 13.66 9.25
7/21/2021 6:00:00 PM 21.61 70.898 0.107 7.36 13.22 9.24
7/21/2021 6:15:00 PM 21.58 70.844 0.107 7.36 10.62 9.26
7/21/2021 6:30:00 PM 21.58 70.844 0.107 7.37 11.78 9.25
7/21/2021 6:45:00 PM 21.57 70.826 0.107 7.36 12.1 9.25
7/21/2021 7:00:00 PM 21.56 70.808 0.107 7.36 11.38 9.26
7/21/2021 7:15:00 PM 21.57 70.826 0.107 7.36 11.19 9.25
7/21/2021 7:30:00 PM 21.58 70.844 0.107 7.37 11.39 9.26
7/21/2021 7:45:00 PM 21.58 70.844 0.107 7.37 10.67 9.27
7/21/2021 8:00:00 PM 21.56 70.808 0.107 7.38 11.31 9.27
7/21/2021 8:15:00 PM 21.51 70.718 0.107 7.37 10.21 9.25
7/21/2021 8:30:00 PM 21.44 70.592 0.108 7.37 11.67 9.22
7/21/2021 8:45:00 PM 21.37 70.466 0.111 7.39 10.91 9.22
7/21/2021 9:00:00 PM 21.31 70.358 0.115 7.4 11.3 9.21
7/21/2021 9:15:00 PM 21.28 70.304 0.117 7.41 11.29 9.21
7/21/2021 9:30:00 PM 21.26 70.268 0.118 7.43 12.82 9.19
7/21/2021 9:45:00 PM 21.24 70.232 0.118 7.43 13.26 9.19
7/21/2021 10:00:00 PM 21.22 70.196 0.117 7.42 12.67 9.18
7/21/2021 10:15:00 PM 21.19 70.142 0.116 7.4 12.71 9.17
7/21/2021 10:30:00 PM 21.17 70.106 0.115 7.39 12.96 9.16
7/21/2021 10:45:00 PM 21.15 70.07 0.113 7.37 13.49 9.15
7/21/2021 11:00:00 PM 21.14 70.052 0.112 7.37 13.78 9.14
7/21/2021 11:15:00 PM 21.13 70.034 0.111 7.37 13.55 9.14
7/21/2021 11:30:00 PM 21.11 69.998 0.11 7.36 13.46 9.13
7/21/2021 11:45:00 PM 21.09 69.962 0.11 7.35 13.31 9.12
7/22/2021 12:00:00 AM 21.07 69.926 0.109 7.36 12.61 9.12
7/22/2021 12:15:00 AM 21.05 69.89 0.109 7.35 12.72 9.12
7/22/2021 12:30:00 AM 21.03 69.854 0.109 7.34 12.3 9.1
7/22/2021 12:45:00 AM 21.01 69.818 0.109 7.34 11.15 9.08
7/22/2021 1:00:00 AM 20.99 69.782 0.109 7.34 12.33 9.09
7/22/2021 1:15:00 AM 20.97 69.746 0.109 7.34 11.73 9.09
7/22/2021 1:30:00 AM 20.95 69.71 0.109 7.34 10.7 9.09
7/22/2021 1:45:00 AM 20.92 69.656 0.109 7.34 12.01 9.07
7/22/2021 2:00:00 AM 20.9 69.62 0.109 7.34 11.87 9.09
7/22/2021 2:15:00 AM 20.87 69.566 0.11 7.34 11.52 9.08
7/22/2021 2:30:00 AM 20.84 69.512 0.11 7.33 11.02 9.06
7/22/2021 2:45:00 AM 20.81 69.458 0.11 7.33 11.34 9.06
7/22/2021 3:00:00 AM 20.77 69.386 0.11 7.33 11.04 9.07
7/22/2021 3:15:00 AM 20.74 69.332 0.11 7.33 11.19 9.06
7/22/2021 3:30:00 AM 20.7 69.26 0.11 7.32 11.3 9.02
7/22/2021 3:45:00 AM 20.66 69.188 0.11 7.33 10.39 9.06
7/22/2021 4:00:00 AM 20.62 69.116 0.11 7.32 10.29 9.05
7/22/2021 4:15:00 AM 20.59 69.062 0.11 7.32 10.32 9.04
7/22/2021 4:30:00 AM 20.56 69.008 0.11 7.32 10.21 9.03
7/22/2021 4:45:00 AM 20.53 68.954 0.11 7.32 10.56 9.03
7/22/2021 5:00:00 AM 20.49 68.882 0.111 7.32 10.61 9.03
7/22/2021 5:15:00 AM 20.46 68.828 0.111 7.31 10.09 9.02
7/22/2021 5:30:00 AM 20.43 68.774 0.111 7.32 10.16 9
7/22/2021 5:45:00 AM 20.41 68.738 0.111 7.31 9.65 9.01
7/22/2021 6:00:00 AM 20.38 68.684 0.111 7.31 10.12 9
7/22/2021 6:15:00 AM 20.35 68.63 0.111 7.31 10.26 9.01
7/22/2021 6:30:00 AM 20.33 68.594 0.111 7.31 9.75 8.98
7/22/2021 6:45:00 AM 20.31 68.558 0.111 7.31 9.92 9
7/22/2021 7:00:00 AM 20.29 68.522 0.111 7.31 9.9 9
7/22/2021 7:15:00 AM 20.27 68.486 0.112 7.31 9.88 9
7/22/2021 7:30:00 AM 20.26 68.468 0.112 7.31 9.69 9.01
7/22/2021 7:45:00 AM 20.25 68.45 0.112 7.31 9.71 9.01
7/22/2021 8:00:00 AM 20.24 68.432 0.112 7.31 9.49 9.02
7/22/2021 8:15:00 AM 20.24 68.432 0.112 7.31 9.71 9.02
7/22/2021 8:30:00 AM 20.24 68.432 0.112 7.32 9.42 9.04
7/22/2021 8:45:00 AM 20.24 68.432 0.112 7.32 9.4 9.04
7/22/2021 9:00:00 AM 20.25 68.45 0.112 7.32 9.32 9.07
7/22/2021 9:15:00 AM 20.27 68.486 0.112 7.32 8.96 9.08
7/22/2021 9:30:00 AM 20.28 68.504 0.112 7.32 9.11 9.09
7/22/2021 9:45:00 AM 20.31 68.558 0.113 7.33 9.13 9.09
7/22/2021 10:00:00 AM 20.36 68.648 0.113 7.33 8.89 9.1
7/22/2021 10:15:00 AM 20.4 68.72 0.113 7.33 8.82 9.1
7/22/2021 10:30:00 AM 20.42 68.756 0.113 7.33 8.92 9.12
7/22/2021 10:45:00 AM 20.47 68.846 0.113 7.34 8.96 9.15
7/22/2021 11:00:00 AM 20.52 68.936 0.113 7.35 9.17 9.18
7/22/2021 11:15:00 AM 20.57 69.026 0.113 7.35 8.87 9.21
7/22/2021 11:30:00 AM 20.62 69.116 0.113 7.37 8.54 9.23
7/22/2021 11:45:00 AM 20.67 69.206 0.114 7.37 8.37 9.26
7/22/2021 12:00:00 PM 20.71 69.278 0.114 7.39 8.52 9.29
7/22/2021 12:15:00 PM 20.75 69.35 0.114 7.39 8.41 9.3
7/22/2021 12:30:00 PM 20.8 69.44 0.114 7.39 8.7 9.36
7/22/2021 12:45:00 PM 20.85 69.53 0.114 7.41 8.66 9.37
7/22/2021 1:00:00 PM 20.89 69.602 0.114 7.41 8.17 9.4
7/22/2021 1:15:00 PM 20.89 69.602 0.114 7.43 8.62 9.43
7/22/2021 1:30:00 PM 20.89 69.602 0.114 7.43 8.08 9.44
7/22/2021 1:45:00 PM 20.9 69.62 0.114 7.43 8.32 9.44
7/22/2021 2:00:00 PM 20.93 69.674 0.114 7.44 8.41 9.48
7/22/2021 2:15:00 PM 20.96 69.728 0.115 7.44 8.55 9.49
7/22/2021 2:30:00 PM 20.99 69.782 0.117 7.45 7.64 9.51
7/22/2021 2:45:00 PM 21.09 69.962 0.124 7.47 7.27 9.44
7/22/2021 3:00:00 PM 21.2 70.16 0.125 7.49 7.77 9.52
7/22/2021 3:15:00 PM 21.29 70.32201 0.122 7.49 7.72 9.54
7/22/2021 3:30:00 PM 21.39 70.502 0.12 7.49 7.76 9.55
7/22/2021 3:45:00 PM 21.46 70.628 0.121 7.5 7.85 9.6
7/22/2021 4:00:00 PM 21.5 70.7 0.163 7.65 7.65 9.61
7/22/2021 4:15:00 PM 21.57 70.826 0.188 7.85 7.49 9.62
7/22/2021 4:30:00 PM 21.58 70.844 0.178 7.82 7.34 9.63
7/22/2021 4:45:00 PM 21.57 70.826 0.168 7.8 7.33 9.64
7/22/2021 5:00:00 PM 21.69 71.042 0.138 7.58 6.2 9.54
7/22/2021 5:15:00 PM 21.56 70.808 0.13 7.45 5.53 9.53
7/22/2021 5:30:00 PM 21.65 70.97 0.122 7.55 8.46 9.66
7/22/2021 5:45:00 PM 21.67 71.006 0.12 7.55 7.8 9.67
7/22/2021 6:00:00 PM 21.65 70.97 0.119 7.55 8.78 9.69
7/22/2021 6:15:00 PM 21.61 70.898 0.118 7.54 8.41 9.69
7/22/2021 6:30:00 PM 21.58 70.844 0.117 7.54 7.9 9.67
7/22/2021 6:45:00 PM 21.57 70.826 0.117 7.53 8.11 9.67
7/22/2021 7:00:00 PM 21.54 70.772 0.117 7.53 7.69 9.67
7/22/2021 7:15:00 PM 21.5 70.7 0.117 7.52 7.99 9.66
7/22/2021 7:30:00 PM 21.47 70.646 0.117 7.53 7.79 9.65
7/22/2021 7:45:00 PM 21.45 70.61 0.117 7.52 7.94 9.65
7/22/2021 8:00:00 PM 21.43 70.574 0.117 7.52 7.94 9.62
7/22/2021 8:15:00 PM 21.42 70.556 0.117 7.5 8.3 9.61
7/22/2021 8:30:00 PM 21.42 70.556 0.117 7.5 8.82 9.6
7/22/2021 8:45:00 PM 21.42 70.556 0.117 7.5 8.66 9.58
7/22/2021 9:00:00 PM 21.41 70.538 0.117 7.49 8.09 9.58
7/22/2021 9:15:00 PM 21.38 70.484 0.117 7.49 8.67 9.55
7/22/2021 9:30:00 PM 21.35 70.43 0.117 7.48 8.57 9.53
7/22/2021 9:45:00 PM 21.32 70.376 0.118 7.48 8.66 9.53
7/22/2021 10:00:00 PM 21.3 70.34 0.118 7.47 8.6 9.51
7/22/2021 10:15:00 PM 21.27 70.286 0.118 7.48 8.86 9.5
7/22/2021 10:30:00 PM 21.24 70.232 0.118 7.47 9.17 9.48
7/22/2021 10:45:00 PM 21.22 70.196 0.118 7.46 8.69 9.48
7/22/2021 11:00:00 PM 21.2 70.16 0.118 7.46 9.09 9.47
7/22/2021 11:15:00 PM 21.2 70.16 0.118 7.46 8.92 9.46
7/22/2021 11:30:00 PM 21.19 70.142 0.118 7.45 9.59 9.45
7/22/2021 11:45:00 PM 21.17 70.106 0.118 7.46 9.59 9.44
7/23/2021 12:00:00 AM 21.15 70.07 0.118 7.45 9.13 9.42
7/23/2021 12:15:00 AM 21.13 70.034 0.118 7.45 9.21 9.41
7/23/2021 12:30:00 AM 21.12 70.016 0.118 7.44 8.76 9.4
7/23/2021 12:45:00 AM 21.09 69.962 0.119 7.44 8.21 9.39
7/23/2021 1:00:00 AM 21.07 69.926 0.119 7.43 7.69 9.37
7/23/2021 1:15:00 AM 21.15 70.07 0.125 7.46 6.7 9.35
7/23/2021 1:30:00 AM 21.13 70.034 0.124 7.39 5.68 9.3
7/23/2021 1:45:00 AM 20.99 69.782 0.119 7.41 9.3 9.32
7/23/2021 2:00:00 AM 20.96 69.728 0.119 7.42 8.34 9.33
7/23/2021 2:15:00 AM 20.93 69.674 0.119 7.42 8.57 9.31
7/23/2021 2:30:00 AM 20.9 69.62 0.119 7.43 7.76 9.32
7/23/2021 2:45:00 AM 20.87 69.566 0.119 7.41 7.82 9.3
7/23/2021 3:00:00 AM 20.83 69.494 0.119 7.41 8.6 9.29
7/23/2021 3:15:00 AM 20.79 69.422 0.12 7.41 7.95 9.28
7/23/2021 3:30:00 AM 20.76 69.368 0.12 7.41 8.53 9.27
7/23/2021 3:45:00 AM 20.73 69.314 0.12 7.4 8.4 9.26
7/23/2021 4:00:00 AM 20.71 69.278 0.12 7.4 12.02 9.25
7/23/2021 4:15:00 AM 20.68 69.224 0.12 7.4 8.69 9.24
7/23/2021 4:30:00 AM 20.65 69.17 0.12 7.4 8.32 9.24
7/23/2021 4:45:00 AM 20.62 69.116 0.119 7.4 8.23 9.22
7/23/2021 5:00:00 AM 20.6 69.08 0.12 7.4 7.82 9.22
7/23/2021 5:15:00 AM 20.57 69.026 0.12 7.39 7.9 9.21
7/23/2021 5:30:00 AM 20.54 68.972 0.12 7.39 7.76 9.19
7/23/2021 5:45:00 AM 20.51 68.918 0.12 7.39 7.76 9.19
7/23/2021 6:00:00 AM 20.48 68.864 0.12 7.38 7.43 9.18
7/23/2021 6:15:00 AM 20.45 68.81 0.12 7.38 7.89 9.16
7/23/2021 6:30:00 AM 20.42 68.756 0.121 7.38 7.69 9.16
7/23/2021 6:45:00 AM 20.39 68.702 0.121 7.39 7.76 9.16
7/23/2021 7:00:00 AM 20.37 68.666 0.121 7.38 7.79 9.16
7/23/2021 7:15:00 AM 20.35 68.63 0.121 7.38 7.67 9.17
7/23/2021 7:30:00 AM 20.33 68.594 0.121 7.38 7.92 9.16
7/23/2021 7:45:00 AM 20.32 68.576 0.121 7.38 7.4 9.16
7/23/2021 8:00:00 AM 20.32 68.576 0.121 7.38 6.49 9.15
7/23/2021 8:15:00 AM 20.32 68.576 0.121 7.38 6.71 9.15
7/23/2021 8:30:00 AM 20.33 68.594 0.122 7.38 6.6 9.16
7/23/2021 8:45:00 AM 20.34 68.612 0.121 7.38 6.69 9.17
7/23/2021 9:00:00 AM 20.36 68.648 0.122 7.38 6.49 9.19
7/23/2021 9:15:00 AM 20.38 68.684 0.122 7.38 6.76 9.21
7/23/2021 9:30:00 AM 20.41 68.738 0.122 7.39 6.49 9.22
7/23/2021 9:45:00 AM 20.45 68.81 0.122 7.39 7.56 9.21
7/23/2021 10:00:00 AM 20.49 68.882 0.122 7.39 7.15 9.24
7/23/2021 10:15:00 AM 20.53 68.954